Darstellungsparameter: Aktuell verwendete Einstellungen:
Skalierung der Graphiken ... ?
xyx+y,   Skalierungsfaktor:      Skalierung: Modus: x, Faktor: 1
Darstellungszeitraum ... ?
Vom - - bis: - -   Zeitraum: 15.05.2014 - 04.06.2014
Min/Max/Avg-Anzeige ... ?
Zeige MMA aktuell
Zeige MMA Monat
Zeige MMA alles
Zeige --A aktuell
Zeige --A Monat
Zeige --A alles
Keine MMA-Anzeige
MMA:
Keine MMA-Graphiken
MMA-Basis: 15.05.2014 - 04.06.2014
Quicknavigation für Darstellung... ?
Tage:      1T, 2T, 3T, 5T -1T -2T -3T -5T +1T +2T +3T +5T
Wochen: 1W, 2W, 3W -1W -2W -3W +1W +2W +3W
Monate: 1M, 3M, 6M -1M -3M -6M +1M +3M +6M
Jahre:    1J, 3J, 5J, 10J -1J -3J -5J -10J +1J +3J +5J +10J
Nutze für die Darstellung ... ?
Originaldaten oder Mittelwerte auf ...
Stundenbasis Tagesbasis Wochenbasis
Monatsbasis Jahresbasis      Datenbasis: Original-Daten
Darstellen als:
Statistik (Auto) Statistik J:M      Darstellung:
Zur Graphik,    zurück zur Übersicht aller Sensoren.
 
Tabellarische Datenbersicht: ?
 
Sensor: Nr:Datum:Temp:Abs-Feuchte:Windchill:Wind:
Aussen-T/F 1 15-05-2014 00:00:00 9.3 C 7.73 g/m*3 9.3 C 4.8 km/h
2 15-05-2014 00:05:00 9.3 C 7.73 g/m*3 9.3 C 1.6 km/h
3 15-05-2014 00:10:00 9.3 C 7.91 g/m*3 9.3 C 1.6 km/h
4 15-05-2014 00:15:00 9.2 C 7.86 g/m*3 9.2 C 0 km/h
5 15-05-2014 00:20:00 9.2 C 7.77 g/m*3 9.2 C 0 km/h
6 15-05-2014 00:25:00 9.2 C 7.86 g/m*3 9.2 C 0 km/h
7 15-05-2014 00:30:00 9.2 C 7.86 g/m*3 9.2 C 0 km/h
8 15-05-2014 00:35:00 9.2 C 7.86 g/m*3 9.2 C 0 km/h
9 15-05-2014 00:40:00 9.2 C 7.86 g/m*3 9.2 C 0 km/h
10 15-05-2014 00:45:00 9.1 C 7.81 g/m*3 9.1 C 0 km/h
11 15-05-2014 00:50:00 9 C 7.76 g/m*3 9 C 0 km/h
12 15-05-2014 00:55:00 8.9 C 7.71 g/m*3 8.9 C 0 km/h
13 15-05-2014 01:00:00 8.8 C 7.75 g/m*3 8.8 C 0 km/h
14 15-05-2014 01:05:00 8.7 C 7.7 g/m*3 8.7 C 0 km/h
15 15-05-2014 01:10:00 8.6 C 7.65 g/m*3 8.6 C 0 km/h
16 15-05-2014 01:15:00 8.6 C 7.73 g/m*3 8.6 C 0 km/h
17 15-05-2014 01:20:00 8.6 C 7.73 g/m*3 8.6 C 0 km/h
18 15-05-2014 01:25:00 8.5 C 7.68 g/m*3 8.5 C 0 km/h
19 15-05-2014 01:30:00 8.4 C 7.63 g/m*3 8.4 C 0 km/h
20 15-05-2014 01:35:00 8.3 C 7.59 g/m*3 8.3 C 0 km/h
21 15-05-2014 01:40:00 8.2 C 7.54 g/m*3 8.2 C 0 km/h
22 15-05-2014 01:45:00 8.2 C 7.62 g/m*3 8.2 C 0 km/h
23 15-05-2014 01:50:00 8.2 C 7.62 g/m*3 8.2 C 3.2 km/h
24 15-05-2014 01:55:00 8.3 C 7.59 g/m*3 7.41 C 6.4 km/h
25 15-05-2014 02:00:00 8.4 C 7.63 g/m*3 7.52 C 6.4 km/h
Sensor: Nr:Datum:Temp:Abs-Feuchte:Windchill:Wind:
Aussen-T/F 26 15-05-2014 02:05:00 8.4 C 7.63 g/m*3 8.4 C 0 km/h
27 15-05-2014 02:10:00 8.4 C 7.63 g/m*3 8.4 C 1.6 km/h
28 15-05-2014 02:15:00 8.4 C 7.63 g/m*3 8.4 C 0 km/h
29 15-05-2014 02:20:00 8.3 C 7.59 g/m*3 8.3 C 0 km/h
30 15-05-2014 02:25:00 8.2 C 7.62 g/m*3 8.2 C 3.2 km/h
31 15-05-2014 02:30:00 8.2 C 7.62 g/m*3 8.2 C 0 km/h
32 15-05-2014 02:35:00 8.2 C 7.62 g/m*3 8.2 C 1.6 km/h
33 15-05-2014 02:40:00 8.2 C 7.54 g/m*3 8.2 C 0 km/h
34 15-05-2014 02:45:00 8.1 C 7.57 g/m*3 8.1 C 3.2 km/h
35 15-05-2014 02:50:00 8.1 C 7.57 g/m*3 8.1 C 0 km/h
36 15-05-2014 02:55:00 7.9 C 7.47 g/m*3 7.9 C 0 km/h
37 15-05-2014 03:00:00 7.8 C 7.43 g/m*3 7.8 C 0 km/h
38 15-05-2014 03:05:00 7.7 C 7.38 g/m*3 7.7 C 3.2 km/h
39 15-05-2014 03:10:00 7.6 C 7.33 g/m*3 7.6 C 1.6 km/h
40 15-05-2014 03:15:00 7.6 C 7.41 g/m*3 7.6 C 1.6 km/h
41 15-05-2014 03:20:00 7.6 C 7.41 g/m*3 7.6 C 1.6 km/h
42 15-05-2014 03:25:00 7.6 C 7.41 g/m*3 7.6 C 0 km/h
43 15-05-2014 03:30:00 7.7 C 7.38 g/m*3 7.7 C 3.2 km/h
44 15-05-2014 03:35:00 7.7 C 7.38 g/m*3 7.7 C 3.2 km/h
45 15-05-2014 03:40:00 7.7 C 7.38 g/m*3 7.7 C 1.6 km/h
46 15-05-2014 03:45:00 7.6 C 7.33 g/m*3 7.6 C 1.6 km/h
47 15-05-2014 03:50:00 7.6 C 7.33 g/m*3 7.6 C 4.8 km/h
48 15-05-2014 03:55:00 7.6 C 7.33 g/m*3 7.6 C 3.2 km/h
49 15-05-2014 04:00:00 7.7 C 7.38 g/m*3 7.7 C 4.8 km/h
50 15-05-2014 04:05:00 7.7 C 7.22 g/m*3 6.71 C 6.4 km/h
Sensor: Nr:Datum:Temp:Abs-Feuchte:Windchill:Wind:
Aussen-T/F 51 15-05-2014 04:10:00 7.7 C 7.22 g/m*3 7.7 C 1.6 km/h
52 15-05-2014 04:15:00 7.6 C 7.17 g/m*3 7.6 C 1.6 km/h
53 15-05-2014 04:20:00 7.6 C 7.17 g/m*3 7.6 C 0 km/h
54 15-05-2014 04:25:00 7.5 C 7.12 g/m*3 7.5 C 4.8 km/h
55 15-05-2014 04:30:00 7.5 C 7.12 g/m*3 6.05 C 8.1 km/h
56 15-05-2014 04:35:00 7.5 C 7.12 g/m*3 7.5 C 0 km/h
57 15-05-2014 04:40:00 7.3 C 7.03 g/m*3 7.3 C 0 km/h
58 15-05-2014 04:45:00 7.1 C 6.94 g/m*3 7.1 C 4.8 km/h
59 15-05-2014 04:50:00 6.9 C 6.85 g/m*3 6.9 C 1.6 km/h
60 15-05-2014 04:55:00 6.8 C 6.88 g/m*3 6.8 C 0 km/h
61 15-05-2014 05:00:00 6.6 C 6.79 g/m*3 6.6 C 0 km/h
62 15-05-2014 05:05:00 6.4 C 6.71 g/m*3 6.4 C 0 km/h
63 15-05-2014 05:10:00 6.2 C 6.69 g/m*3 6.2 C 0 km/h
64 15-05-2014 05:15:00 6.2 C 6.77 g/m*3 6.2 C 0 km/h
65 15-05-2014 05:20:00 6.1 C 6.72 g/m*3 6.1 C 0 km/h
66 15-05-2014 05:25:00 6.2 C 6.84 g/m*3 6.2 C 0 km/h
67 15-05-2014 05:30:00 6.1 C 6.72 g/m*3 6.1 C 0 km/h
68 15-05-2014 05:35:00 5.9 C 6.63 g/m*3 5.9 C 0 km/h
69 15-05-2014 05:40:00 5.8 C 6.66 g/m*3 5.8 C 0 km/h
70 15-05-2014 05:45:00 5.8 C 6.66 g/m*3 5.8 C 0 km/h
71 15-05-2014 05:50:00 5.7 C 6.62 g/m*3 5.7 C 0 km/h
72 15-05-2014 05:55:00 5.7 C 6.69 g/m*3 5.7 C 1.6 km/h
73 15-05-2014 06:00:00 5.7 C 6.69 g/m*3 5.7 C 0 km/h
74 15-05-2014 06:05:00 5.8 C 6.73 g/m*3 5.8 C 3.2 km/h
75 15-05-2014 06:10:00 5.8 C 6.73 g/m*3 5.8 C 0 km/h
Sensor: Nr:Datum:Temp:Abs-Feuchte:Windchill:Wind:
Aussen-T/F 76 15-05-2014 06:15:00 5.8 C 6.73 g/m*3 5.8 C 0 km/h
77 15-05-2014 06:20:00 5.9 C 6.78 g/m*3 5.9 C 0 km/h
78 15-05-2014 06:25:00 6 C 6.82 g/m*3 6 C 0 km/h
79 15-05-2014 06:30:00 6.1 C 6.87 g/m*3 6.1 C 0 km/h
80 15-05-2014 06:35:00 6.2 C 6.91 g/m*3 6.2 C 3.2 km/h
81 15-05-2014 06:40:00 6.3 C 6.96 g/m*3 6.3 C 0 km/h
82 15-05-2014 06:45:00 6.4 C 7 g/m*3 6.4 C 0 km/h
83 15-05-2014 06:50:00 6.4 C 7 g/m*3 6.4 C 0 km/h
84 15-05-2014 06:55:00 6.6 C 7.1 g/m*3 6.6 C 3.2 km/h
85 15-05-2014 07:00:00 6.7 C 7.14 g/m*3 6.7 C 4.8 km/h
86 15-05-2014 07:05:00 6.8 C 7.11 g/m*3 6.8 C 3.2 km/h
87 15-05-2014 07:10:00 6.8 C 7.11 g/m*3 6.8 C 1.6 km/h
88 15-05-2014 07:15:00 6.9 C 7.08 g/m*3 6.9 C 3.2 km/h
89 15-05-2014 07:20:00 6.9 C 7.08 g/m*3 6.9 C 1.6 km/h
90 15-05-2014 07:25:00 7 C 7.13 g/m*3 7 C 3.2 km/h
91 15-05-2014 07:30:00 7.1 C 7.18 g/m*3 7.1 C 3.2 km/h
92 15-05-2014 07:35:00 7.2 C 7.14 g/m*3 7.2 C 0 km/h
93 15-05-2014 07:40:00 7.2 C 7.14 g/m*3 7.2 C 0 km/h
94 15-05-2014 07:45:00 7.2 C 7.06 g/m*3 7.2 C 0 km/h
95 15-05-2014 07:50:00 7.2 C 7.06 g/m*3 7.2 C 1.6 km/h
96 15-05-2014 07:55:00 7.2 C 7.06 g/m*3 7.2 C 3.2 km/h
97 15-05-2014 08:00:00 7.3 C 7.03 g/m*3 7.3 C 4.8 km/h
98 15-05-2014 08:05:00 7.3 C 7.03 g/m*3 7.3 C 4.8 km/h
99 15-05-2014 08:10:00 7.5 C 7.12 g/m*3 7.5 C 4.8 km/h
100 15-05-2014 08:15:00 7.6 C 7.09 g/m*3 7.6 C 1.6 km/h
Sensor: Nr:Datum:Temp:Abs-Feuchte:Windchill:Wind:
Aussen-T/F 101 15-05-2014 08:20:00 7.6 C 7.09 g/m*3 7.6 C 4.8 km/h
102 15-05-2014 08:25:00 7.7 C 7.05 g/m*3 7.7 C 3.2 km/h
103 15-05-2014 08:30:00 7.8 C 7.1 g/m*3 6.83 C 6.4 km/h
104 15-05-2014 08:35:00 8 C 7.19 g/m*3 8 C 3.2 km/h
105 15-05-2014 08:40:00 8.1 C 7.16 g/m*3 8.1 C 4.8 km/h
106 15-05-2014 08:45:00 8.2 C 7.2 g/m*3 8.2 C 0 km/h
107 15-05-2014 08:50:00 8.3 C 7.16 g/m*3 8.3 C 4.8 km/h
108 15-05-2014 08:55:00 8.3 C 7 g/m*3 8.3 C 4.8 km/h
109 15-05-2014 09:00:00 8.3 C 6.91 g/m*3 8.3 C 3.2 km/h
110 15-05-2014 09:05:00 8.3 C 6.91 g/m*3 8.3 C 4.8 km/h
111 15-05-2014 09:10:00 8.3 C 7 g/m*3 7.41 C 6.4 km/h
112 15-05-2014 09:15:00 8.3 C 7 g/m*3 8.3 C 4.8 km/h
113 15-05-2014 09:20:00 8.3 C 7 g/m*3 8.3 C 3.2 km/h
114 15-05-2014 09:25:00 8.3 C 7.16 g/m*3 8.3 C 4.8 km/h
115 15-05-2014 09:30:00 8.2 C 7.12 g/m*3 8.2 C 4.8 km/h
116 15-05-2014 09:35:00 8.3 C 7.16 g/m*3 8.3 C 1.6 km/h
117 15-05-2014 09:40:00 8.3 C 7.16 g/m*3 8.3 C 4.8 km/h
118 15-05-2014 09:45:00 8.2 C 6.95 g/m*3 7.29 C 6.4 km/h
119 15-05-2014 09:50:00 8.3 C 6.91 g/m*3 6.66 C 9.7 km/h
120 15-05-2014 09:55:00 8.4 C 6.96 g/m*3 8.4 C 3.2 km/h
121 15-05-2014 10:00:00 8.6 C 7.13 g/m*3 7.34 C 8.1 km/h
122 15-05-2014 10:05:00 8.8 C 7.14 g/m*3 7.98 C 6.4 km/h
123 15-05-2014 10:10:00 9 C 7.14 g/m*3 6.97 C 12.9 km/h
124 15-05-2014 10:15:00 9.2 C 7.32 g/m*3 7.46 C 11.3 km/h
125 15-05-2014 10:20:00 9.5 C 7.37 g/m*3 8.09 C 9.7 km/h
Sensor: Nr:Datum:Temp:Abs-Feuchte:Windchill:Wind:
Aussen-T/F 126 15-05-2014 10:25:00 9.7 C 7.28 g/m*3 8.33 C 9.7 km/h
127 15-05-2014 10:30:00 9.9 C 7.28 g/m*3 8.56 C 9.7 km/h
128 15-05-2014 10:35:00 10 C 7.24 g/m*3 8.68 C 9.7 km/h
129 15-05-2014 10:40:00 10.1 C 7.19 g/m*3 8.8 C 9.7 km/h
130 15-05-2014 10:45:00 10.2 C 7.14 g/m*3 9.22 C 8.1 km/h
131 15-05-2014 10:50:00 10.2 C 7.14 g/m*3 9.22 C 8.1 km/h
132 15-05-2014 10:55:00 10.3 C 6.99 g/m*3 9.04 C 9.7 km/h
133 15-05-2014 11:00:00 10.3 C 6.99 g/m*3 9.04 C 9.7 km/h
134 15-05-2014 11:05:00 10.3 C 7.18 g/m*3 9.34 C 8.1 km/h
135 15-05-2014 11:10:00 10.5 C 7.18 g/m*3 9.57 C 8.1 km/h
136 15-05-2014 11:15:00 10.7 C 7.07 g/m*3 9.81 C 8.1 km/h
137 15-05-2014 11:20:00 10.6 C 7.03 g/m*3 9.4 C 9.7 km/h
138 15-05-2014 11:25:00 10.6 C 7.32 g/m*3 9.4 C 9.7 km/h
139 15-05-2014 11:30:00 10.7 C 7.17 g/m*3 9.26 C 11.3 km/h
140 15-05-2014 11:35:00 10.7 C 7.07 g/m*3 9.52 C 9.7 km/h
141 15-05-2014 11:40:00 10.6 C 7.03 g/m*3 8.92 C 12.9 km/h
142 15-05-2014 11:45:00 10.5 C 7.08 g/m*3 8.8 C 12.9 km/h
143 15-05-2014 11:50:00 10.4 C 7.13 g/m*3 9.46 C 8.1 km/h
144 15-05-2014 11:55:00 10.4 C 7.04 g/m*3 9.16 C 9.7 km/h
145 15-05-2014 12:00:00 10.4 C 7.23 g/m*3 8.47 C 14.5 km/h
146 15-05-2014 12:05:00 10.3 C 7.09 g/m*3 8.55 C 12.9 km/h
147 15-05-2014 12:10:00 10.2 C 7.14 g/m*3 8.66 C 11.3 km/h
148 15-05-2014 12:15:00 10.2 C 7.33 g/m*3 8.92 C 9.7 km/h
149 15-05-2014 12:20:00 10.2 C 7.42 g/m*3 9.22 C 8.1 km/h
150 15-05-2014 12:25:00 10.6 C 7.52 g/m*3 9.14 C 11.3 km/h
Sensor: Nr:Datum:Temp:Abs-Feuchte:Windchill:Wind:
Aussen-T/F 151 15-05-2014 12:30:00 10.9 C 7.46 g/m*3 10.04 C 8.1 km/h
152 15-05-2014 12:35:00 11.1 C 7.45 g/m*3 11.1 C 12.9 km/h
153 15-05-2014 12:40:00 11 C 7.41 g/m*3 9.4 C 12.9 km/h
154 15-05-2014 12:45:00 11 C 7.41 g/m*3 9.63 C 11.3 km/h
155 15-05-2014 12:50:00 10.9 C 7.36 g/m*3 9.76 C 9.7 km/h
156 15-05-2014 12:55:00 11 C 7.41 g/m*3 9.63 C 11.3 km/h
157 15-05-2014 13:00:00 11.1 C 7.45 g/m*3 11.1 C 8.1 km/h
158 15-05-2014 13:05:00 11.3 C 7.45 g/m*3 11.3 C 9.7 km/h
159 15-05-2014 13:10:00 11.5 C 7.64 g/m*3 11.5 C 11.3 km/h
160 15-05-2014 13:15:00 11.7 C 7.53 g/m*3 11.7 C 12.9 km/h
161 15-05-2014 13:20:00 11.7 C 7.53 g/m*3 11.7 C 12.9 km/h
162 15-05-2014 13:25:00 11.7 C 7.53 g/m*3 11.7 C 12.9 km/h
163 15-05-2014 13:30:00 11.6 C 7.48 g/m*3 11.6 C 16.1 km/h
164 15-05-2014 13:35:00 11.4 C 7.39 g/m*3 11.4 C 11.3 km/h
165 15-05-2014 13:40:00 11.4 C 7.39 g/m*3 11.4 C 8.1 km/h
166 15-05-2014 13:45:00 11.3 C 7.45 g/m*3 11.3 C 8.1 km/h
167 15-05-2014 13:50:00 11.5 C 7.44 g/m*3 11.5 C 9.7 km/h
168 15-05-2014 13:55:00 11.7 C 7.53 g/m*3 11.7 C 9.7 km/h
169 15-05-2014 14:00:00 12 C 7.57 g/m*3 12 C 8.1 km/h
170 15-05-2014 14:05:00 12.3 C 7.71 g/m*3 12.3 C 12.9 km/h
171 15-05-2014 14:10:00 12.6 C 7.63 g/m*3 12.6 C 11.3 km/h
172 15-05-2014 14:15:00 12.6 C 7.63 g/m*3 12.6 C 8.1 km/h
173 15-05-2014 14:20:00 12.6 C 7.52 g/m*3 12.6 C 8.1 km/h
174 15-05-2014 14:25:00 12.8 C 7.95 g/m*3 12.8 C 8.1 km/h
175 15-05-2014 14:30:00 13 C 7.71 g/m*3 13 C 16.1 km/h
Sensor: Nr:Datum:Temp:Abs-Feuchte:Windchill:Wind:
Aussen-T/F 176 15-05-2014 14:35:00 12.7 C 7.57 g/m*3 12.7 C 14.5 km/h
177 15-05-2014 14:40:00 12.6 C 7.74 g/m*3 12.6 C 11.3 km/h
178 15-05-2014 14:45:00 12.6 C 7.74 g/m*3 12.6 C 12.9 km/h
179 15-05-2014 14:50:00 12.7 C 7.68 g/m*3 12.7 C 11.3 km/h
180 15-05-2014 14:55:00 12.7 C 7.46 g/m*3 12.7 C 12.9 km/h
181 15-05-2014 15:00:00 12.8 C 7.62 g/m*3 12.8 C 8.1 km/h
182 15-05-2014 15:05:00 12.9 C 7.66 g/m*3 12.9 C 8.1 km/h
183 15-05-2014 15:10:00 13.1 C 7.65 g/m*3 13.1 C 6.4 km/h
184 15-05-2014 15:15:00 13 C 7.6 g/m*3 13 C 11.3 km/h
185 15-05-2014 15:20:00 12.7 C 7.46 g/m*3 12.7 C 11.3 km/h
186 15-05-2014 15:25:00 12.7 C 7.68 g/m*3 12.7 C 8.1 km/h
187 15-05-2014 15:30:00 12.8 C 7.62 g/m*3 12.8 C 9.7 km/h
188 15-05-2014 15:35:00 13 C 7.94 g/m*3 13 C 8.1 km/h
189 15-05-2014 15:40:00 13.2 C 7.81 g/m*3 13.2 C 11.3 km/h
190 15-05-2014 15:45:00 13.2 C 7.69 g/m*3 13.2 C 11.3 km/h
191 15-05-2014 15:50:00 13.1 C 7.76 g/m*3 13.1 C 9.7 km/h
192 15-05-2014 15:55:00 13 C 7.83 g/m*3 13 C 16.1 km/h
193 15-05-2014 16:00:00 12.9 C 7.89 g/m*3 12.9 C 8.1 km/h
194 15-05-2014 16:05:00 13 C 7.83 g/m*3 13 C 11.3 km/h
195 15-05-2014 16:10:00 13.1 C 7.87 g/m*3 13.1 C 6.4 km/h
196 15-05-2014 16:15:00 13.2 C 7.81 g/m*3 13.2 C 11.3 km/h
197 15-05-2014 16:20:00 13.2 C 7.69 g/m*3 13.2 C 9.7 km/h
198 15-05-2014 16:25:00 13.3 C 7.86 g/m*3 13.3 C 9.7 km/h
199 15-05-2014 16:30:00 13.3 C 7.86 g/m*3 13.3 C 9.7 km/h
200 15-05-2014 16:35:00 13.2 C 7.92 g/m*3 13.2 C 9.7 km/h
Sensor: Nr:Datum:Temp:Abs-Feuchte:Windchill:Wind:
Aussen-T/F 201 15-05-2014 16:40:00 13.2 C 7.69 g/m*3 13.2 C 6.4 km/h
202 15-05-2014 16:45:00 13.2 C 7.92 g/m*3 13.2 C 6.4 km/h
203 15-05-2014 16:50:00 13.2 C 7.92 g/m*3 13.2 C 9.7 km/h
204 15-05-2014 16:55:00 13.2 C 7.92 g/m*3 13.2 C 6.4 km/h
205 15-05-2014 17:00:00 13.4 C 7.79 g/m*3 13.4 C 11.3 km/h
206 15-05-2014 17:05:00 13.4 C 7.67 g/m*3 13.4 C 9.7 km/h
207 15-05-2014 17:10:00 13.3 C 7.63 g/m*3 13.3 C 4.8 km/h
208 15-05-2014 17:15:00 13.3 C 7.74 g/m*3 13.3 C 11.3 km/h
209 15-05-2014 17:20:00 13.3 C 7.63 g/m*3 13.3 C 14.5 km/h
210 15-05-2014 17:25:00 13.3 C 7.63 g/m*3 13.3 C 11.3 km/h
211 15-05-2014 17:30:00 13.3 C 7.74 g/m*3 13.3 C 9.7 km/h
212 15-05-2014 17:35:00 13.3 C 7.74 g/m*3 13.3 C 8.1 km/h
213 15-05-2014 17:40:00 13.3 C 7.74 g/m*3 13.3 C 11.3 km/h
214 15-05-2014 17:45:00 13.2 C 7.81 g/m*3 13.2 C 11.3 km/h
215 15-05-2014 17:50:00 13.1 C 7.65 g/m*3 13.1 C 11.3 km/h
216 15-05-2014 17:55:00 12.9 C 7.66 g/m*3 12.9 C 12.9 km/h
217 15-05-2014 18:00:00 12.8 C 7.62 g/m*3 12.8 C 11.3 km/h
218 15-05-2014 18:05:00 12.8 C 7.84 g/m*3 12.8 C 9.7 km/h
219 15-05-2014 18:10:00 12.7 C 7.79 g/m*3 12.7 C 12.9 km/h
220 15-05-2014 18:15:00 12.7 C 7.9 g/m*3 12.7 C 11.3 km/h
221 15-05-2014 18:20:00 12.7 C 7.79 g/m*3 12.7 C 11.3 km/h
222 15-05-2014 18:25:00 12.7 C 7.9 g/m*3 12.7 C 9.7 km/h
223 15-05-2014 18:30:00 12.7 C 7.9 g/m*3 12.7 C 12.9 km/h
224 15-05-2014 18:35:00 12.7 C 7.9 g/m*3 12.7 C 9.7 km/h
225 15-05-2014 18:40:00 12.8 C 8.06 g/m*3 12.8 C 12.9 km/h
Sensor: Nr:Datum:Temp:Abs-Feuchte:Windchill:Wind:
Aussen-T/F 226 15-05-2014 18:45:00 12.9 C 8 g/m*3 12.9 C 8.1 km/h
227 15-05-2014 18:50:00 12.9 C 8 g/m*3 12.9 C 9.7 km/h
228 15-05-2014 18:55:00 12.8 C 7.95 g/m*3 12.8 C 14.5 km/h
229 15-05-2014 19:00:00 12.7 C 7.9 g/m*3 12.7 C 9.7 km/h
230 15-05-2014 19:05:00 12.6 C 7.85 g/m*3 12.6 C 17.7 km/h
231 15-05-2014 19:10:00 12.5 C 7.81 g/m*3 12.5 C 12.9 km/h
232 15-05-2014 19:15:00 12.4 C 7.76 g/m*3 12.4 C 11.3 km/h
233 15-05-2014 19:20:00 12.4 C 7.87 g/m*3 12.4 C 8.1 km/h
234 15-05-2014 19:25:00 12.4 C 7.87 g/m*3 12.4 C 8.1 km/h
235 15-05-2014 19:30:00 12.4 C 7.87 g/m*3 12.4 C 8.1 km/h
236 15-05-2014 19:35:00 12.5 C 7.92 g/m*3 12.5 C 6.4 km/h
237 15-05-2014 19:40:00 12.4 C 7.87 g/m*3 12.4 C 6.4 km/h
238 15-05-2014 19:45:00 12.4 C 7.87 g/m*3 12.4 C 8.1 km/h
239 15-05-2014 19:50:00 12.3 C 7.93 g/m*3 12.3 C 6.4 km/h
240 15-05-2014 19:55:00 12.3 C 7.93 g/m*3 12.3 C 6.4 km/h
241 15-05-2014 20:00:00 12.3 C 7.93 g/m*3 12.3 C 4.8 km/h
242 15-05-2014 20:05:00 12.2 C 7.88 g/m*3 12.2 C 8.1 km/h
243 15-05-2014 20:10:00 12.2 C 7.88 g/m*3 12.2 C 6.4 km/h
244 15-05-2014 20:15:00 12.2 C 7.88 g/m*3 12.2 C 4.8 km/h
245 15-05-2014 20:20:00 12.1 C 7.94 g/m*3 12.1 C 9.7 km/h
246 15-05-2014 20:25:00 12.1 C 7.94 g/m*3 12.1 C 9.7 km/h
247 15-05-2014 20:30:00 12.1 C 7.83 g/m*3 12.1 C 8.1 km/h
248 15-05-2014 20:35:00 12 C 7.89 g/m*3 12 C 4.8 km/h
249 15-05-2014 20:40:00 11.9 C 7.94 g/m*3 11.9 C 3.2 km/h
250 15-05-2014 20:45:00 11.9 C 7.94 g/m*3 11.9 C 4.8 km/h
Sensor: Nr:Datum:Temp:Abs-Feuchte:Windchill:Wind:
Aussen-T/F 251 15-05-2014 20:50:00 11.8 C 7.89 g/m*3 11.8 C 8.1 km/h
252 15-05-2014 20:55:00 11.8 C 7.89 g/m*3 11.8 C 8.1 km/h
253 15-05-2014 21:00:00 11.8 C 7.89 g/m*3 11.8 C 4.8 km/h
254 15-05-2014 21:05:00 11.7 C 7.95 g/m*3 11.7 C 0 km/h
255 15-05-2014 21:10:00 11.7 C 7.95 g/m*3 11.7 C 6.4 km/h
256 15-05-2014 21:15:00 11.6 C 8 g/m*3 11.6 C 3.2 km/h
257 15-05-2014 21:20:00 11.6 C 8.11 g/m*3 11.6 C 3.2 km/h
258 15-05-2014 21:25:00 11.4 C 8.11 g/m*3 11.4 C 0 km/h
259 15-05-2014 21:30:00 11.3 C 8.16 g/m*3 11.3 C 0 km/h
260 15-05-2014 21:35:00 11.2 C 8.11 g/m*3 11.2 C 1.6 km/h
261 15-05-2014 21:40:00 11.1 C 8.16 g/m*3 11.1 C 0 km/h
262 15-05-2014 21:45:00 10.9 C 8.16 g/m*3 10.9 C 1.6 km/h
263 15-05-2014 21:50:00 10.8 C 8.11 g/m*3 10.8 C 1.6 km/h
264 15-05-2014 21:55:00 10.8 C 8.11 g/m*3 10.8 C 1.6 km/h
265 15-05-2014 22:00:00 10.8 C 8.11 g/m*3 10.8 C 1.6 km/h
266 15-05-2014 22:05:00 10.8 C 8.11 g/m*3 10.8 C 3.2 km/h
267 15-05-2014 22:10:00 10.8 C 8.11 g/m*3 10.8 C 0 km/h
268 15-05-2014 22:15:00 10.8 C 8.11 g/m*3 10.8 C 0 km/h
269 15-05-2014 22:20:00 10.8 C 8.11 g/m*3 10.8 C 0 km/h
270 15-05-2014 22:25:00 10.8 C 8.11 g/m*3 10.8 C 0 km/h
271 15-05-2014 22:30:00 10.8 C 8.11 g/m*3 10.8 C 3.2 km/h
272 15-05-2014 22:35:00 10.8 C 8.2 g/m*3 10.8 C 0 km/h
273 15-05-2014 22:40:00 10.8 C 8.2 g/m*3 10.8 C 1.6 km/h
274 15-05-2014 22:45:00 10.8 C 8.11 g/m*3 10.8 C 0 km/h
275 15-05-2014 22:50:00 10.8 C 8.2 g/m*3 10.8 C 0 km/h
Sensor: Nr:Datum:Temp:Abs-Feuchte:Windchill:Wind:
Aussen-T/F 276 15-05-2014 22:55:00 10.8 C 8.2 g/m*3 10.8 C 0 km/h
277 15-05-2014 23:00:00 10.7 C 8.25 g/m*3 10.7 C 0 km/h
278 15-05-2014 23:05:00 10.6 C 8.2 g/m*3 10.6 C 3.2 km/h
279 15-05-2014 23:10:00 10.4 C 8.1 g/m*3 10.4 C 1.6 km/h
280 15-05-2014 23:15:00 10.4 C 8.19 g/m*3 10.4 C 0 km/h
281 15-05-2014 23:20:00 10.3 C 8.14 g/m*3 10.3 C 0 km/h
282 15-05-2014 23:25:00 10.2 C 8.09 g/m*3 10.2 C 0 km/h
283 15-05-2014 23:30:00 10.2 C 8.18 g/m*3 10.2 C 0 km/h
284 15-05-2014 23:35:00 10.2 C 8.18 g/m*3 10.2 C 0 km/h
285 15-05-2014 23:40:00 10.1 C 8.13 g/m*3 10.1 C 0 km/h
286 15-05-2014 23:45:00 10.1 C 8.13 g/m*3 10.1 C 0 km/h
287 15-05-2014 23:50:00 10 C 8.08 g/m*3 10 C 0 km/h
288 15-05-2014 23:55:00 9.9 C 8.12 g/m*3 9.9 C 0 km/h
289 16-05-2014 00:00:00 9.8 C 8.07 g/m*3 9.8 C 0 km/h
290 16-05-2014 00:05:00 9.7 C 8.02 g/m*3 9.7 C 0 km/h
291 16-05-2014 00:10:00 9.6 C 8.06 g/m*3 9.6 C 0 km/h
292 16-05-2014 00:15:00 9.4 C 7.96 g/m*3 9.4 C 0 km/h
293 16-05-2014 00:20:00 9.4 C 7.96 g/m*3 9.4 C 0 km/h
294 16-05-2014 00:25:00 9.4 C 7.96 g/m*3 9.4 C 0 km/h
295 16-05-2014 00:30:00 9.4 C 7.96 g/m*3 9.4 C 0 km/h
296 16-05-2014 00:35:00 9.4 C 8.05 g/m*3 9.4 C 0 km/h
297 16-05-2014 00:40:00 9.5 C 8.1 g/m*3 9.5 C 0 km/h
298 16-05-2014 00:45:00 9.6 C 8.15 g/m*3 9.6 C 0 km/h
299 16-05-2014 00:50:00 9.6 C 8.15 g/m*3 9.6 C 0 km/h
300 16-05-2014 00:55:00 9.5 C 8.1 g/m*3 9.5 C 0 km/h
Sensor: Nr:Datum:Temp:Abs-Feuchte:Windchill:Wind:
Aussen-T/F 301 16-05-2014 01:00:00 9.4 C 8.05 g/m*3 9.4 C 0 km/h
302 16-05-2014 01:05:00 9.4 C 8.05 g/m*3 9.4 C 0 km/h
303 16-05-2014 01:10:00 9.4 C 8.05 g/m*3 9.4 C 0 km/h
304 16-05-2014 01:15:00 9.4 C 8.05 g/m*3 9.4 C 0 km/h
305 16-05-2014 01:20:00 9.4 C 8.05 g/m*3 9.4 C 1.6 km/h
306 16-05-2014 01:25:00 9.3 C 8 g/m*3 9.3 C 0 km/h
307 16-05-2014 01:30:00 9.2 C 7.95 g/m*3 9.2 C 0 km/h
308 16-05-2014 01:35:00 9.1 C 7.9 g/m*3 9.1 C 0 km/h
309 16-05-2014 01:40:00 9.1 C 7.9 g/m*3 9.1 C 1.6 km/h
310 16-05-2014 01:45:00 9 C 7.85 g/m*3 9 C 1.6 km/h
311 16-05-2014 01:50:00 8.8 C 7.83 g/m*3 8.8 C 3.2 km/h
312 16-05-2014 01:55:00 8.9 C 7.88 g/m*3 8.9 C 3.2 km/h
313 16-05-2014 02:00:00 8.9 C 7.8 g/m*3 8.9 C 1.6 km/h
314 16-05-2014 02:05:00 9.1 C 7.9 g/m*3 7.93 C 8.1 km/h
315 16-05-2014 02:10:00 9.2 C 7.86 g/m*3 9.2 C 1.6 km/h
316 16-05-2014 02:15:00 9 C 7.76 g/m*3 9 C 0 km/h
317 16-05-2014 02:20:00 8.8 C 7.75 g/m*3 8.8 C 1.6 km/h
318 16-05-2014 02:25:00 8.6 C 7.65 g/m*3 8.6 C 3.2 km/h
319 16-05-2014 02:30:00 8.4 C 7.63 g/m*3 8.4 C 1.6 km/h
320 16-05-2014 02:35:00 8.3 C 7.59 g/m*3 8.3 C 0 km/h
321 16-05-2014 02:40:00 8.1 C 7.49 g/m*3 8.1 C 1.6 km/h
322 16-05-2014 02:45:00 7.9 C 7.47 g/m*3 7.9 C 0 km/h
323 16-05-2014 02:50:00 7.9 C 7.56 g/m*3 7.9 C 1.6 km/h
324 16-05-2014 02:55:00 7.9 C 7.56 g/m*3 7.9 C 0 km/h
325 16-05-2014 03:00:00 7.9 C 7.56 g/m*3 7.9 C 1.6 km/h
Sensor: Nr:Datum:Temp:Abs-Feuchte:Windchill:Wind:
Aussen-T/F 326 16-05-2014 03:05:00 7.9 C 7.56 g/m*3 7.9 C 1.6 km/h
327 16-05-2014 03:10:00 7.8 C 7.51 g/m*3 7.8 C 0 km/h
328 16-05-2014 03:15:00 7.8 C 7.51 g/m*3 7.8 C 0 km/h
329 16-05-2014 03:20:00 7.8 C 7.51 g/m*3 7.8 C 3.2 km/h
330 16-05-2014 03:25:00 7.8 C 7.51 g/m*3 7.8 C 1.6 km/h
331 16-05-2014 03:30:00 7.8 C 7.59 g/m*3 7.8 C 1.6 km/h
332 16-05-2014 03:35:00 7.8 C 7.59 g/m*3 7.8 C 1.6 km/h
333 16-05-2014 03:40:00 7.9 C 7.64 g/m*3 7.9 C 0 km/h
334 16-05-2014 03:45:00 8 C 7.61 g/m*3 8 C 0 km/h
335 16-05-2014 03:50:00 7.9 C 7.47 g/m*3 7.9 C 0 km/h
336 16-05-2014 03:55:00 7.9 C 7.56 g/m*3 7.9 C 3.2 km/h
337 16-05-2014 04:00:00 8 C 7.61 g/m*3 8 C 3.2 km/h
338 16-05-2014 04:05:00 8.1 C 7.66 g/m*3 8.1 C 1.6 km/h
339 16-05-2014 04:10:00 8.1 C 7.57 g/m*3 8.1 C 0 km/h
340 16-05-2014 04:15:00 7.9 C 7.47 g/m*3 7.9 C 0 km/h
341 16-05-2014 04:20:00 7.8 C 7.51 g/m*3 7.8 C 0 km/h
342 16-05-2014 04:25:00 7.8 C 7.51 g/m*3 7.8 C 0 km/h
343 16-05-2014 04:30:00 7.8 C 7.51 g/m*3 7.8 C 3.2 km/h
344 16-05-2014 04:35:00 7.8 C 7.51 g/m*3 7.8 C 0 km/h
345 16-05-2014 04:40:00 7.8 C 7.51 g/m*3 7.8 C 1.6 km/h
346 16-05-2014 04:45:00 7.7 C 7.46 g/m*3 7.7 C 0 km/h
347 16-05-2014 04:50:00 7.7 C 7.46 g/m*3 7.7 C 0 km/h
348 16-05-2014 04:55:00 7.7 C 7.54 g/m*3 7.7 C 0 km/h
349 16-05-2014 05:00:00 7.8 C 7.59 g/m*3 7.8 C 4.8 km/h
350 16-05-2014 05:05:00 7.8 C 7.59 g/m*3 7.8 C 1.6 km/h
Sensor: Nr:Datum:Temp:Abs-Feuchte:Windchill:Wind:
Aussen-T/F 351 16-05-2014 05:10:00 7.8 C 7.51 g/m*3 7.8 C 4.8 km/h
352 16-05-2014 05:15:00 7.8 C 7.51 g/m*3 7.8 C 4.8 km/h
353 16-05-2014 05:20:00 7.8 C 7.51 g/m*3 7.8 C 1.6 km/h
354 16-05-2014 05:25:00 7.8 C 7.43 g/m*3 7.8 C 0 km/h
355 16-05-2014 05:30:00 7.6 C 7.33 g/m*3 7.6 C 0 km/h
356 16-05-2014 05:35:00 7.4 C 7.32 g/m*3 7.4 C 1.6 km/h
357 16-05-2014 05:40:00 7.4 C 7.32 g/m*3 7.4 C 0 km/h
358 16-05-2014 05:45:00 7.5 C 7.44 g/m*3 7.5 C 0 km/h
359 16-05-2014 05:50:00 7.6 C 7.49 g/m*3 7.6 C 3.2 km/h
360 16-05-2014 05:55:00 7.6 C 7.49 g/m*3 7.6 C 4.8 km/h
361 16-05-2014 06:00:00 7.7 C 7.46 g/m*3 7.7 C 4.8 km/h
362 16-05-2014 06:05:00 7.7 C 7.46 g/m*3 7.7 C 4.8 km/h
363 16-05-2014 06:10:00 7.8 C 7.51 g/m*3 7.8 C 4.8 km/h
364 16-05-2014 06:15:00 7.8 C 7.51 g/m*3 7.8 C 0 km/h
365 16-05-2014 06:20:00 7.8 C 7.51 g/m*3 7.8 C 0 km/h
366 16-05-2014 06:25:00 7.7 C 7.38 g/m*3 7.7 C 0 km/h
367 16-05-2014 06:30:00 7.7 C 7.46 g/m*3 7.7 C 0 km/h
368 16-05-2014 06:35:00 7.6 C 7.41 g/m*3 7.6 C 0 km/h
369 16-05-2014 06:40:00 7.5 C 7.36 g/m*3 7.5 C 0 km/h
370 16-05-2014 06:45:00 7.5 C 7.36 g/m*3 7.5 C 0 km/h
371 16-05-2014 06:50:00 7.4 C 7.4 g/m*3 7.4 C 0 km/h
372 16-05-2014 06:55:00 7.4 C 7.4 g/m*3 7.4 C 0 km/h
373 16-05-2014 07:00:00 7.4 C 7.4 g/m*3 7.4 C 0 km/h
374 16-05-2014 07:05:00 7.5 C 7.44 g/m*3 7.5 C 1.6 km/h
375 16-05-2014 07:10:00 7.6 C 7.49 g/m*3 7.6 C 0 km/h
Sensor: Nr:Datum:Temp:Abs-Feuchte:Windchill:Wind:
Aussen-T/F 376 16-05-2014 07:15:00 7.6 C 7.49 g/m*3 7.6 C 3.2 km/h
377 16-05-2014 07:20:00 7.7 C 7.46 g/m*3 7.7 C 3.2 km/h
378 16-05-2014 07:25:00 7.8 C 7.51 g/m*3 7.8 C 1.6 km/h
379 16-05-2014 07:30:00 7.9 C 7.56 g/m*3 7.9 C 0 km/h
380 16-05-2014 07:35:00 8 C 7.61 g/m*3 8 C 0 km/h
381 16-05-2014 07:40:00 8.1 C 7.66 g/m*3 8.1 C 0 km/h
382 16-05-2014 07:45:00 8.2 C 7.62 g/m*3 8.2 C 1.6 km/h
383 16-05-2014 07:50:00 8.3 C 7.67 g/m*3 8.3 C 1.6 km/h
384 16-05-2014 07:55:00 8.4 C 7.72 g/m*3 8.4 C 1.6 km/h
385 16-05-2014 08:00:00 8.5 C 7.77 g/m*3 8.5 C 0 km/h
386 16-05-2014 08:05:00 8.6 C 7.82 g/m*3 8.6 C 0 km/h
387 16-05-2014 08:10:00 8.6 C 7.82 g/m*3 8.6 C 0 km/h
388 16-05-2014 08:15:00 8.7 C 7.78 g/m*3 8.7 C 0 km/h
389 16-05-2014 08:20:00 8.8 C 7.92 g/m*3 8.8 C 0 km/h
390 16-05-2014 08:25:00 8.9 C 7.88 g/m*3 8.9 C 0 km/h
391 16-05-2014 08:30:00 9.2 C 8.04 g/m*3 9.2 C 1.6 km/h
392 16-05-2014 08:35:00 9.3 C 8 g/m*3 9.3 C 0 km/h
393 16-05-2014 08:40:00 9.5 C 8.1 g/m*3 9.5 C 1.6 km/h
394 16-05-2014 08:45:00 9.7 C 8.2 g/m*3 9.7 C 3.2 km/h
395 16-05-2014 08:50:00 9.9 C 8.22 g/m*3 9.9 C 0 km/h
396 16-05-2014 08:55:00 10.1 C 8.23 g/m*3 10.1 C 1.6 km/h
397 16-05-2014 09:00:00 10.2 C 8.18 g/m*3 10.2 C 4.8 km/h
398 16-05-2014 09:05:00 10.2 C 8.18 g/m*3 10.2 C 1.6 km/h
399 16-05-2014 09:10:00 10.2 C 8.09 g/m*3 10.2 C 3.2 km/h
400 16-05-2014 09:15:00 10.1 C 8.04 g/m*3 10.1 C 1.6 km/h
Sensor: Nr:Datum:Temp:Abs-Feuchte:Windchill:Wind:
Aussen-T/F 401 16-05-2014 09:20:00 10.1 C 8.13 g/m*3 10.1 C 3.2 km/h
402 16-05-2014 09:25:00 10.3 C 8.24 g/m*3 10.3 C 4.8 km/h
403 16-05-2014 09:30:00 10.3 C 8.14 g/m*3 10.3 C 3.2 km/h
404 16-05-2014 09:35:00 10.4 C 8.19 g/m*3 10.4 C 3.2 km/h
405 16-05-2014 09:40:00 10.6 C 8.3 g/m*3 10.6 C 0 km/h
406 16-05-2014 09:45:00 10.7 C 8.35 g/m*3 10.7 C 0 km/h
407 16-05-2014 09:50:00 10.7 C 8.15 g/m*3 10.7 C 0 km/h
408 16-05-2014 09:55:00 10.9 C 8.36 g/m*3 10.9 C 1.6 km/h
409 16-05-2014 10:00:00 11.1 C 8.46 g/m*3 11.1 C 3.2 km/h
410 16-05-2014 10:05:00 11.3 C 8.47 g/m*3 11.3 C 3.2 km/h
411 16-05-2014 10:10:00 11.7 C 8.47 g/m*3 11.7 C 4.8 km/h
412 16-05-2014 10:15:00 12.2 C 8.52 g/m*3 12.2 C 4.8 km/h
413 16-05-2014 10:20:00 12.4 C 8.41 g/m*3 12.4 C 3.2 km/h
414 16-05-2014 10:25:00 12.7 C 8.46 g/m*3 12.7 C 3.2 km/h
415 16-05-2014 10:30:00 12.9 C 8.57 g/m*3 12.9 C 1.6 km/h
416 16-05-2014 10:35:00 13.1 C 8.56 g/m*3 13.1 C 1.6 km/h
417 16-05-2014 10:40:00 13.1 C 8.56 g/m*3 13.1 C 3.2 km/h
418 16-05-2014 10:45:00 13.4 C 8.83 g/m*3 13.4 C 3.2 km/h
419 16-05-2014 10:50:00 13.8 C 8.7 g/m*3 13.8 C 4.8 km/h
420 16-05-2014 10:55:00 14.1 C 8.74 g/m*3 14.1 C 3.2 km/h
421 16-05-2014 11:00:00 14.4 C 9.02 g/m*3 14.4 C 4.8 km/h
422 16-05-2014 11:05:00 14.8 C 8.99 g/m*3 14.8 C 6.4 km/h
423 16-05-2014 11:10:00 15.1 C 8.9 g/m*3 15.1 C 3.2 km/h
424 16-05-2014 11:15:00 15.3 C 8.88 g/m*3 15.3 C 4.8 km/h
425 16-05-2014 11:20:00 15.5 C 8.86 g/m*3 15.5 C 4.8 km/h
Sensor: Nr:Datum:Temp:Abs-Feuchte:Windchill:Wind:
Aussen-T/F 426 16-05-2014 11:25:00 15.7 C 8.96 g/m*3 15.7 C 3.2 km/h
427 16-05-2014 11:30:00 15.8 C 8.75 g/m*3 15.8 C 8.1 km/h
428 16-05-2014 11:35:00 16.1 C 8.91 g/m*3 16.1 C 6.4 km/h
429 16-05-2014 11:40:00 16.1 C 9.05 g/m*3 16.1 C 6.4 km/h
430 16-05-2014 11:45:00 16.2 C 8.69 g/m*3 16.2 C 8.1 km/h
431 16-05-2014 11:50:00 16.3 C 9.43 g/m*3 16.3 C 6.4 km/h
432 16-05-2014 11:55:00 16.8 C 8.86 g/m*3 16.8 C 9.7 km/h
433 16-05-2014 12:00:00 17.1 C 8.73 g/m*3 17.1 C 8.1 km/h
434 16-05-2014 12:05:00 17.1 C 8.59 g/m*3 17.1 C 8.1 km/h
435 16-05-2014 12:10:00 17.2 C 8.64 g/m*3 17.2 C 12.9 km/h
436 16-05-2014 12:15:00 17.4 C 8.45 g/m*3 17.4 C 9.7 km/h
437 16-05-2014 12:20:00 17.5 C 8.35 g/m*3 17.5 C 8.1 km/h
438 16-05-2014 12:25:00 17.7 C 8.6 g/m*3 17.7 C 9.7 km/h
439 16-05-2014 12:30:00 17.7 C 8.15 g/m*3 17.7 C 9.7 km/h
440 16-05-2014 12:35:00 17.3 C 8.4 g/m*3 17.3 C 3.2 km/h
441 16-05-2014 12:40:00 17.4 C 8.89 g/m*3 17.4 C 4.8 km/h
442 16-05-2014 12:45:00 17.9 C 8.24 g/m*3 17.9 C 9.7 km/h
443 16-05-2014 12:50:00 18.2 C 8.24 g/m*3 18.2 C 8.1 km/h
444 16-05-2014 12:55:00 18.6 C 7.96 g/m*3 18.6 C 8.1 km/h
445 16-05-2014 13:00:00 18.7 C 8.17 g/m*3 18.7 C 9.7 km/h
446 16-05-2014 13:05:00 18.8 C 8.54 g/m*3 18.8 C 9.7 km/h
447 16-05-2014 13:10:00 18.9 C 8.75 g/m*3 18.9 C 9.7 km/h
448 16-05-2014 13:15:00 18.9 C 7.94 g/m*3 18.9 C 11.3 km/h
449 16-05-2014 13:20:00 18.7 C 8.17 g/m*3 18.7 C 4.8 km/h
450 16-05-2014 13:25:00 18.6 C 8.91 g/m*3 18.6 C 11.3 km/h
Sensor: Nr:Datum:Temp:Abs-Feuchte:Windchill:Wind:
Aussen-T/F 451 16-05-2014 13:30:00 18.7 C 7.68 g/m*3 18.7 C 6.4 km/h
452 16-05-2014 13:35:00 18.8 C 8.05 g/m*3 18.8 C 9.7 km/h
453 16-05-2014 13:40:00 19 C 8.15 g/m*3 19 C 9.7 km/h
454 16-05-2014 13:45:00 19.1 C 7.87 g/m*3 19.1 C 6.4 km/h
455 16-05-2014 13:50:00 19.2 C 8.41 g/m*3 19.2 C 9.7 km/h
456 16-05-2014 13:55:00 19.5 C 7.38 g/m*3 19.5 C 8.1 km/h
457 16-05-2014 14:00:00 19.1 C 7.87 g/m*3 19.1 C 12.9 km/h
458 16-05-2014 14:05:00 19.3 C 7.8 g/m*3 19.3 C 8.1 km/h
459 16-05-2014 14:10:00 19.4 C 8.01 g/m*3 19.4 C 8.1 km/h
460 16-05-2014 14:15:00 19 C 7.5 g/m*3 19 C 12.9 km/h
461 16-05-2014 14:20:00 18.8 C 7.89 g/m*3 18.8 C 4.8 km/h
462 16-05-2014 14:25:00 19.1 C 8.36 g/m*3 19.1 C 12.9 km/h
463 16-05-2014 14:30:00 19.5 C 8.06 g/m*3 19.5 C 14.5 km/h
464 16-05-2014 14:35:00 19.3 C 8.29 g/m*3 19.3 C 12.9 km/h
465 16-05-2014 14:40:00 19.3 C 8.29 g/m*3 19.3 C 9.7 km/h
466 16-05-2014 14:45:00 19.3 C 7.8 g/m*3 19.3 C 9.7 km/h
467 16-05-2014 14:50:00 19.2 C 7.59 g/m*3 19.2 C 6.4 km/h
468 16-05-2014 14:55:00 19.3 C 8.13 g/m*3 19.3 C 11.3 km/h
469 16-05-2014 15:00:00 19.8 C 8.03 g/m*3 19.8 C 12.9 km/h
470 16-05-2014 15:05:00 20.2 C 8.22 g/m*3 20.2 C 11.3 km/h
471 16-05-2014 15:10:00 19.8 C 8.03 g/m*3 19.8 C 16.1 km/h
472 16-05-2014 15:15:00 19.2 C 7.59 g/m*3 19.2 C 9.7 km/h
473 16-05-2014 15:20:00 19 C 7.82 g/m*3 19 C 6.4 km/h
474 16-05-2014 15:25:00 19.4 C 8.01 g/m*3 19.4 C 4.8 km/h
475 16-05-2014 15:30:00 19.5 C 7.55 g/m*3 19.5 C 14.5 km/h
Sensor: Nr:Datum:Temp:Abs-Feuchte:Windchill:Wind:
Aussen-T/F 476 16-05-2014 15:35:00 19.4 C 7.84 g/m*3 19.4 C 4.8 km/h
477 16-05-2014 15:40:00 19.3 C 7.63 g/m*3 19.3 C 8.1 km/h
478 16-05-2014 15:45:00 19.1 C 7.54 g/m*3 19.1 C 11.3 km/h
479 16-05-2014 15:50:00 18.7 C 7.52 g/m*3 18.7 C 9.7 km/h
480 16-05-2014 15:55:00 18.8 C 7.57 g/m*3 18.8 C 9.7 km/h
481 16-05-2014 16:00:00 19.2 C 7.59 g/m*3 19.2 C 11.3 km/h
482 16-05-2014 16:05:00 19.7 C 7.81 g/m*3 19.7 C 11.3 km/h
483 16-05-2014 16:10:00 20.1 C 7.65 g/m*3 20.1 C 9.7 km/h
484 16-05-2014 16:15:00 19.9 C 7.39 g/m*3 19.9 C 9.7 km/h
485 16-05-2014 16:20:00 19.6 C 7.26 g/m*3 19.6 C 9.7 km/h
486 16-05-2014 16:25:00 19.3 C 7.13 g/m*3 19.3 C 11.3 km/h
487 16-05-2014 16:30:00 19.1 C 7.21 g/m*3 19.1 C 9.7 km/h
488 16-05-2014 16:35:00 19.2 C 7.75 g/m*3 19.2 C 12.9 km/h
489 16-05-2014 16:40:00 19.7 C 7.64 g/m*3 19.7 C 11.3 km/h
490 16-05-2014 16:45:00 20.2 C 7.34 g/m*3 20.2 C 8.1 km/h
491 16-05-2014 16:50:00 20.7 C 8.1 g/m*3 20.7 C 9.7 km/h
492 16-05-2014 16:55:00 20.9 C 7.65 g/m*3 20.9 C 16.1 km/h
493 16-05-2014 17:00:00 21 C 7.88 g/m*3 21 C 12.9 km/h
494 16-05-2014 17:05:00 20.9 C 7.65 g/m*3 20.9 C 11.3 km/h
495 16-05-2014 17:10:00 21.2 C 7.78 g/m*3 21.2 C 12.9 km/h
496 16-05-2014 17:15:00 21.2 C 7.6 g/m*3 21.2 C 19.3 km/h
497 16-05-2014 17:20:00 20.7 C 7.74 g/m*3 20.7 C 11.3 km/h
498 16-05-2014 17:25:00 20.5 C 7.83 g/m*3 20.5 C 11.3 km/h
499 16-05-2014 17:30:00 20.8 C 7.6 g/m*3 20.8 C 11.3 km/h
500 16-05-2014 17:35:00 21.2 C 7.97 g/m*3 21.2 C 12.9 km/h
Sensor: Nr:Datum:Temp:Abs-Feuchte:Windchill:Wind:
Aussen-T/F 501 16-05-2014 17:40:00 21.3 C 7.64 g/m*3 21.3 C 11.3 km/h
502 16-05-2014 17:45:00 21 C 7.88 g/m*3 21 C 11.3 km/h
503 16-05-2014 17:50:00 20.6 C 7.7 g/m*3 20.6 C 16.1 km/h
504 16-05-2014 17:55:00 20.6 C 7.87 g/m*3 20.6 C 11.3 km/h
505 16-05-2014 18:00:00 20.9 C 7.83 g/m*3 20.9 C 14.5 km/h
506 16-05-2014 18:05:00 21.1 C 8.11 g/m*3 21.1 C 12.9 km/h
507 16-05-2014 18:10:00 20.9 C 7.65 g/m*3 20.9 C 12.9 km/h
508 16-05-2014 18:15:00 21 C 7.69 g/m*3 21 C 12.9 km/h
509 16-05-2014 18:20:00 20.7 C 7.56 g/m*3 20.7 C 14.5 km/h
510 16-05-2014 18:25:00 20.3 C 8.09 g/m*3 20.3 C 14.5 km/h
511 16-05-2014 18:30:00 20.2 C 7.69 g/m*3 20.2 C 14.5 km/h
512 16-05-2014 18:35:00 20.4 C 7.78 g/m*3 20.4 C 11.3 km/h
513 16-05-2014 18:40:00 20.8 C 7.79 g/m*3 20.8 C 12.9 km/h
514 16-05-2014 18:45:00 20.3 C 7.74 g/m*3 20.3 C 11.3 km/h
515 16-05-2014 18:50:00 20.1 C 7.65 g/m*3 20.1 C 17.7 km/h
516 16-05-2014 18:55:00 20 C 7.6 g/m*3 20 C 14.5 km/h
517 16-05-2014 19:00:00 19.9 C 7.73 g/m*3 19.9 C 14.5 km/h
518 16-05-2014 19:05:00 19.9 C 7.73 g/m*3 19.9 C 11.3 km/h
519 16-05-2014 19:10:00 19.8 C 7.69 g/m*3 19.8 C 8.1 km/h
520 16-05-2014 19:15:00 19.6 C 7.6 g/m*3 19.6 C 12.9 km/h
521 16-05-2014 19:20:00 19.3 C 7.63 g/m*3 19.3 C 19.3 km/h
522 16-05-2014 19:25:00 19.1 C 7.7 g/m*3 19.1 C 14.5 km/h
523 16-05-2014 19:30:00 17.7 C 9.81 g/m*3 17.7 C 16.1 km/h
524 16-05-2014 19:35:00 15.6 C 10.24 g/m*3 15.6 C 12.9 km/h
525 16-05-2014 19:40:00 14.9 C 10.2 g/m*3 14.9 C 12.9 km/h
Sensor: Nr:Datum:Temp:Abs-Feuchte:Windchill:Wind:
Aussen-T/F 526 16-05-2014 19:45:00 14.4 C 9.89 g/m*3 14.4 C 12.9 km/h
527 16-05-2014 19:50:00 14.3 C 9.95 g/m*3 14.3 C 12.9 km/h
528 16-05-2014 19:55:00 14.2 C 10.01 g/m*3 14.2 C 14.5 km/h
529 16-05-2014 20:00:00 14.1 C 9.83 g/m*3 14.1 C 12.9 km/h
530 16-05-2014 20:05:00 14.2 C 10.01 g/m*3 14.2 C 11.3 km/h
531 16-05-2014 20:10:00 14.3 C 10.07 g/m*3 14.3 C 12.9 km/h
532 16-05-2014 20:15:00 14.2 C 9.77 g/m*3 14.2 C 11.3 km/h
533 16-05-2014 20:20:00 14.3 C 9.71 g/m*3 14.3 C 11.3 km/h
534 16-05-2014 20:25:00 14.6 C 9.89 g/m*3 14.6 C 12.9 km/h
535 16-05-2014 20:30:00 14.7 C 9.95 g/m*3 14.7 C 11.3 km/h
536 16-05-2014 20:35:00 14.6 C 9.51 g/m*3 14.6 C 8.1 km/h
537 16-05-2014 20:40:00 14.6 C 9.39 g/m*3 14.6 C 11.3 km/h
538 16-05-2014 20:45:00 14.5 C 9.58 g/m*3 14.5 C 8.1 km/h
539 16-05-2014 20:50:00 14.4 C 9.27 g/m*3 14.4 C 8.1 km/h
540 16-05-2014 20:55:00 14.3 C 9.71 g/m*3 14.3 C 8.1 km/h
541 16-05-2014 21:00:00 14.2 C 9.4 g/m*3 14.2 C 6.4 km/h
542 16-05-2014 21:05:00 14.1 C 9.47 g/m*3 14.1 C 6.4 km/h
543 16-05-2014 21:10:00 14 C 9.53 g/m*3 14 C 8.1 km/h
544 16-05-2014 21:15:00 13.9 C 9.11 g/m*3 13.9 C 4.8 km/h
545 16-05-2014 21:20:00 13.9 C 9.23 g/m*3 13.9 C 4.8 km/h
546 16-05-2014 21:25:00 13.8 C 9.06 g/m*3 13.8 C 0 km/h
547 16-05-2014 21:30:00 13.6 C 8.71 g/m*3 13.6 C 0 km/h
548 16-05-2014 21:35:00 13.2 C 8.5 g/m*3 13.2 C 0 km/h
549 16-05-2014 21:40:00 12.8 C 8.4 g/m*3 12.8 C 1.6 km/h
550 16-05-2014 21:45:00 12.6 C 8.41 g/m*3 12.6 C 0 km/h
Sensor: Nr:Datum:Temp:Abs-Feuchte:Windchill:Wind:
Aussen-T/F 551 16-05-2014 21:50:00 12.4 C 8.3 g/m*3 12.4 C 1.6 km/h
552 16-05-2014 21:55:00 12.3 C 8.36 g/m*3 12.3 C 0 km/h
553 16-05-2014 22:00:00 12.1 C 8.26 g/m*3 12.1 C 0 km/h
554 16-05-2014 22:05:00 11.9 C 8.26 g/m*3 11.9 C 1.6 km/h
555 16-05-2014 22:10:00 11.9 C 8.15 g/m*3 11.9 C 1.6 km/h
556 16-05-2014 22:15:00 11.8 C 8.21 g/m*3 11.8 C 0 km/h
557 16-05-2014 22:20:00 11.8 C 8.31 g/m*3 11.8 C 0 km/h
558 16-05-2014 22:25:00 11.7 C 8.26 g/m*3 11.7 C 0 km/h
559 16-05-2014 22:30:00 11.5 C 8.26 g/m*3 11.5 C 0 km/h
560 16-05-2014 22:35:00 11.4 C 8.21 g/m*3 11.4 C 0 km/h
561 16-05-2014 22:40:00 11.3 C 8.16 g/m*3 11.3 C 0 km/h
562 16-05-2014 22:45:00 11.3 C 8.16 g/m*3 11.3 C 1.6 km/h
563 16-05-2014 22:50:00 11.3 C 8.16 g/m*3 11.3 C 1.6 km/h
564 16-05-2014 22:55:00 11.3 C 8.16 g/m*3 11.3 C 0 km/h
565 16-05-2014 23:00:00 11.3 C 8.16 g/m*3 11.3 C 0 km/h
566 16-05-2014 23:05:00 11.2 C 8.11 g/m*3 11.2 C 0 km/h
567 16-05-2014 23:10:00 11.2 C 8.11 g/m*3 11.2 C 1.6 km/h
568 16-05-2014 23:15:00 11.1 C 8.06 g/m*3 11.1 C 0 km/h
569 16-05-2014 23:20:00 11.1 C 8.06 g/m*3 11.1 C 0 km/h
570 16-05-2014 23:25:00 11 C 8.11 g/m*3 11 C 1.6 km/h
571 16-05-2014 23:30:00 10.9 C 8.16 g/m*3 10.9 C 1.6 km/h
572 16-05-2014 23:35:00 10.9 C 8.06 g/m*3 10.9 C 0 km/h
573 16-05-2014 23:40:00 10.8 C 8.11 g/m*3 10.8 C 1.6 km/h
574 16-05-2014 23:45:00 10.8 C 8.11 g/m*3 10.8 C 1.6 km/h
575 16-05-2014 23:50:00 10.7 C 7.96 g/m*3 10.7 C 0 km/h
Sensor: Nr:Datum:Temp:Abs-Feuchte:Windchill:Wind:
Aussen-T/F 576 16-05-2014 23:55:00 10.6 C 8 g/m*3 10.6 C 0 km/h
577 17-05-2014 00:00:00 10.5 C 7.95 g/m*3 10.5 C 0 km/h
578 17-05-2014 00:05:00 10.4 C 7.9 g/m*3 10.4 C 0 km/h
579 17-05-2014 00:10:00 10.4 C 8 g/m*3 10.4 C 1.6 km/h
580 17-05-2014 00:15:00 10.4 C 8 g/m*3 10.4 C 0 km/h
581 17-05-2014 00:20:00 10.4 C 8 g/m*3 10.4 C 0 km/h
582 17-05-2014 00:25:00 10.3 C 7.95 g/m*3 10.3 C 0 km/h
583 17-05-2014 00:30:00 10.2 C 7.9 g/m*3 10.2 C 0 km/h
584 17-05-2014 00:35:00 10.1 C 7.85 g/m*3 10.1 C 0 km/h
585 17-05-2014 00:40:00 9.9 C 7.84 g/m*3 9.9 C 0 km/h
586 17-05-2014 00:45:00 9.8 C 7.79 g/m*3 9.8 C 0 km/h
587 17-05-2014 00:50:00 9.8 C 7.89 g/m*3 9.8 C 0 km/h
588 17-05-2014 00:55:00 9.8 C 7.89 g/m*3 9.8 C 0 km/h
589 17-05-2014 01:00:00 9.7 C 7.84 g/m*3 9.7 C 0 km/h
590 17-05-2014 01:05:00 9.7 C 7.84 g/m*3 9.7 C 0 km/h
591 17-05-2014 01:10:00 9.6 C 7.79 g/m*3 9.6 C 0 km/h
592 17-05-2014 01:15:00 9.5 C 7.83 g/m*3 9.5 C 0 km/h
593 17-05-2014 01:20:00 9.4 C 7.78 g/m*3 9.4 C 0 km/h
594 17-05-2014 01:25:00 9.3 C 7.73 g/m*3 9.3 C 0 km/h
595 17-05-2014 01:30:00 9.2 C 7.77 g/m*3 9.2 C 0 km/h
596 17-05-2014 01:35:00 9.1 C 7.72 g/m*3 9.1 C 0 km/h
597 17-05-2014 01:40:00 9 C 7.67 g/m*3 9 C 0 km/h
598 17-05-2014 01:45:00 8.9 C 7.71 g/m*3 8.9 C 0 km/h
599 17-05-2014 01:50:00 8.8 C 7.66 g/m*3 8.8 C 0 km/h
600 17-05-2014 01:55:00 8.8 C 7.66 g/m*3 8.8 C 0 km/h
Sensor: Nr:Datum:Temp:Abs-Feuchte:Windchill:Wind:
Aussen-T/F 601 17-05-2014 02:00:00 8.7 C 7.61 g/m*3 8.7 C 0 km/h
602 17-05-2014 02:05:00 8.6 C 7.65 g/m*3 8.6 C 0 km/h
603 17-05-2014 02:10:00 8.5 C 7.6 g/m*3 8.5 C 0 km/h
604 17-05-2014 02:15:00 8.4 C 7.55 g/m*3 8.4 C 0 km/h
605 17-05-2014 02:20:00 8.4 C 7.55 g/m*3 8.4 C 0 km/h
606 17-05-2014 02:25:00 8.4 C 7.55 g/m*3 8.4 C 0 km/h
607 17-05-2014 02:30:00 8.3 C 7.5 g/m*3 8.3 C 0 km/h
608 17-05-2014 02:35:00 8.3 C 7.59 g/m*3 8.3 C 0 km/h
609 17-05-2014 02:40:00 8.2 C 7.54 g/m*3 8.2 C 0 km/h
610 17-05-2014 02:45:00 8.1 C 7.49 g/m*3 8.1 C 0 km/h
611 17-05-2014 02:50:00 8 C 7.44 g/m*3 8 C 0 km/h
612 17-05-2014 02:55:00 8 C 7.44 g/m*3 8 C 0 km/h
613 17-05-2014 03:00:00 7.9 C 7.39 g/m*3 7.9 C 0 km/h
614 17-05-2014 03:05:00 7.8 C 7.35 g/m*3 7.8 C 0 km/h
615 17-05-2014 03:10:00 7.8 C 7.43 g/m*3 7.8 C 0 km/h
616 17-05-2014 03:15:00 7.7 C 7.38 g/m*3 7.7 C 0 km/h
617 17-05-2014 03:20:00 7.7 C 7.38 g/m*3 7.7 C 0 km/h
618 17-05-2014 03:25:00 7.7 C 7.38 g/m*3 7.7 C 0 km/h
619 17-05-2014 03:30:00 7.6 C 7.41 g/m*3 7.6 C 0 km/h
620 17-05-2014 03:35:00 7.6 C 7.41 g/m*3 7.6 C 0 km/h
621 17-05-2014 03:40:00 7.5 C 7.36 g/m*3 7.5 C 0 km/h
622 17-05-2014 03:45:00 7.5 C 7.36 g/m*3 7.5 C 0 km/h
623 17-05-2014 03:50:00 7.5 C 7.36 g/m*3 7.5 C 1.6 km/h
624 17-05-2014 03:55:00 7.4 C 7.32 g/m*3 7.4 C 0 km/h
625 17-05-2014 04:00:00 7.4 C 7.32 g/m*3 7.4 C 0 km/h
Sensor: Nr:Datum:Temp:Abs-Feuchte:Windchill:Wind:
Aussen-T/F 626 17-05-2014 04:05:00 7.3 C 7.27 g/m*3 7.3 C 0 km/h
627 17-05-2014 04:10:00 7.3 C 7.27 g/m*3 7.3 C 0 km/h
628 17-05-2014 04:15:00 7.2 C 7.22 g/m*3 7.2 C 0 km/h
629 17-05-2014 04:20:00 7.2 C 7.22 g/m*3 7.2 C 0 km/h
630 17-05-2014 04:25:00 7.1 C 7.18 g/m*3 7.1 C 0 km/h
631 17-05-2014 04:30:00 7.1 C 7.25 g/m*3 7.1 C 0 km/h
632 17-05-2014 04:35:00 7 C 7.21 g/m*3 7 C 0 km/h
633 17-05-2014 04:40:00 6.9 C 7.16 g/m*3 6.9 C 0 km/h
634 17-05-2014 04:45:00 6.9 C 7.16 g/m*3 6.9 C 0 km/h
635 17-05-2014 04:50:00 6.9 C 7.16 g/m*3 6.9 C 0 km/h
636 17-05-2014 04:55:00 6.9 C 7.16 g/m*3 6.9 C 0 km/h
637 17-05-2014 05:00:00 6.8 C 7.11 g/m*3 6.8 C 0 km/h
638 17-05-2014 05:05:00 6.8 C 7.11 g/m*3 6.8 C 0 km/h
639 17-05-2014 05:10:00 6.7 C 7.07 g/m*3 6.7 C 0 km/h
640 17-05-2014 05:15:00 6.7 C 7.07 g/m*3 6.7 C 0 km/h
641 17-05-2014 05:20:00 6.7 C 7.14 g/m*3 6.7 C 0 km/h
642 17-05-2014 05:25:00 6.7 C 7.14 g/m*3 6.7 C 0 km/h
643 17-05-2014 05:30:00 6.6 C 7.1 g/m*3 6.6 C 1.6 km/h
644 17-05-2014 05:35:00 6.6 C 7.1 g/m*3 6.6 C 0 km/h
645 17-05-2014 05:40:00 6.6 C 7.02 g/m*3 6.6 C 0 km/h
646 17-05-2014 05:45:00 6.5 C 7.05 g/m*3 6.5 C 0 km/h
647 17-05-2014 05:50:00 6.5 C 7.05 g/m*3 6.5 C 1.6 km/h
648 17-05-2014 05:55:00 6.5 C 7.05 g/m*3 6.5 C 0 km/h
649 17-05-2014 06:00:00 6.5 C 7.05 g/m*3 6.5 C 1.6 km/h
650 17-05-2014 06:05:00 6.5 C 7.05 g/m*3 6.5 C 1.6 km/h
Sensor: Nr:Datum:Temp:Abs-Feuchte:Windchill:Wind:
Aussen-T/F 651 17-05-2014 06:10:00 6.5 C 7.05 g/m*3 6.5 C 1.6 km/h
652 17-05-2014 06:15:00 6.5 C 7.05 g/m*3 6.5 C 0 km/h
653 17-05-2014 06:20:00 6.5 C 7.05 g/m*3 6.5 C 0 km/h
654 17-05-2014 06:25:00 6.4 C 7 g/m*3 6.4 C 0 km/h
655 17-05-2014 06:30:00 6.5 C 7.05 g/m*3 6.5 C 0 km/h
656 17-05-2014 06:35:00 6.5 C 7.05 g/m*3 6.5 C 0 km/h
657 17-05-2014 06:40:00 6.5 C 7.05 g/m*3 6.5 C 0 km/h
658 17-05-2014 06:45:00 6.5 C 7.05 g/m*3 6.5 C 0 km/h
659 17-05-2014 06:50:00 6.5 C 7.05 g/m*3 6.5 C 0 km/h
660 17-05-2014 06:55:00 6.6 C 7.1 g/m*3 6.6 C 0 km/h
661 17-05-2014 07:00:00 6.6 C 7.1 g/m*3 6.6 C 0 km/h
662 17-05-2014 07:05:00 6.6 C 7.17 g/m*3 6.6 C 0 km/h
663 17-05-2014 07:10:00 6.6 C 7.17 g/m*3 6.6 C 0 km/h
664 17-05-2014 07:15:00 6.7 C 7.14 g/m*3 6.7 C 0 km/h
665 17-05-2014 07:20:00 6.7 C 7.14 g/m*3 6.7 C 0 km/h
666 17-05-2014 07:25:00 6.8 C 7.27 g/m*3 6.8 C 0 km/h
667 17-05-2014 07:30:00 6.8 C 7.27 g/m*3 6.8 C 0 km/h
668 17-05-2014 07:35:00 6.9 C 7.31 g/m*3 6.9 C 0 km/h
669 17-05-2014 07:40:00 7.1 C 7.41 g/m*3 7.1 C 0 km/h
670 17-05-2014 07:45:00 7.2 C 7.46 g/m*3 7.2 C 0 km/h
671 17-05-2014 07:50:00 7.3 C 7.51 g/m*3 7.3 C 0 km/h
672 17-05-2014 07:55:00 7.4 C 7.48 g/m*3 7.4 C 0 km/h
673 17-05-2014 08:00:00 7.6 C 7.57 g/m*3 7.6 C 0 km/h
674 17-05-2014 08:05:00 7.8 C 7.67 g/m*3 7.8 C 0 km/h
675 17-05-2014 08:10:00 8.1 C 7.82 g/m*3 8.1 C 0 km/h
Sensor: Nr:Datum:Temp:Abs-Feuchte:Windchill:Wind:
Aussen-T/F 676 17-05-2014 08:15:00 8.4 C 7.89 g/m*3 8.4 C 0 km/h
677 17-05-2014 08:20:00 8.8 C 8.01 g/m*3 8.8 C 0 km/h
678 17-05-2014 08:25:00 9.2 C 8.13 g/m*3 9.2 C 0 km/h
679 17-05-2014 08:30:00 9.4 C 8.14 g/m*3 9.4 C 0 km/h
680 17-05-2014 08:35:00 9.7 C 8.2 g/m*3 9.7 C 0 km/h
681 17-05-2014 08:40:00 9.9 C 8.22 g/m*3 9.9 C 0 km/h
682 17-05-2014 08:45:00 10.2 C 8.37 g/m*3 10.2 C 0 km/h
683 17-05-2014 08:50:00 10.4 C 8.38 g/m*3 10.4 C 0 km/h
684 17-05-2014 08:55:00 10.3 C 8.24 g/m*3 10.3 C 0 km/h
685 17-05-2014 09:00:00 10.3 C 8.33 g/m*3 10.3 C 0 km/h
686 17-05-2014 09:05:00 10.2 C 8.28 g/m*3 10.2 C 0 km/h
687 17-05-2014 09:10:00 10.2 C 8.37 g/m*3 10.2 C 0 km/h
688 17-05-2014 09:15:00 10.3 C 8.43 g/m*3 10.3 C 0 km/h
689 17-05-2014 09:20:00 10.4 C 8.48 g/m*3 10.4 C 0 km/h
690 17-05-2014 09:25:00 10.5 C 8.53 g/m*3 10.5 C 1.6 km/h
691 17-05-2014 09:30:00 10.7 C 8.55 g/m*3 10.7 C 1.6 km/h
692 17-05-2014 09:35:00 10.8 C 8.5 g/m*3 10.8 C 4.8 km/h
693 17-05-2014 09:40:00 11.1 C 8.56 g/m*3 11.1 C 3.2 km/h
694 17-05-2014 09:45:00 11.3 C 8.57 g/m*3 11.3 C 3.2 km/h
695 17-05-2014 09:50:00 11.5 C 8.57 g/m*3 11.5 C 3.2 km/h
696 17-05-2014 09:55:00 11.7 C 8.79 g/m*3 11.7 C 1.6 km/h
697 17-05-2014 10:00:00 11.9 C 8.79 g/m*3 11.9 C 0 km/h
698 17-05-2014 10:05:00 12.1 C 8.9 g/m*3 12.1 C 0 km/h
699 17-05-2014 10:10:00 12.5 C 8.8 g/m*3 12.5 C 1.6 km/h
700 17-05-2014 10:15:00 13.2 C 9.07 g/m*3 13.2 C 1.6 km/h
Sensor: Nr:Datum:Temp:Abs-Feuchte:Windchill:Wind:
Aussen-T/F 701 17-05-2014 10:20:00 13.6 C 8.83 g/m*3 13.6 C 3.2 km/h
702 17-05-2014 10:25:00 14 C 9.05 g/m*3 14 C 1.6 km/h
703 17-05-2014 10:30:00 14.3 C 8.97 g/m*3 14.3 C 3.2 km/h
704 17-05-2014 10:35:00 14.7 C 8.81 g/m*3 14.7 C 3.2 km/h
705 17-05-2014 10:40:00 14.9 C 8.67 g/m*3 14.9 C 4.8 km/h
706 17-05-2014 10:45:00 15.1 C 8.51 g/m*3 15.1 C 3.2 km/h
707 17-05-2014 10:50:00 15.2 C 8.83 g/m*3 15.2 C 3.2 km/h
708 17-05-2014 10:55:00 15.6 C 8.91 g/m*3 15.6 C 3.2 km/h
709 17-05-2014 11:00:00 15.8 C 8.75 g/m*3 15.8 C 3.2 km/h
710 17-05-2014 11:05:00 16.1 C 9.05 g/m*3 16.1 C 6.4 km/h
711 17-05-2014 11:10:00 16.4 C 8.65 g/m*3 16.4 C 3.2 km/h
712 17-05-2014 11:15:00 16.5 C 8.71 g/m*3 16.5 C 3.2 km/h
713 17-05-2014 11:20:00 16.8 C 8.72 g/m*3 16.8 C 3.2 km/h
714 17-05-2014 11:25:00 17 C 8.97 g/m*3 17 C 4.8 km/h
715 17-05-2014 11:30:00 17.3 C 8.84 g/m*3 17.3 C 8.1 km/h
716 17-05-2014 11:35:00 17.4 C 8.74 g/m*3 17.4 C 8.1 km/h
717 17-05-2014 11:40:00 17.6 C 9.3 g/m*3 17.6 C 4.8 km/h
718 17-05-2014 11:45:00 17.7 C 8.75 g/m*3 17.7 C 8.1 km/h
719 17-05-2014 11:50:00 17.7 C 8.75 g/m*3 17.7 C 9.7 km/h
720 17-05-2014 11:55:00 17.7 C 8.75 g/m*3 17.7 C 8.1 km/h
721 17-05-2014 12:00:00 17.8 C 8.2 g/m*3 17.8 C 11.3 km/h
722 17-05-2014 12:05:00 17.8 C 8.5 g/m*3 17.8 C 6.4 km/h
723 17-05-2014 12:10:00 18.2 C 8.86 g/m*3 18.2 C 6.4 km/h
724 17-05-2014 12:15:00 18.4 C 8.65 g/m*3 18.4 C 6.4 km/h
725 17-05-2014 12:20:00 18.5 C 8.54 g/m*3 18.5 C 8.1 km/h
Sensor: Nr:Datum:Temp:Abs-Feuchte:Windchill:Wind:
Aussen-T/F 726 17-05-2014 12:25:00 18.6 C 8.59 g/m*3 18.6 C 9.7 km/h
727 17-05-2014 12:30:00 18.6 C 8.75 g/m*3 18.6 C 6.4 km/h
728 17-05-2014 12:35:00 18.8 C 8.37 g/m*3 18.8 C 8.1 km/h
729 17-05-2014 12:40:00 18.8 C 8.7 g/m*3 18.8 C 8.1 km/h
730 17-05-2014 12:45:00 18.7 C 8.65 g/m*3 18.7 C 11.3 km/h
731 17-05-2014 12:50:00 18.4 C 8.81 g/m*3 18.4 C 4.8 km/h
732 17-05-2014 12:55:00 18.6 C 8.91 g/m*3 18.6 C 6.4 km/h
733 17-05-2014 13:00:00 18.8 C 9.34 g/m*3 18.8 C 6.4 km/h
734 17-05-2014 13:05:00 19.3 C 8.96 g/m*3 19.3 C 9.7 km/h
735 17-05-2014 13:10:00 19.6 C 9.45 g/m*3 19.6 C 11.3 km/h
736 17-05-2014 13:15:00 19.8 C 8.88 g/m*3 19.8 C 8.1 km/h
737 17-05-2014 13:20:00 19.9 C 8.93 g/m*3 19.9 C 8.1 km/h
738 17-05-2014 13:25:00 19.7 C 8.66 g/m*3 19.7 C 4.8 km/h
739 17-05-2014 13:30:00 19.6 C 8.61 g/m*3 19.6 C 4.8 km/h
740 17-05-2014 13:35:00 19.8 C 8.71 g/m*3 19.8 C 6.4 km/h
741 17-05-2014 13:40:00 20 C 8.99 g/m*3 20 C 8.1 km/h
742 17-05-2014 13:45:00 19.9 C 8.59 g/m*3 19.9 C 6.4 km/h
743 17-05-2014 13:50:00 20.3 C 8.97 g/m*3 20.3 C 11.3 km/h
744 17-05-2014 13:55:00 20.2 C 8.57 g/m*3 20.2 C 6.4 km/h
745 17-05-2014 14:00:00 19.7 C 8.32 g/m*3 19.7 C 6.4 km/h
746 17-05-2014 14:05:00 19.7 C 8.66 g/m*3 19.7 C 9.7 km/h
747 17-05-2014 14:10:00 19.8 C 8.71 g/m*3 19.8 C 6.4 km/h
748 17-05-2014 14:15:00 19.8 C 8.71 g/m*3 19.8 C 12.9 km/h
749 17-05-2014 14:20:00 19.7 C 8.66 g/m*3 19.7 C 4.8 km/h
750 17-05-2014 14:25:00 19.6 C 8.78 g/m*3 19.6 C 4.8 km/h
Sensor: Nr:Datum:Temp:Abs-Feuchte:Windchill:Wind:
Aussen-T/F 751 17-05-2014 14:30:00 19.5 C 8.89 g/m*3 19.5 C 8.1 km/h
752 17-05-2014 14:35:00 19.3 C 8.63 g/m*3 19.3 C 9.7 km/h
753 17-05-2014 14:40:00 19.5 C 8.39 g/m*3 19.5 C 4.8 km/h
754 17-05-2014 14:45:00 19.6 C 8.1 g/m*3 19.6 C 4.8 km/h
755 17-05-2014 14:50:00 19.6 C 8.78 g/m*3 19.6 C 6.4 km/h
756 17-05-2014 14:55:00 19.6 C 9.12 g/m*3 19.6 C 4.8 km/h
757 17-05-2014 15:00:00 20.1 C 9.04 g/m*3 20.1 C 8.1 km/h
758 17-05-2014 15:05:00 20.6 C 8.77 g/m*3 20.6 C 6.4 km/h
759 17-05-2014 15:10:00 20.6 C 8.59 g/m*3 20.6 C 9.7 km/h
760 17-05-2014 15:15:00 20.3 C 8.62 g/m*3 20.3 C 8.1 km/h
761 17-05-2014 15:20:00 20.2 C 8.74 g/m*3 20.2 C 8.1 km/h
762 17-05-2014 15:25:00 20.2 C 8.74 g/m*3 20.2 C 6.4 km/h
763 17-05-2014 15:30:00 20.1 C 8.69 g/m*3 20.1 C 8.1 km/h
764 17-05-2014 15:35:00 20.1 C 8.69 g/m*3 20.1 C 8.1 km/h
765 17-05-2014 15:40:00 20.1 C 8.87 g/m*3 20.1 C 6.4 km/h
766 17-05-2014 15:45:00 20.4 C 8.85 g/m*3 20.4 C 6.4 km/h
767 17-05-2014 15:50:00 20.8 C 9.23 g/m*3 20.8 C 8.1 km/h
768 17-05-2014 15:55:00 21.2 C 8.52 g/m*3 21.2 C 8.1 km/h
769 17-05-2014 16:00:00 21.3 C 8.76 g/m*3 21.3 C 9.7 km/h
770 17-05-2014 16:05:00 21.5 C 9.24 g/m*3 21.5 C 4.8 km/h
771 17-05-2014 16:10:00 21.9 C 9.26 g/m*3 21.9 C 11.3 km/h
772 17-05-2014 16:15:00 21.9 C 9.46 g/m*3 21.9 C 11.3 km/h
773 17-05-2014 16:20:00 21.8 C 9.02 g/m*3 21.8 C 11.3 km/h
774 17-05-2014 16:25:00 22.1 C 9.37 g/m*3 22.1 C 11.3 km/h
775 17-05-2014 16:30:00 22.6 C 9.44 g/m*3 22.6 C 8.1 km/h
Sensor: Nr:Datum:Temp:Abs-Feuchte:Windchill:Wind:
Aussen-T/F 776 17-05-2014 16:35:00 22.8 C 9.14 g/m*3 22.8 C 11.3 km/h
777 17-05-2014 16:40:00 22.5 C 8.79 g/m*3 22.5 C 12.9 km/h
778 17-05-2014 16:45:00 21.9 C 9.07 g/m*3 21.9 C 12.9 km/h
779 17-05-2014 16:50:00 21.9 C 8.88 g/m*3 21.9 C 9.7 km/h
780 17-05-2014 16:55:00 22.2 C 9.23 g/m*3 22.2 C 9.7 km/h
781 17-05-2014 17:00:00 22.3 C 9.08 g/m*3 22.3 C 11.3 km/h
782 17-05-2014 17:05:00 22.5 C 9.39 g/m*3 22.5 C 9.7 km/h
783 17-05-2014 17:10:00 22.4 C 8.94 g/m*3 22.4 C 11.3 km/h
784 17-05-2014 17:15:00 21.6 C 8.91 g/m*3 21.6 C 14.5 km/h
785 17-05-2014 17:20:00 21.2 C 8.9 g/m*3 21.2 C 9.7 km/h
786 17-05-2014 17:25:00 21.1 C 9.21 g/m*3 21.1 C 6.4 km/h
787 17-05-2014 17:30:00 21.1 C 9.4 g/m*3 21.1 C 8.1 km/h
788 17-05-2014 17:35:00 20.7 C 9 g/m*3 20.7 C 9.7 km/h
789 17-05-2014 17:40:00 20.5 C 9.25 g/m*3 20.5 C 9.7 km/h
790 17-05-2014 17:45:00 20.3 C 9.15 g/m*3 20.3 C 6.4 km/h
791 17-05-2014 17:50:00 20.3 C 9.15 g/m*3 20.3 C 8.1 km/h
792 17-05-2014 17:55:00 20.3 C 9.32 g/m*3 20.3 C 9.7 km/h
793 17-05-2014 18:00:00 20.3 C 9.5 g/m*3 20.3 C 12.9 km/h
794 17-05-2014 18:05:00 20.3 C 9.32 g/m*3 20.3 C 8.1 km/h
795 17-05-2014 18:10:00 20.3 C 9.32 g/m*3 20.3 C 9.7 km/h
796 17-05-2014 18:15:00 20.4 C 9.55 g/m*3 20.4 C 8.1 km/h
797 17-05-2014 18:20:00 20.4 C 9.38 g/m*3 20.4 C 9.7 km/h
798 17-05-2014 18:25:00 20.6 C 9.31 g/m*3 20.6 C 4.8 km/h
799 17-05-2014 18:30:00 20.9 C 9.65 g/m*3 20.9 C 9.7 km/h
800 17-05-2014 18:35:00 20.8 C 9.42 g/m*3 20.8 C 9.7 km/h
Sensor: Nr:Datum:Temp:Abs-Feuchte:Windchill:Wind:
Aussen-T/F 801 17-05-2014 18:40:00 20.6 C 9.31 g/m*3 20.6 C 8.1 km/h
802 17-05-2014 18:45:00 20.6 C 9.31 g/m*3 20.6 C 6.4 km/h
803 17-05-2014 18:50:00 20.3 C 9.15 g/m*3 20.3 C 8.1 km/h
804 17-05-2014 18:55:00 20.1 C 9.21 g/m*3 20.1 C 6.4 km/h
805 17-05-2014 19:00:00 19.9 C 9.28 g/m*3 19.9 C 4.8 km/h
806 17-05-2014 19:05:00 19.9 C 9.45 g/m*3 19.9 C 3.2 km/h
807 17-05-2014 19:10:00 19.9 C 9.62 g/m*3 19.9 C 9.7 km/h
808 17-05-2014 19:15:00 20.1 C 9.56 g/m*3 20.1 C 8.1 km/h
809 17-05-2014 19:20:00 20.2 C 9.97 g/m*3 20.2 C 6.4 km/h
810 17-05-2014 19:25:00 20.3 C 9.67 g/m*3 20.3 C 11.3 km/h
811 17-05-2014 19:30:00 20.2 C 9.79 g/m*3 20.2 C 11.3 km/h
812 17-05-2014 19:35:00 20.2 C 9.79 g/m*3 20.2 C 8.1 km/h
813 17-05-2014 19:40:00 20.1 C 9.56 g/m*3 20.1 C 9.7 km/h
814 17-05-2014 19:45:00 19.8 C 9.39 g/m*3 19.8 C 9.7 km/h
815 17-05-2014 19:50:00 19.8 C 9.57 g/m*3 19.8 C 8.1 km/h
816 17-05-2014 19:55:00 19.8 C 9.74 g/m*3 19.8 C 6.4 km/h
817 17-05-2014 20:00:00 19.8 C 9.57 g/m*3 19.8 C 8.1 km/h
818 17-05-2014 20:05:00 19.8 C 9.57 g/m*3 19.8 C 9.7 km/h
819 17-05-2014 20:10:00 19.8 C 9.74 g/m*3 19.8 C 12.9 km/h
820 17-05-2014 20:15:00 19.6 C 9.45 g/m*3 19.6 C 9.7 km/h
821 17-05-2014 20:20:00 19.4 C 9.51 g/m*3 19.4 C 6.4 km/h
822 17-05-2014 20:25:00 19.3 C 9.45 g/m*3 19.3 C 9.7 km/h
823 17-05-2014 20:30:00 19.3 C 9.62 g/m*3 19.3 C 8.1 km/h
824 17-05-2014 20:35:00 19.2 C 9.56 g/m*3 19.2 C 6.4 km/h
825 17-05-2014 20:40:00 19.1 C 9.51 g/m*3 19.1 C 6.4 km/h
Sensor: Nr:Datum:Temp:Abs-Feuchte:Windchill:Wind:
Aussen-T/F 826 17-05-2014 20:45:00 19 C 9.45 g/m*3 19 C 6.4 km/h
827 17-05-2014 20:50:00 18.8 C 9.5 g/m*3 18.8 C 8.1 km/h
828 17-05-2014 20:55:00 18.7 C 9.61 g/m*3 18.7 C 3.2 km/h
829 17-05-2014 21:00:00 18.6 C 9.55 g/m*3 18.6 C 9.7 km/h
830 17-05-2014 21:05:00 18.4 C 9.44 g/m*3 18.4 C 4.8 km/h
831 17-05-2014 21:10:00 18.3 C 9.54 g/m*3 18.3 C 6.4 km/h
832 17-05-2014 21:15:00 18.2 C 9.48 g/m*3 18.2 C 8.1 km/h
833 17-05-2014 21:20:00 18.1 C 9.43 g/m*3 18.1 C 8.1 km/h
834 17-05-2014 21:25:00 17.9 C 9.47 g/m*3 17.9 C 6.4 km/h
835 17-05-2014 21:30:00 17.8 C 9.41 g/m*3 17.8 C 8.1 km/h
836 17-05-2014 21:35:00 17.7 C 9.51 g/m*3 17.7 C 8.1 km/h
837 17-05-2014 21:40:00 17.4 C 9.78 g/m*3 17.4 C 3.2 km/h
838 17-05-2014 21:45:00 16.9 C 9.78 g/m*3 16.9 C 1.6 km/h
839 17-05-2014 21:50:00 16.4 C 9.77 g/m*3 16.4 C 3.2 km/h
840 17-05-2014 21:55:00 16.2 C 9.79 g/m*3 16.2 C 0 km/h
841 17-05-2014 22:00:00 15.9 C 9.75 g/m*3 15.9 C 1.6 km/h
842 17-05-2014 22:05:00 15.8 C 9.83 g/m*3 15.8 C 0 km/h
843 17-05-2014 22:10:00 15.7 C 9.9 g/m*3 15.7 C 0 km/h
844 17-05-2014 22:15:00 15.6 C 9.97 g/m*3 15.6 C 0 km/h
845 17-05-2014 22:20:00 15.4 C 9.72 g/m*3 15.4 C 3.2 km/h
846 17-05-2014 22:25:00 15.4 C 9.59 g/m*3 15.4 C 3.2 km/h
847 17-05-2014 22:30:00 15.6 C 9.58 g/m*3 15.6 C 4.8 km/h
848 17-05-2014 22:35:00 15.8 C 9.56 g/m*3 15.8 C 8.1 km/h
849 17-05-2014 22:40:00 15.8 C 9.56 g/m*3 15.8 C 3.2 km/h
850 17-05-2014 22:45:00 15.7 C 9.63 g/m*3 15.7 C 0 km/h
Sensor: Nr:Datum:Temp:Abs-Feuchte:Windchill:Wind:
Aussen-T/F 851 17-05-2014 22:50:00 15.3 C 9.53 g/m*3 15.3 C 0 km/h
852 17-05-2014 22:55:00 15 C 9.49 g/m*3 15 C 0 km/h
853 17-05-2014 23:00:00 14.7 C 9.44 g/m*3 14.7 C 0 km/h
854 17-05-2014 23:05:00 14.4 C 9.39 g/m*3 14.4 C 0 km/h
855 17-05-2014 23:10:00 14.2 C 9.4 g/m*3 14.2 C 0 km/h
856 17-05-2014 23:15:00 13.9 C 9.35 g/m*3 13.9 C 0 km/h
857 17-05-2014 23:20:00 13.7 C 9.24 g/m*3 13.7 C 0 km/h
858 17-05-2014 23:25:00 13.5 C 9.24 g/m*3 13.5 C 1.6 km/h
859 17-05-2014 23:30:00 13.3 C 9.13 g/m*3 13.3 C 0 km/h
860 17-05-2014 23:35:00 13.2 C 9.19 g/m*3 13.2 C 1.6 km/h
861 17-05-2014 23:40:00 13.1 C 9.13 g/m*3 13.1 C 0 km/h
862 17-05-2014 23:45:00 13 C 8.96 g/m*3 13 C 0 km/h
863 17-05-2014 23:50:00 12.9 C 8.9 g/m*3 12.9 C 0 km/h
864 17-05-2014 23:55:00 12.8 C 8.96 g/m*3 12.8 C 0 km/h
865 18-05-2014 00:00:00 12.8 C 8.96 g/m*3 12.8 C 0 km/h
866 18-05-2014 00:05:00 12.7 C 9.02 g/m*3 12.7 C 0 km/h
867 18-05-2014 00:10:00 12.6 C 8.96 g/m*3 12.6 C 0 km/h
868 18-05-2014 00:15:00 12.5 C 8.91 g/m*3 12.5 C 0 km/h
869 18-05-2014 00:20:00 12.4 C 8.85 g/m*3 12.4 C 0 km/h
870 18-05-2014 00:25:00 12.3 C 8.8 g/m*3 12.3 C 0 km/h
871 18-05-2014 00:30:00 12.2 C 8.85 g/m*3 12.2 C 0 km/h
872 18-05-2014 00:35:00 12.2 C 8.85 g/m*3 12.2 C 0 km/h
873 18-05-2014 00:40:00 12.1 C 8.79 g/m*3 12.1 C 0 km/h
874 18-05-2014 00:45:00 12.1 C 8.9 g/m*3 12.1 C 0 km/h
875 18-05-2014 00:50:00 12 C 8.85 g/m*3 12 C 0 km/h
Sensor: Nr:Datum:Temp:Abs-Feuchte:Windchill:Wind:
Aussen-T/F 876 18-05-2014 00:55:00 11.9 C 8.79 g/m*3 11.9 C 0 km/h
877 18-05-2014 01:00:00 11.8 C 8.74 g/m*3 11.8 C 0 km/h
878 18-05-2014 01:05:00 11.7 C 8.68 g/m*3 11.7 C 0 km/h
879 18-05-2014 01:10:00 11.5 C 8.57 g/m*3 11.5 C 0 km/h
880 18-05-2014 01:15:00 11.4 C 8.62 g/m*3 11.4 C 0 km/h
881 18-05-2014 01:20:00 11.3 C 8.57 g/m*3 11.3 C 0 km/h
882 18-05-2014 01:25:00 11.3 C 8.67 g/m*3 11.3 C 0 km/h
883 18-05-2014 01:30:00 11.2 C 8.62 g/m*3 11.2 C 0 km/h
884 18-05-2014 01:35:00 11.1 C 8.66 g/m*3 11.1 C 0 km/h
885 18-05-2014 01:40:00 11.1 C 8.66 g/m*3 11.1 C 0 km/h
886 18-05-2014 01:45:00 11 C 8.61 g/m*3 11 C 0 km/h
887 18-05-2014 01:50:00 10.9 C 8.55 g/m*3 10.9 C 0 km/h
888 18-05-2014 01:55:00 10.8 C 8.6 g/m*3 10.8 C 0 km/h
889 18-05-2014 02:00:00 10.7 C 8.64 g/m*3 10.7 C 0 km/h
890 18-05-2014 02:05:00 10.7 C 8.64 g/m*3 10.7 C 0 km/h
891 18-05-2014 02:10:00 10.6 C 8.59 g/m*3 10.6 C 0 km/h
892 18-05-2014 02:15:00 10.6 C 8.69 g/m*3 10.6 C 0 km/h
893 18-05-2014 02:20:00 10.6 C 8.59 g/m*3 10.6 C 0 km/h
894 18-05-2014 02:25:00 10.6 C 8.69 g/m*3 10.6 C 0 km/h
895 18-05-2014 02:30:00 10.6 C 8.69 g/m*3 10.6 C 0 km/h
896 18-05-2014 02:35:00 10.5 C 8.63 g/m*3 10.5 C 0 km/h
897 18-05-2014 02:40:00 10.5 C 8.63 g/m*3 10.5 C 0 km/h
898 18-05-2014 02:45:00 10.5 C 8.63 g/m*3 10.5 C 0 km/h
899 18-05-2014 02:50:00 10.4 C 8.67 g/m*3 10.4 C 0 km/h
900 18-05-2014 02:55:00 10.5 C 8.73 g/m*3 10.5 C 0 km/h
Sensor: Nr:Datum:Temp:Abs-Feuchte:Windchill:Wind:
Aussen-T/F 901 18-05-2014 03:00:00 10.5 C 8.73 g/m*3 10.5 C 0 km/h
902 18-05-2014 03:05:00 10.5 C 8.73 g/m*3 10.5 C 0 km/h
903 18-05-2014 03:10:00 10.5 C 8.73 g/m*3 10.5 C 0 km/h
904 18-05-2014 03:15:00 10.4 C 8.67 g/m*3 10.4 C 0 km/h
905 18-05-2014 03:20:00 10.4 C 8.67 g/m*3 10.4 C 0 km/h
906 18-05-2014 03:25:00 10.4 C 8.67 g/m*3 10.4 C 0 km/h
907 18-05-2014 03:30:00 10.4 C 8.67 g/m*3 10.4 C 0 km/h
908 18-05-2014 03:35:00 10.4 C 8.67 g/m*3 10.4 C 0 km/h
909 18-05-2014 03:40:00 10.4 C 8.67 g/m*3 10.4 C 0 km/h
910 18-05-2014 03:45:00 10.4 C 8.67 g/m*3 10.4 C 0 km/h
911 18-05-2014 03:50:00 10.3 C 8.62 g/m*3 10.3 C 0 km/h
912 18-05-2014 03:55:00 10.2 C 8.56 g/m*3 10.2 C 0 km/h
913 18-05-2014 04:00:00 10.1 C 8.51 g/m*3 10.1 C 0 km/h
914 18-05-2014 04:05:00 9.8 C 8.44 g/m*3 9.8 C 0 km/h
915 18-05-2014 04:10:00 9.8 C 8.44 g/m*3 9.8 C 0 km/h
916 18-05-2014 04:15:00 9.7 C 8.39 g/m*3 9.7 C 0 km/h
917 18-05-2014 04:20:00 9.6 C 8.43 g/m*3 9.6 C 0 km/h
918 18-05-2014 04:25:00 9.6 C 8.43 g/m*3 9.6 C 0 km/h
919 18-05-2014 04:30:00 9.4 C 8.32 g/m*3 9.4 C 0 km/h
920 18-05-2014 04:35:00 9.3 C 8.27 g/m*3 9.3 C 0 km/h
921 18-05-2014 04:40:00 9.3 C 8.27 g/m*3 9.3 C 0 km/h
922 18-05-2014 04:45:00 9.2 C 8.3 g/m*3 9.2 C 0 km/h
923 18-05-2014 04:50:00 9.1 C 8.25 g/m*3 9.1 C 0 km/h
924 18-05-2014 04:55:00 9.1 C 8.25 g/m*3 9.1 C 0 km/h
925 18-05-2014 05:00:00 9 C 8.2 g/m*3 9 C 0 km/h
Sensor: Nr:Datum:Temp:Abs-Feuchte:Windchill:Wind:
Aussen-T/F 926 18-05-2014 05:05:00 8.9 C 8.15 g/m*3 8.9 C 0 km/h
927 18-05-2014 05:10:00 8.8 C 8.09 g/m*3 8.8 C 0 km/h
928 18-05-2014 05:15:00 8.8 C 8.09 g/m*3 8.8 C 0 km/h
929 18-05-2014 05:20:00 8.7 C 8.13 g/m*3 8.7 C 0 km/h
930 18-05-2014 05:25:00 8.7 C 8.13 g/m*3 8.7 C 0 km/h
931 18-05-2014 05:30:00 8.7 C 8.13 g/m*3 8.7 C 0 km/h
932 18-05-2014 05:35:00 8.7 C 8.13 g/m*3 8.7 C 0 km/h
933 18-05-2014 05:40:00 8.7 C 8.13 g/m*3 8.7 C 0 km/h
934 18-05-2014 05:45:00 8.6 C 8.08 g/m*3 8.6 C 0 km/h
935 18-05-2014 05:50:00 8.6 C 8.08 g/m*3 8.6 C 0 km/h
936 18-05-2014 05:55:00 8.6 C 8.08 g/m*3 8.6 C 0 km/h
937 18-05-2014 06:00:00 8.5 C 8.03 g/m*3 8.5 C 0 km/h
938 18-05-2014 06:05:00 8.4 C 7.97 g/m*3 8.4 C 0 km/h
939 18-05-2014 06:10:00 8.4 C 7.97 g/m*3 8.4 C 0 km/h
940 18-05-2014 06:15:00 8.4 C 7.97 g/m*3 8.4 C 0 km/h
941 18-05-2014 06:20:00 8.4 C 8.06 g/m*3 8.4 C 0 km/h
942 18-05-2014 06:25:00 8.5 C 8.11 g/m*3 8.5 C 0 km/h
943 18-05-2014 06:30:00 8.5 C 8.11 g/m*3 8.5 C 0 km/h
944 18-05-2014 06:35:00 8.6 C 8.16 g/m*3 8.6 C 0 km/h
945 18-05-2014 06:40:00 8.6 C 8.16 g/m*3 8.6 C 0 km/h
946 18-05-2014 06:45:00 8.6 C 8.16 g/m*3 8.6 C 0 km/h
947 18-05-2014 06:50:00 8.6 C 8.16 g/m*3 8.6 C 0 km/h
948 18-05-2014 06:55:00 8.7 C 8.22 g/m*3 8.7 C 0 km/h
949 18-05-2014 07:00:00 8.7 C 8.22 g/m*3 8.7 C 0 km/h
950 18-05-2014 07:05:00 8.7 C 8.22 g/m*3 8.7 C 0 km/h
Sensor: Nr:Datum:Temp:Abs-Feuchte:Windchill:Wind:
Aussen-T/F 951 18-05-2014 07:10:00 8.8 C 8.27 g/m*3 8.8 C 0 km/h
952 18-05-2014 07:15:00 8.8 C 8.27 g/m*3 8.8 C 0 km/h
953 18-05-2014 07:20:00 8.9 C 8.32 g/m*3 8.9 C 0 km/h
954 18-05-2014 07:25:00 8.9 C 8.32 g/m*3 8.9 C 0 km/h
955 18-05-2014 07:30:00 8.9 C 8.32 g/m*3 8.9 C 0 km/h
956 18-05-2014 07:35:00 9 C 8.38 g/m*3 9 C 0 km/h
957 18-05-2014 07:40:00 9.1 C 8.43 g/m*3 9.1 C 0 km/h
958 18-05-2014 07:45:00 9.2 C 8.48 g/m*3 9.2 C 0 km/h
959 18-05-2014 07:50:00 9.4 C 8.59 g/m*3 9.4 C 0 km/h
960 18-05-2014 07:55:00 9.5 C 8.65 g/m*3 9.5 C 0 km/h
961 18-05-2014 08:00:00 9.7 C 8.76 g/m*3 9.7 C 0 km/h
962 18-05-2014 08:05:00 9.9 C 8.87 g/m*3 9.9 C 0 km/h
963 18-05-2014 08:10:00 10.3 C 9 g/m*3 10.3 C 0 km/h
964 18-05-2014 08:15:00 10.6 C 9.08 g/m*3 10.6 C 4.8 km/h
965 18-05-2014 08:20:00 10.9 C 9.15 g/m*3 10.9 C 4.8 km/h
966 18-05-2014 08:25:00 11.2 C 9.22 g/m*3 11.2 C 1.6 km/h
967 18-05-2014 08:30:00 11.6 C 9.35 g/m*3 11.6 C 0 km/h
968 18-05-2014 08:35:00 12 C 9.38 g/m*3 12 C 0 km/h
969 18-05-2014 08:40:00 12.2 C 9.39 g/m*3 12.2 C 1.6 km/h
970 18-05-2014 08:45:00 12.4 C 9.51 g/m*3 12.4 C 0 km/h
971 18-05-2014 08:50:00 12.6 C 9.51 g/m*3 12.6 C 0 km/h
972 18-05-2014 08:55:00 12.5 C 9.46 g/m*3 12.5 C 0 km/h
973 18-05-2014 09:00:00 12.3 C 9.45 g/m*3 12.3 C 0 km/h
974 18-05-2014 09:05:00 12.2 C 9.39 g/m*3 12.2 C 0 km/h
975 18-05-2014 09:10:00 12.2 C 9.5 g/m*3 12.2 C 0 km/h
Sensor: Nr:Datum:Temp:Abs-Feuchte:Windchill:Wind:
Aussen-T/F 976 18-05-2014 09:15:00 12.3 C 9.56 g/m*3 12.3 C 0 km/h
977 18-05-2014 09:20:00 12.3 C 9.66 g/m*3 12.3 C 0 km/h
978 18-05-2014 09:25:00 12.4 C 9.72 g/m*3 12.4 C 0 km/h
979 18-05-2014 09:30:00 12.5 C 9.78 g/m*3 12.5 C 0 km/h
980 18-05-2014 09:35:00 12.6 C 9.85 g/m*3 12.6 C 0 km/h
981 18-05-2014 09:40:00 12.7 C 9.8 g/m*3 12.7 C 0 km/h
982 18-05-2014 09:45:00 12.8 C 9.86 g/m*3 12.8 C 0 km/h
983 18-05-2014 09:50:00 13 C 9.87 g/m*3 13 C 1.6 km/h
984 18-05-2014 09:55:00 13.3 C 9.94 g/m*3 13.3 C 0 km/h
985 18-05-2014 10:00:00 13.6 C 10 g/m*3 13.6 C 1.6 km/h
986 18-05-2014 10:05:00 14 C 10.13 g/m*3 14 C 1.6 km/h
987 18-05-2014 10:10:00 14.4 C 10.26 g/m*3 14.4 C 1.6 km/h
988 18-05-2014 10:15:00 15 C 10.26 g/m*3 15 C 1.6 km/h
989 18-05-2014 10:20:00 15.6 C 10.64 g/m*3 15.6 C 1.6 km/h
990 18-05-2014 10:25:00 15.9 C 10.29 g/m*3 15.9 C 4.8 km/h
991 18-05-2014 10:30:00 16.4 C 10.61 g/m*3 16.4 C 3.2 km/h
992 18-05-2014 10:35:00 16.8 C 10.29 g/m*3 16.8 C 4.8 km/h
993 18-05-2014 10:40:00 17.2 C 10.54 g/m*3 17.2 C 3.2 km/h
994 18-05-2014 10:45:00 17.6 C 10.95 g/m*3 17.6 C 3.2 km/h
995 18-05-2014 10:50:00 17.8 C 10.62 g/m*3 17.8 C 3.2 km/h
996 18-05-2014 10:55:00 18 C 10.75 g/m*3 18 C 3.2 km/h
997 18-05-2014 11:00:00 18.2 C 10.41 g/m*3 18.2 C 4.8 km/h
998 18-05-2014 11:05:00 18.3 C 10.94 g/m*3 18.3 C 3.2 km/h
999 18-05-2014 11:10:00 18.6 C 11.14 g/m*3 18.6 C 3.2 km/h
1000 18-05-2014 11:15:00 18.8 C 10.31 g/m*3 18.8 C 4.8 km/h
Sensor: Nr:Datum:Temp:Abs-Feuchte:Windchill:Wind:
Aussen-T/F 1001 18-05-2014 11:20:00 18.8 C 9.99 g/m*3 18.8 C 3.2 km/h
1002 18-05-2014 11:25:00 18.7 C 10.57 g/m*3 18.7 C 1.6 km/h
1003 18-05-2014 11:30:00 18.6 C 10.5 g/m*3 18.6 C 1.6 km/h
1004 18-05-2014 11:35:00 18.6 C 10.19 g/m*3 18.6 C 3.2 km/h
1005 18-05-2014 11:40:00 18.6 C 10.19 g/m*3 18.6 C 0 km/h
1006 18-05-2014 11:45:00 18.7 C 10.25 g/m*3 18.7 C 4.8 km/h
1007 18-05-2014 11:50:00 19.2 C 10.55 g/m*3 19.2 C 1.6 km/h
1008 18-05-2014 11:55:00 19.6 C 9.96 g/m*3 19.6 C 8.1 km/h
1009 18-05-2014 12:00:00 19.8 C 10.25 g/m*3 19.8 C 8.1 km/h
1010 18-05-2014 12:05:00 19.9 C 9.97 g/m*3 19.9 C 9.7 km/h
1011 18-05-2014 12:10:00 19.8 C 9.74 g/m*3 19.8 C 9.7 km/h
1012 18-05-2014 12:15:00 19.6 C 9.96 g/m*3 19.6 C 6.4 km/h
1013 18-05-2014 12:20:00 19.7 C 10.53 g/m*3 19.7 C 3.2 km/h
1014 18-05-2014 12:25:00 19.7 C 9.68 g/m*3 19.7 C 3.2 km/h
1015 18-05-2014 12:30:00 19.8 C 9.57 g/m*3 19.8 C 3.2 km/h
1016 18-05-2014 12:35:00 19.9 C 10.31 g/m*3 19.9 C 3.2 km/h
1017 18-05-2014 12:40:00 20.2 C 9.97 g/m*3 20.2 C 3.2 km/h
1018 18-05-2014 12:45:00 20.3 C 9.85 g/m*3 20.3 C 4.8 km/h
1019 18-05-2014 12:50:00 20.4 C 9.55 g/m*3 20.4 C 6.4 km/h
1020 18-05-2014 12:55:00 20.6 C 10.38 g/m*3 20.6 C 3.2 km/h
1021 18-05-2014 13:00:00 20.8 C 10.68 g/m*3 20.8 C 4.8 km/h
1022 18-05-2014 13:05:00 20.8 C 9.96 g/m*3 20.8 C 8.1 km/h
1023 18-05-2014 13:10:00 21 C 9.89 g/m*3 21 C 6.4 km/h
1024 18-05-2014 13:15:00 21 C 9.53 g/m*3 21 C 4.8 km/h
1025 18-05-2014 13:20:00 21.2 C 10.19 g/m*3 21.2 C 3.2 km/h
Sensor: Nr:Datum:Temp:Abs-Feuchte:Windchill:Wind:
Aussen-T/F 1026 18-05-2014 13:25:00 21.6 C 10.81 g/m*3 21.6 C 6.4 km/h
1027 18-05-2014 13:30:00 21.7 C 10.11 g/m*3 21.7 C 9.7 km/h
1028 18-05-2014 13:35:00 21.7 C 10.11 g/m*3 21.7 C 8.1 km/h
1029 18-05-2014 13:40:00 21.7 C 9.92 g/m*3 21.7 C 8.1 km/h
1030 18-05-2014 13:45:00 21.9 C 10.42 g/m*3 21.9 C 3.2 km/h
1031 18-05-2014 13:50:00 22 C 10.48 g/m*3 22 C 4.8 km/h
1032 18-05-2014 13:55:00 22.3 C 9.68 g/m*3 22.3 C 4.8 km/h
1033 18-05-2014 14:00:00 22.2 C 10.01 g/m*3 22.2 C 6.4 km/h
1034 18-05-2014 14:05:00 22 C 9.32 g/m*3 22 C 8.1 km/h
1035 18-05-2014 14:10:00 21.7 C 9.16 g/m*3 21.7 C 6.4 km/h
1036 18-05-2014 14:15:00 21.8 C 9.78 g/m*3 21.8 C 4.8 km/h
1037 18-05-2014 14:20:00 22.3 C 10.07 g/m*3 22.3 C 8.1 km/h
1038 18-05-2014 14:25:00 22.4 C 9.33 g/m*3 22.4 C 8.1 km/h
1039 18-05-2014 14:30:00 22.1 C 9.37 g/m*3 22.1 C 9.7 km/h
1040 18-05-2014 14:35:00 21.9 C 9.84 g/m*3 21.9 C 8.1 km/h
1041 18-05-2014 14:40:00 22 C 9.32 g/m*3 22 C 3.2 km/h
1042 18-05-2014 14:45:00 22.1 C 9.96 g/m*3 22.1 C 6.4 km/h
1043 18-05-2014 14:50:00 22.3 C 10.07 g/m*3 22.3 C 4.8 km/h
1044 18-05-2014 14:55:00 22.4 C 10.33 g/m*3 22.4 C 8.1 km/h
1045 18-05-2014 15:00:00 22.5 C 9.19 g/m*3 22.5 C 8.1 km/h
1046 18-05-2014 15:05:00 22.3 C 9.28 g/m*3 22.3 C 8.1 km/h
1047 18-05-2014 15:10:00 22.2 C 9.42 g/m*3 22.2 C 9.7 km/h
1048 18-05-2014 15:15:00 22.1 C 9.96 g/m*3 22.1 C 3.2 km/h
1049 18-05-2014 15:20:00 22.5 C 9.99 g/m*3 22.5 C 9.7 km/h
1050 18-05-2014 15:25:00 22.9 C 9.61 g/m*3 22.9 C 6.4 km/h
Sensor: Nr:Datum:Temp:Abs-Feuchte:Windchill:Wind:
Aussen-T/F 1051 18-05-2014 15:30:00 23.1 C 9.51 g/m*3 23.1 C 6.4 km/h
1052 18-05-2014 15:35:00 23.2 C 9.36 g/m*3 23.2 C 8.1 km/h
1053 18-05-2014 15:40:00 22.8 C 9.35 g/m*3 22.8 C 8.1 km/h
1054 18-05-2014 15:45:00 22.4 C 8.94 g/m*3 22.4 C 4.8 km/h
1055 18-05-2014 15:50:00 22.1 C 9.17 g/m*3 22.1 C 6.4 km/h
1056 18-05-2014 15:55:00 21.9 C 9.07 g/m*3 21.9 C 6.4 km/h
1057 18-05-2014 16:00:00 21.8 C 9.02 g/m*3 21.8 C 3.2 km/h
1058 18-05-2014 16:05:00 21.7 C 9.73 g/m*3 21.7 C 6.4 km/h
1059 18-05-2014 16:10:00 21.6 C 9.48 g/m*3 21.6 C 3.2 km/h
1060 18-05-2014 16:15:00 21.7 C 10.3 g/m*3 21.7 C 1.6 km/h
1061 18-05-2014 16:20:00 22.3 C 9.87 g/m*3 22.3 C 8.1 km/h
1062 18-05-2014 16:25:00 22.4 C 9.53 g/m*3 22.4 C 8.1 km/h
1063 18-05-2014 16:30:00 22.4 C 9.73 g/m*3 22.4 C 9.7 km/h
1064 18-05-2014 16:35:00 22.4 C 9.33 g/m*3 22.4 C 11.3 km/h
1065 18-05-2014 16:40:00 22.3 C 9.48 g/m*3 22.3 C 6.4 km/h
1066 18-05-2014 16:45:00 22.2 C 9.03 g/m*3 22.2 C 6.4 km/h
1067 18-05-2014 16:50:00 22.1 C 9.37 g/m*3 22.1 C 6.4 km/h
1068 18-05-2014 16:55:00 21.9 C 9.46 g/m*3 21.9 C 6.4 km/h
1069 18-05-2014 17:00:00 21.9 C 9.84 g/m*3 21.9 C 6.4 km/h
1070 18-05-2014 17:05:00 21.9 C 9.65 g/m*3 21.9 C 6.4 km/h
1071 18-05-2014 17:10:00 21.9 C 9.65 g/m*3 21.9 C 3.2 km/h
1072 18-05-2014 17:15:00 21.7 C 9.73 g/m*3 21.7 C 3.2 km/h
1073 18-05-2014 17:20:00 21.7 C 9.54 g/m*3 21.7 C 8.1 km/h
1074 18-05-2014 17:25:00 21.6 C 10.05 g/m*3 21.6 C 3.2 km/h
1075 18-05-2014 17:30:00 21.5 C 9.62 g/m*3 21.5 C 3.2 km/h
Sensor: Nr:Datum:Temp:Abs-Feuchte:Windchill:Wind:
Aussen-T/F 1076 18-05-2014 17:35:00 21.4 C 9.19 g/m*3 21.4 C 1.6 km/h
1077 18-05-2014 17:40:00 21.3 C 9.88 g/m*3 21.3 C 3.2 km/h
1078 18-05-2014 17:45:00 21.3 C 11.18 g/m*3 21.3 C 0 km/h
1079 18-05-2014 17:50:00 21.1 C 11.06 g/m*3 21.1 C 0 km/h
1080 18-05-2014 17:55:00 20.9 C 9.83 g/m*3 20.9 C 3.2 km/h
1081 18-05-2014 18:00:00 20.8 C 11.23 g/m*3 20.8 C 0 km/h
1082 18-05-2014 18:05:00 20.7 C 9.72 g/m*3 20.7 C 3.2 km/h
1083 18-05-2014 18:10:00 20.9 C 9.83 g/m*3 20.9 C 4.8 km/h
1084 18-05-2014 18:15:00 21 C 10.26 g/m*3 21 C 3.2 km/h
1085 18-05-2014 18:20:00 21.1 C 10.32 g/m*3 21.1 C 4.8 km/h
1086 18-05-2014 18:25:00 21.1 C 10.87 g/m*3 21.1 C 3.2 km/h
1087 18-05-2014 18:30:00 21.1 C 9.95 g/m*3 21.1 C 3.2 km/h
1088 18-05-2014 18:35:00 20.8 C 11.41 g/m*3 20.8 C 0 km/h
1089 18-05-2014 18:40:00 20.4 C 11.85 g/m*3 20.4 C 0 km/h
1090 18-05-2014 18:45:00 20.1 C 11.82 g/m*3 20.1 C 0 km/h
1091 18-05-2014 18:50:00 19.9 C 11.51 g/m*3 19.9 C 0 km/h
1092 18-05-2014 18:55:00 20 C 10.2 g/m*3 20 C 1.6 km/h
1093 18-05-2014 19:00:00 20.3 C 9.5 g/m*3 20.3 C 0 km/h
1094 18-05-2014 19:05:00 20.4 C 11.5 g/m*3 20.4 C 0 km/h
1095 18-05-2014 19:10:00 20.2 C 12.06 g/m*3 20.2 C 0 km/h
1096 18-05-2014 19:15:00 20.2 C 11.71 g/m*3 20.2 C 0 km/h
1097 18-05-2014 19:20:00 20.4 C 10.97 g/m*3 20.4 C 1.6 km/h
1098 18-05-2014 19:25:00 20.7 C 9.9 g/m*3 20.7 C 3.2 km/h
1099 18-05-2014 19:30:00 21 C 9.71 g/m*3 21 C 4.8 km/h
1100 18-05-2014 19:35:00 21.1 C 11.42 g/m*3 21.1 C 1.6 km/h
Sensor: Nr:Datum:Temp:Abs-Feuchte:Windchill:Wind:
Aussen-T/F 1101 18-05-2014 19:40:00 20.7 C 11.52 g/m*3 20.7 C 1.6 km/h
1102 18-05-2014 19:45:00 20.2 C 11.54 g/m*3 20.2 C 0 km/h
1103 18-05-2014 19:50:00 19.7 C 11.21 g/m*3 19.7 C 0 km/h
1104 18-05-2014 19:55:00 19.2 C 11.21 g/m*3 19.2 C 0 km/h
1105 18-05-2014 20:00:00 18.7 C 11.37 g/m*3 18.7 C 0 km/h
1106 18-05-2014 20:05:00 18.6 C 11.46 g/m*3 18.6 C 0 km/h
1107 18-05-2014 20:10:00 18.6 C 11.46 g/m*3 18.6 C 0 km/h
1108 18-05-2014 20:15:00 18.5 C 11.39 g/m*3 18.5 C 0 km/h
1109 18-05-2014 20:20:00 18.4 C 11.32 g/m*3 18.4 C 0 km/h
1110 18-05-2014 20:25:00 18.3 C 11.26 g/m*3 18.3 C 0 km/h
1111 18-05-2014 20:30:00 18.1 C 11.28 g/m*3 18.1 C 0 km/h
1112 18-05-2014 20:35:00 17.8 C 11.08 g/m*3 17.8 C 0 km/h
1113 18-05-2014 20:40:00 17.6 C 10.95 g/m*3 17.6 C 0 km/h
1114 18-05-2014 20:45:00 17.3 C 10.9 g/m*3 17.3 C 0 km/h
1115 18-05-2014 20:50:00 17.2 C 10.98 g/m*3 17.2 C 0 km/h
1116 18-05-2014 20:55:00 16.9 C 10.79 g/m*3 16.9 C 1.6 km/h
1117 18-05-2014 21:00:00 16.8 C 10.87 g/m*3 16.8 C 0 km/h
1118 18-05-2014 21:05:00 16.6 C 10.74 g/m*3 16.6 C 0 km/h
1119 18-05-2014 21:10:00 16.4 C 10.75 g/m*3 16.4 C 0 km/h
1120 18-05-2014 21:15:00 16.3 C 10.68 g/m*3 16.3 C 0 km/h
1121 18-05-2014 21:20:00 16.2 C 10.62 g/m*3 16.2 C 0 km/h
1122 18-05-2014 21:25:00 16 C 10.63 g/m*3 16 C 0 km/h
1123 18-05-2014 21:30:00 15.8 C 10.36 g/m*3 15.8 C 0 km/h
1124 18-05-2014 21:35:00 15.7 C 10.44 g/m*3 15.7 C 0 km/h
1125 18-05-2014 21:40:00 15.5 C 10.31 g/m*3 15.5 C 1.6 km/h
Sensor: Nr:Datum:Temp:Abs-Feuchte:Windchill:Wind:
Aussen-T/F 1126 18-05-2014 21:45:00 15.3 C 10.19 g/m*3 15.3 C 0 km/h
1127 18-05-2014 21:50:00 15.2 C 9.99 g/m*3 15.2 C 0 km/h
1128 18-05-2014 21:55:00 15.1 C 9.93 g/m*3 15.1 C 0 km/h
1129 18-05-2014 22:00:00 14.9 C 9.94 g/m*3 14.9 C 0 km/h
1130 18-05-2014 22:05:00 14.8 C 9.75 g/m*3 14.8 C 1.6 km/h
1131 18-05-2014 22:10:00 14.8 C 9.88 g/m*3 14.8 C 0 km/h
1132 18-05-2014 22:15:00 14.7 C 9.82 g/m*3 14.7 C 1.6 km/h
1133 18-05-2014 22:20:00 14.6 C 9.76 g/m*3 14.6 C 0 km/h
1134 18-05-2014 22:25:00 14.5 C 9.83 g/m*3 14.5 C 0 km/h
1135 18-05-2014 22:30:00 14.4 C 9.77 g/m*3 14.4 C 0 km/h
1136 18-05-2014 22:35:00 14.4 C 9.64 g/m*3 14.4 C 0 km/h
1137 18-05-2014 22:40:00 14.3 C 9.58 g/m*3 14.3 C 0 km/h
1138 18-05-2014 22:45:00 14.2 C 9.65 g/m*3 14.2 C 0 km/h
1139 18-05-2014 22:50:00 14.1 C 9.59 g/m*3 14.1 C 0 km/h
1140 18-05-2014 22:55:00 14 C 9.65 g/m*3 14 C 0 km/h
1141 18-05-2014 23:00:00 13.9 C 9.59 g/m*3 13.9 C 0 km/h
1142 18-05-2014 23:05:00 13.8 C 9.65 g/m*3 13.8 C 0 km/h
1143 18-05-2014 23:10:00 13.7 C 9.59 g/m*3 13.7 C 0 km/h
1144 18-05-2014 23:15:00 13.7 C 9.59 g/m*3 13.7 C 0 km/h
1145 18-05-2014 23:20:00 13.7 C 9.59 g/m*3 13.7 C 0 km/h
1146 18-05-2014 23:25:00 13.6 C 9.65 g/m*3 13.6 C 0 km/h
1147 18-05-2014 23:30:00 13.6 C 9.77 g/m*3 13.6 C 0 km/h
1148 18-05-2014 23:35:00 13.6 C 9.65 g/m*3 13.6 C 0 km/h
1149 18-05-2014 23:40:00 13.6 C 9.65 g/m*3 13.6 C 0 km/h
1150 18-05-2014 23:45:00 13.5 C 9.59 g/m*3 13.5 C 0 km/h
Sensor: Nr:Datum:Temp:Abs-Feuchte:Windchill:Wind:
Aussen-T/F 1151 18-05-2014 23:50:00 13.4 C 9.53 g/m*3 13.4 C 0 km/h
1152 18-05-2014 23:55:00 13.3 C 9.59 g/m*3 13.3 C 0 km/h
1153 19-05-2014 00:00:00 13.2 C 9.53 g/m*3 13.2 C 0 km/h
1154 19-05-2014 00:05:00 13 C 9.41 g/m*3 13 C 0 km/h
1155 19-05-2014 00:10:00 12.9 C 9.47 g/m*3 12.9 C 0 km/h
1156 19-05-2014 00:15:00 12.8 C 9.41 g/m*3 12.8 C 0 km/h
1157 19-05-2014 00:20:00 12.7 C 9.46 g/m*3 12.7 C 0 km/h
1158 19-05-2014 00:25:00 12.6 C 9.4 g/m*3 12.6 C 0 km/h
1159 19-05-2014 00:30:00 12.5 C 9.35 g/m*3 12.5 C 0 km/h
1160 19-05-2014 00:35:00 12.5 C 9.46 g/m*3 12.5 C 4.8 km/h
1161 19-05-2014 00:40:00 12.6 C 9.51 g/m*3 12.6 C 0 km/h
1162 19-05-2014 00:45:00 12.7 C 9.57 g/m*3 12.7 C 0 km/h
1163 19-05-2014 00:50:00 12.6 C 9.4 g/m*3 12.6 C 1.6 km/h
1164 19-05-2014 00:55:00 12.6 C 9.51 g/m*3 12.6 C 1.6 km/h
1165 19-05-2014 01:00:00 12.7 C 9.57 g/m*3 12.7 C 1.6 km/h
1166 19-05-2014 01:05:00 12.8 C 9.63 g/m*3 12.8 C 0 km/h
1167 19-05-2014 01:10:00 12.8 C 9.63 g/m*3 12.8 C 0 km/h
1168 19-05-2014 01:15:00 12.8 C 9.63 g/m*3 12.8 C 0 km/h
1169 19-05-2014 01:20:00 12.7 C 9.57 g/m*3 12.7 C 0 km/h
1170 19-05-2014 01:25:00 12.6 C 9.51 g/m*3 12.6 C 0 km/h
1171 19-05-2014 01:30:00 12.4 C 9.4 g/m*3 12.4 C 0 km/h
1172 19-05-2014 01:35:00 12.4 C 9.51 g/m*3 12.4 C 0 km/h
1173 19-05-2014 01:40:00 12.3 C 9.45 g/m*3 12.3 C 0 km/h
1174 19-05-2014 01:45:00 12.3 C 9.45 g/m*3 12.3 C 0 km/h
1175 19-05-2014 01:50:00 12.2 C 9.5 g/m*3 12.2 C 0 km/h
Sensor: Nr:Datum:Temp:Abs-Feuchte:Windchill:Wind:
Aussen-T/F 1176 19-05-2014 01:55:00 12.2 C 9.5 g/m*3 12.2 C 0 km/h
1177 19-05-2014 02:00:00 12.1 C 9.44 g/m*3 12.1 C 0 km/h
1178 19-05-2014 02:05:00 12 C 9.38 g/m*3 12 C 0 km/h
1179 19-05-2014 02:10:00 11.9 C 9.43 g/m*3 11.9 C 0 km/h
1180 19-05-2014 02:15:00 11.8 C 9.37 g/m*3 11.8 C 0 km/h
1181 19-05-2014 02:20:00 11.7 C 9.31 g/m*3 11.7 C 0 km/h
1182 19-05-2014 02:25:00 11.7 C 9.31 g/m*3 11.7 C 0 km/h
1183 19-05-2014 02:30:00 11.6 C 9.25 g/m*3 11.6 C 0 km/h
1184 19-05-2014 02:35:00 11.6 C 9.25 g/m*3 11.6 C 0 km/h
1185 19-05-2014 02:40:00 11.6 C 9.35 g/m*3 11.6 C 0 km/h
1186 19-05-2014 02:45:00 11.6 C 9.25 g/m*3 11.6 C 0 km/h
1187 19-05-2014 02:50:00 11.5 C 9.3 g/m*3 11.5 C 1.6 km/h
1188 19-05-2014 02:55:00 11.4 C 9.24 g/m*3 11.4 C 0 km/h
1189 19-05-2014 03:00:00 11.4 C 9.24 g/m*3 11.4 C 0 km/h
1190 19-05-2014 03:05:00 11.3 C 9.18 g/m*3 11.3 C 0 km/h
1191 19-05-2014 03:10:00 11.3 C 9.18 g/m*3 11.3 C 0 km/h
1192 19-05-2014 03:15:00 11.2 C 9.22 g/m*3 11.2 C 0 km/h
1193 19-05-2014 03:20:00 11.2 C 9.22 g/m*3 11.2 C 0 km/h
1194 19-05-2014 03:25:00 11.1 C 9.17 g/m*3 11.1 C 0 km/h
1195 19-05-2014 03:30:00 11.1 C 9.17 g/m*3 11.1 C 0 km/h
1196 19-05-2014 03:35:00 11 C 9.11 g/m*3 11 C 0 km/h
1197 19-05-2014 03:40:00 10.9 C 9.05 g/m*3 10.9 C 0 km/h
1198 19-05-2014 03:45:00 10.9 C 9.15 g/m*3 10.9 C 0 km/h
1199 19-05-2014 03:50:00 10.8 C 9.09 g/m*3 10.8 C 0 km/h
1200 19-05-2014 03:55:00 10.8 C 9.09 g/m*3 10.8 C 0 km/h
Sensor: Nr:Datum:Temp:Abs-Feuchte:Windchill:Wind:
Aussen-T/F 1201 19-05-2014 04:00:00 10.8 C 9.09 g/m*3 10.8 C 0 km/h
1202 19-05-2014 04:05:00 10.7 C 9.04 g/m*3 10.7 C 0 km/h
1203 19-05-2014 04:10:00 10.7 C 9.04 g/m*3 10.7 C 0 km/h
1204 19-05-2014 04:15:00 10.6 C 8.98 g/m*3 10.6 C 0 km/h
1205 19-05-2014 04:20:00 10.6 C 8.98 g/m*3 10.6 C 0 km/h
1206 19-05-2014 04:25:00 10.5 C 8.92 g/m*3 10.5 C 0 km/h
1207 19-05-2014 04:30:00 10.4 C 8.87 g/m*3 10.4 C 0 km/h
1208 19-05-2014 04:35:00 10.3 C 8.81 g/m*3 10.3 C 0 km/h
1209 19-05-2014 04:40:00 10.3 C 8.91 g/m*3 10.3 C 0 km/h
1210 19-05-2014 04:45:00 10.3 C 8.81 g/m*3 10.3 C 0 km/h
1211 19-05-2014 04:50:00 10.2 C 8.85 g/m*3 10.2 C 0 km/h
1212 19-05-2014 04:55:00 10.2 C 8.85 g/m*3 10.2 C 0 km/h
1213 19-05-2014 05:00:00 10.2 C 8.85 g/m*3 10.2 C 0 km/h
1214 19-05-2014 05:05:00 10.1 C 8.79 g/m*3 10.1 C 0 km/h
1215 19-05-2014 05:10:00 10.1 C 8.79 g/m*3 10.1 C 0 km/h
1216 19-05-2014 05:15:00 10 C 8.74 g/m*3 10 C 0 km/h
1217 19-05-2014 05:20:00 9.9 C 8.68 g/m*3 9.9 C 0 km/h
1218 19-05-2014 05:25:00 9.8 C 8.63 g/m*3 9.8 C 0 km/h
1219 19-05-2014 05:30:00 9.8 C 8.72 g/m*3 9.8 C 0 km/h
1220 19-05-2014 05:35:00 9.8 C 8.72 g/m*3 9.8 C 0 km/h
1221 19-05-2014 05:40:00 9.7 C 8.67 g/m*3 9.7 C 0 km/h
1222 19-05-2014 05:45:00 9.7 C 8.67 g/m*3 9.7 C 0 km/h
1223 19-05-2014 05:50:00 9.6 C 8.61 g/m*3 9.6 C 0 km/h
1224 19-05-2014 05:55:00 9.6 C 8.61 g/m*3 9.6 C 0 km/h
1225 19-05-2014 06:00:00 9.6 C 8.61 g/m*3 9.6 C 0 km/h
Sensor: Nr:Datum:Temp:Abs-Feuchte:Windchill:Wind:
Aussen-T/F 1226 19-05-2014 06:05:00 9.5 C 8.56 g/m*3 9.5 C 0 km/h
1227 19-05-2014 06:10:00 9.5 C 8.56 g/m*3 9.5 C 0 km/h
1228 19-05-2014 06:15:00 9.4 C 8.5 g/m*3 9.4 C 0 km/h
1229 19-05-2014 06:20:00 9.5 C 8.65 g/m*3 9.5 C 0 km/h
1230 19-05-2014 06:25:00 9.5 C 8.65 g/m*3 9.5 C 0 km/h
1231 19-05-2014 06:30:00 9.5 C 8.65 g/m*3 9.5 C 0 km/h
1232 19-05-2014 06:35:00 9.5 C 8.65 g/m*3 9.5 C 0 km/h
1233 19-05-2014 06:40:00 9.5 C 8.65 g/m*3 9.5 C 0 km/h
1234 19-05-2014 06:45:00 9.6 C 8.7 g/m*3 9.6 C 1.6 km/h
1235 19-05-2014 06:50:00 9.6 C 8.7 g/m*3 9.6 C 0 km/h
1236 19-05-2014 06:55:00 9.6 C 8.7 g/m*3 9.6 C 0 km/h
1237 19-05-2014 07:00:00 9.6 C 8.7 g/m*3 9.6 C 0 km/h
1238 19-05-2014 07:05:00 9.7 C 8.76 g/m*3 9.7 C 0 km/h
1239 19-05-2014 07:10:00 9.7 C 8.76 g/m*3 9.7 C 0 km/h
1240 19-05-2014 07:15:00 9.7 C 8.76 g/m*3 9.7 C 0 km/h
1241 19-05-2014 07:20:00 9.8 C 8.81 g/m*3 9.8 C 0 km/h
1242 19-05-2014 07:25:00 9.8 C 8.81 g/m*3 9.8 C 0 km/h
1243 19-05-2014 07:30:00 9.8 C 8.81 g/m*3 9.8 C 0 km/h
1244 19-05-2014 07:35:00 9.9 C 8.87 g/m*3 9.9 C 0 km/h
1245 19-05-2014 07:40:00 9.9 C 8.87 g/m*3 9.9 C 0 km/h
1246 19-05-2014 07:45:00 10.1 C 9.08 g/m*3 10.1 C 0 km/h
1247 19-05-2014 07:50:00 10.2 C 9.04 g/m*3 10.2 C 0 km/h
1248 19-05-2014 07:55:00 10.3 C 9.1 g/m*3 10.3 C 0 km/h
1249 19-05-2014 08:00:00 10.5 C 9.21 g/m*3 10.5 C 0 km/h
1250 19-05-2014 08:05:00 10.8 C 9.39 g/m*3 10.8 C 0 km/h
Sensor: Nr:Datum:Temp:Abs-Feuchte:Windchill:Wind:
Aussen-T/F 1251 19-05-2014 08:10:00 11.2 C 9.63 g/m*3 11.2 C 0 km/h
1252 19-05-2014 08:15:00 11.6 C 9.77 g/m*3 11.6 C 0 km/h
1253 19-05-2014 08:20:00 11.9 C 9.74 g/m*3 11.9 C 0 km/h
1254 19-05-2014 08:25:00 12.2 C 9.82 g/m*3 12.2 C 0 km/h
1255 19-05-2014 08:30:00 12.4 C 9.83 g/m*3 12.4 C 0 km/h
1256 19-05-2014 08:35:00 12.6 C 9.85 g/m*3 12.6 C 0 km/h
1257 19-05-2014 08:40:00 12.8 C 9.97 g/m*3 12.8 C 0 km/h
1258 19-05-2014 08:45:00 12.9 C 10.03 g/m*3 12.9 C 0 km/h
1259 19-05-2014 08:50:00 13.2 C 10.1 g/m*3 13.2 C 0 km/h
1260 19-05-2014 08:55:00 13.1 C 9.93 g/m*3 13.1 C 0 km/h
1261 19-05-2014 09:00:00 13 C 9.98 g/m*3 13 C 0 km/h
1262 19-05-2014 09:05:00 13 C 10.09 g/m*3 13 C 0 km/h
1263 19-05-2014 09:10:00 13 C 10.09 g/m*3 13 C 0 km/h
1264 19-05-2014 09:15:00 13.1 C 10.27 g/m*3 13.1 C 0 km/h
1265 19-05-2014 09:20:00 13.2 C 10.33 g/m*3 13.2 C 0 km/h
1266 19-05-2014 09:25:00 13.3 C 10.28 g/m*3 13.3 C 0 km/h
1267 19-05-2014 09:30:00 13.4 C 10.35 g/m*3 13.4 C 0 km/h
1268 19-05-2014 09:35:00 13.6 C 10.59 g/m*3 13.6 C 0 km/h
1269 19-05-2014 09:40:00 13.7 C 10.54 g/m*3 13.7 C 0 km/h
1270 19-05-2014 09:45:00 13.9 C 10.67 g/m*3 13.9 C 0 km/h
1271 19-05-2014 09:50:00 14.1 C 10.8 g/m*3 14.1 C 0 km/h
1272 19-05-2014 09:55:00 14.2 C 10.87 g/m*3 14.2 C 0 km/h
1273 19-05-2014 10:00:00 14.4 C 11 g/m*3 14.4 C 0 km/h
1274 19-05-2014 10:05:00 14.9 C 11.22 g/m*3 14.9 C 1.6 km/h
1275 19-05-2014 10:10:00 15.4 C 11.3 g/m*3 15.4 C 0 km/h
Sensor: Nr:Datum:Temp:Abs-Feuchte:Windchill:Wind:
Aussen-T/F 1276 19-05-2014 10:15:00 15.8 C 11.31 g/m*3 15.8 C 0 km/h
1277 19-05-2014 10:20:00 15.8 C 11.44 g/m*3 15.8 C 0 km/h
1278 19-05-2014 10:25:00 16.3 C 11.65 g/m*3 16.3 C 1.6 km/h
1279 19-05-2014 10:30:00 16.7 C 11.51 g/m*3 16.7 C 4.8 km/h
1280 19-05-2014 10:35:00 17.7 C 12.07 g/m*3 17.7 C 3.2 km/h
1281 19-05-2014 10:40:00 17.8 C 11.84 g/m*3 17.8 C 0 km/h
1282 19-05-2014 10:45:00 17.9 C 11.6 g/m*3 17.9 C 3.2 km/h
1283 19-05-2014 10:50:00 18.8 C 11.6 g/m*3 18.8 C 6.4 km/h
1284 19-05-2014 10:55:00 19.6 C 11.65 g/m*3 19.6 C 3.2 km/h
1285 19-05-2014 11:00:00 19.7 C 11.38 g/m*3 19.7 C 3.2 km/h
1286 19-05-2014 11:05:00 20.1 C 11.3 g/m*3 20.1 C 8.1 km/h
1287 19-05-2014 11:10:00 20.6 C 12.17 g/m*3 20.6 C 4.8 km/h
1288 19-05-2014 11:15:00 21.1 C 11.42 g/m*3 21.1 C 4.8 km/h
1289 19-05-2014 11:20:00 21.6 C 11 g/m*3 21.6 C 4.8 km/h
1290 19-05-2014 11:25:00 21.8 C 11.32 g/m*3 21.8 C 6.4 km/h
1291 19-05-2014 11:30:00 21.9 C 11.39 g/m*3 21.9 C 4.8 km/h
1292 19-05-2014 11:35:00 22.1 C 10.74 g/m*3 22.1 C 6.4 km/h
1293 19-05-2014 11:40:00 22.1 C 11.52 g/m*3 22.1 C 8.1 km/h
1294 19-05-2014 11:45:00 22.3 C 11.26 g/m*3 22.3 C 6.4 km/h
1295 19-05-2014 11:50:00 22.6 C 11.65 g/m*3 22.6 C 8.1 km/h
1296 19-05-2014 11:55:00 22.7 C 11.52 g/m*3 22.7 C 4.8 km/h
1297 19-05-2014 12:00:00 22.9 C 11.65 g/m*3 22.9 C 8.1 km/h
1298 19-05-2014 12:05:00 22.9 C 11.44 g/m*3 22.9 C 3.2 km/h
1299 19-05-2014 12:10:00 23.3 C 10.87 g/m*3 23.3 C 8.1 km/h
1300 19-05-2014 12:15:00 23.2 C 10.6 g/m*3 23.2 C 4.8 km/h
Sensor: Nr:Datum:Temp:Abs-Feuchte:Windchill:Wind:
Aussen-T/F 1301 19-05-2014 12:20:00 23 C 11.1 g/m*3 23 C 8.1 km/h
1302 19-05-2014 12:25:00 22.9 C 11.24 g/m*3 22.9 C 9.7 km/h
1303 19-05-2014 12:30:00 23 C 10.89 g/m*3 23 C 9.7 km/h
1304 19-05-2014 12:35:00 23.1 C 11.37 g/m*3 23.1 C 6.4 km/h
1305 19-05-2014 12:40:00 23.3 C 11.5 g/m*3 23.3 C 8.1 km/h
1306 19-05-2014 12:45:00 23.6 C 11.48 g/m*3 23.6 C 4.8 km/h
1307 19-05-2014 12:50:00 23.8 C 11.19 g/m*3 23.8 C 6.4 km/h
1308 19-05-2014 12:55:00 23.4 C 10.72 g/m*3 23.4 C 8.1 km/h
1309 19-05-2014 13:00:00 22.9 C 11.04 g/m*3 22.9 C 6.4 km/h
1310 19-05-2014 13:05:00 22.4 C 11.92 g/m*3 22.4 C 0 km/h
1311 19-05-2014 13:10:00 22.3 C 12.05 g/m*3 22.3 C 1.6 km/h
1312 19-05-2014 13:15:00 22.4 C 11.32 g/m*3 22.4 C 6.4 km/h
1313 19-05-2014 13:20:00 22.7 C 10.51 g/m*3 22.7 C 6.4 km/h
1314 19-05-2014 13:25:00 22.7 C 12.73 g/m*3 22.7 C 1.6 km/h
1315 19-05-2014 13:30:00 22.4 C 11.32 g/m*3 22.4 C 3.2 km/h
1316 19-05-2014 13:35:00 23.1 C 11.78 g/m*3 23.1 C 9.7 km/h
1317 19-05-2014 13:40:00 23.7 C 10.91 g/m*3 23.7 C 8.1 km/h
1318 19-05-2014 13:45:00 23.6 C 11.7 g/m*3 23.6 C 3.2 km/h
1319 19-05-2014 13:50:00 23.3 C 10.66 g/m*3 23.3 C 4.8 km/h
1320 19-05-2014 13:55:00 23.2 C 11.23 g/m*3 23.2 C 4.8 km/h
1321 19-05-2014 14:00:00 22.8 C 12.19 g/m*3 22.8 C 3.2 km/h
1322 19-05-2014 14:05:00 22.6 C 11.65 g/m*3 22.6 C 3.2 km/h
1323 19-05-2014 14:10:00 22.5 C 10.39 g/m*3 22.5 C 8.1 km/h
1324 19-05-2014 14:15:00 22.5 C 11.98 g/m*3 22.5 C 4.8 km/h
1325 19-05-2014 14:20:00 22.6 C 11.25 g/m*3 22.6 C 6.4 km/h
Sensor: Nr:Datum:Temp:Abs-Feuchte:Windchill:Wind:
Aussen-T/F 1326 19-05-2014 14:25:00 22.7 C 12.53 g/m*3 22.7 C 1.6 km/h
1327 19-05-2014 14:30:00 22.6 C 12.05 g/m*3 22.6 C 0 km/h
1328 19-05-2014 14:35:00 22.6 C 12.86 g/m*3 22.6 C 0 km/h
1329 19-05-2014 14:40:00 23.1 C 10.96 g/m*3 23.1 C 3.2 km/h
1330 19-05-2014 14:45:00 23.9 C 11.03 g/m*3 23.9 C 6.4 km/h
1331 19-05-2014 14:50:00 24.3 C 11.06 g/m*3 24.3 C 4.8 km/h
1332 19-05-2014 14:55:00 24.6 C 10.13 g/m*3 24.6 C 8.1 km/h
1333 19-05-2014 15:00:00 24.6 C 9.9 g/m*3 24.6 C 6.4 km/h
1334 19-05-2014 15:05:00 24.4 C 11.79 g/m*3 24.4 C 1.6 km/h
1335 19-05-2014 15:10:00 24.2 C 9.68 g/m*3 24.2 C 3.2 km/h
1336 19-05-2014 15:15:00 24.1 C 12.69 g/m*3 24.1 C 1.6 km/h
1337 19-05-2014 15:20:00 24.1 C 10.28 g/m*3 24.1 C 6.4 km/h
1338 19-05-2014 15:25:00 23.6 C 11.7 g/m*3 23.6 C 3.2 km/h
1339 19-05-2014 15:30:00 22.9 C 10.22 g/m*3 22.9 C 3.2 km/h
1340 19-05-2014 15:35:00 23.1 C 11.37 g/m*3 23.1 C 6.4 km/h
1341 19-05-2014 15:40:00 23.8 C 10.76 g/m*3 23.8 C 4.8 km/h
1342 19-05-2014 15:45:00 24.6 C 12.38 g/m*3 24.6 C 3.2 km/h
1343 19-05-2014 15:50:00 24.3 C 11.95 g/m*3 24.3 C 0 km/h
1344 19-05-2014 15:55:00 24.2 C 10.12 g/m*3 24.2 C 3.2 km/h
1345 19-05-2014 16:00:00 25 C 9.67 g/m*3 25 C 3.2 km/h
1346 19-05-2014 16:05:00 25.9 C 10.17 g/m*3 25.9 C 6.4 km/h
1347 19-05-2014 16:10:00 26.6 C 10.07 g/m*3 26.6 C 9.7 km/h
1348 19-05-2014 16:15:00 26.6 C 9.31 g/m*3 26.6 C 9.7 km/h
1349 19-05-2014 16:20:00 26.1 C 9.3 g/m*3 26.1 C 9.7 km/h
1350 19-05-2014 16:25:00 26.1 C 10.28 g/m*3 26.1 C 6.4 km/h
Sensor: Nr:Datum:Temp:Abs-Feuchte:Windchill:Wind:
Aussen-T/F 1351 19-05-2014 16:30:00 26.1 C 9.3 g/m*3 26.1 C 11.3 km/h
1352 19-05-2014 16:35:00 26 C 9.74 g/m*3 26 C 11.3 km/h
1353 19-05-2014 16:40:00 25.9 C 11.62 g/m*3 25.9 C 8.1 km/h
1354 19-05-2014 16:45:00 26.2 C 10.34 g/m*3 26.2 C 4.8 km/h
1355 19-05-2014 16:50:00 26.6 C 9.31 g/m*3 26.6 C 11.3 km/h
1356 19-05-2014 16:55:00 27 C 9.01 g/m*3 27 C 8.1 km/h
1357 19-05-2014 17:00:00 27.2 C 8.59 g/m*3 27.2 C 14.5 km/h
1358 19-05-2014 17:05:00 27.2 C 8.07 g/m*3 27.2 C 12.9 km/h
1359 19-05-2014 17:10:00 27.3 C 8.37 g/m*3 27.3 C 12.9 km/h
1360 19-05-2014 17:15:00 27.2 C 8.33 g/m*3 27.2 C 12.9 km/h
1361 19-05-2014 17:20:00 27.2 C 8.33 g/m*3 27.2 C 11.3 km/h
1362 19-05-2014 17:25:00 27.3 C 8.37 g/m*3 27.3 C 9.7 km/h
1363 19-05-2014 17:30:00 27.4 C 8.68 g/m*3 27.4 C 9.7 km/h
1364 19-05-2014 17:35:00 27.8 C 8.88 g/m*3 27.8 C 8.1 km/h
1365 19-05-2014 17:40:00 27.8 C 8.61 g/m*3 27.8 C 8.1 km/h
1366 19-05-2014 17:45:00 27.7 C 8.83 g/m*3 27.7 C 8.1 km/h
1367 19-05-2014 17:50:00 27.7 C 8.83 g/m*3 27.7 C 6.4 km/h
1368 19-05-2014 17:55:00 27.8 C 9.15 g/m*3 27.8 C 12.9 km/h
1369 19-05-2014 18:00:00 27.8 C 8.88 g/m*3 27.8 C 11.3 km/h
1370 19-05-2014 18:05:00 27.6 C 8.51 g/m*3 27.6 C 11.3 km/h
1371 19-05-2014 18:10:00 27.4 C 8.42 g/m*3 27.4 C 11.3 km/h
1372 19-05-2014 18:15:00 27.3 C 8.63 g/m*3 27.3 C 11.3 km/h
1373 19-05-2014 18:20:00 27.3 C 8.9 g/m*3 27.3 C 3.2 km/h
1374 19-05-2014 18:25:00 27.3 C 8.63 g/m*3 27.3 C 6.4 km/h
1375 19-05-2014 18:30:00 27.5 C 9 g/m*3 27.5 C 4.8 km/h
Sensor: Nr:Datum:Temp:Abs-Feuchte:Windchill:Wind:
Aussen-T/F 1376 19-05-2014 18:35:00 27.5 C 8.73 g/m*3 27.5 C 11.3 km/h
1377 19-05-2014 18:40:00 27.5 C 9 g/m*3 27.5 C 8.1 km/h
1378 19-05-2014 18:45:00 27.4 C 8.95 g/m*3 27.4 C 6.4 km/h
1379 19-05-2014 18:50:00 27.4 C 9.21 g/m*3 27.4 C 9.7 km/h
1380 19-05-2014 18:55:00 27.3 C 9.16 g/m*3 27.3 C 6.4 km/h
1381 19-05-2014 19:00:00 27.4 C 8.68 g/m*3 27.4 C 9.7 km/h
1382 19-05-2014 19:05:00 27.2 C 8.85 g/m*3 27.2 C 9.7 km/h
1383 19-05-2014 19:10:00 26.9 C 9.73 g/m*3 26.9 C 6.4 km/h
1384 19-05-2014 19:15:00 26.4 C 8.96 g/m*3 26.4 C 6.4 km/h
1385 19-05-2014 19:20:00 26.2 C 9.11 g/m*3 26.2 C 4.8 km/h
1386 19-05-2014 19:25:00 25.9 C 9.2 g/m*3 25.9 C 8.1 km/h
1387 19-05-2014 19:30:00 25.8 C 8.91 g/m*3 25.8 C 4.8 km/h
1388 19-05-2014 19:35:00 25.8 C 10.35 g/m*3 25.8 C 8.1 km/h
1389 19-05-2014 19:40:00 25.6 C 9.52 g/m*3 25.6 C 4.8 km/h
1390 19-05-2014 19:45:00 25.1 C 8.8 g/m*3 25.1 C 12.9 km/h
1391 19-05-2014 19:50:00 24.2 C 8.8 g/m*3 24.2 C 17.7 km/h
1392 19-05-2014 19:55:00 23.3 C 9.2 g/m*3 23.3 C 8.1 km/h
1393 19-05-2014 20:00:00 22.3 C 9.28 g/m*3 22.3 C 4.8 km/h
1394 19-05-2014 20:05:00 22.3 C 9.08 g/m*3 22.3 C 3.2 km/h
1395 19-05-2014 20:10:00 22.4 C 8.94 g/m*3 22.4 C 3.2 km/h
1396 19-05-2014 20:15:00 22.4 C 10.13 g/m*3 22.4 C 3.2 km/h
1397 19-05-2014 20:20:00 22.4 C 11.72 g/m*3 22.4 C 1.6 km/h
1398 19-05-2014 20:25:00 21.8 C 11.7 g/m*3 21.8 C 3.2 km/h
1399 19-05-2014 20:30:00 21.1 C 11.61 g/m*3 21.1 C 3.2 km/h
1400 19-05-2014 20:35:00 20.5 C 11.74 g/m*3 20.5 C 3.2 km/h
Sensor: Nr:Datum:Temp:Abs-Feuchte:Windchill:Wind:
Aussen-T/F 1401 19-05-2014 20:40:00 20.1 C 11.65 g/m*3 20.1 C 1.6 km/h
1402 19-05-2014 20:45:00 19.8 C 11.61 g/m*3 19.8 C 3.2 km/h
1403 19-05-2014 20:50:00 19.4 C 11.51 g/m*3 19.4 C 1.6 km/h
1404 19-05-2014 20:55:00 19.2 C 11.54 g/m*3 19.2 C 1.6 km/h
1405 19-05-2014 21:00:00 18.9 C 11.34 g/m*3 18.9 C 1.6 km/h
1406 19-05-2014 21:05:00 18.7 C 11.53 g/m*3 18.7 C 0 km/h
1407 19-05-2014 21:10:00 18.4 C 11.48 g/m*3 18.4 C 1.6 km/h
1408 19-05-2014 21:15:00 18.1 C 11.28 g/m*3 18.1 C 0 km/h
1409 19-05-2014 21:20:00 17.8 C 11.08 g/m*3 17.8 C 1.6 km/h
1410 19-05-2014 21:25:00 17.6 C 10.65 g/m*3 17.6 C 1.6 km/h
1411 19-05-2014 21:30:00 17.5 C 10.73 g/m*3 17.5 C 0 km/h
1412 19-05-2014 21:35:00 17.4 C 10.67 g/m*3 17.4 C 1.6 km/h
1413 19-05-2014 21:40:00 17.2 C 10.69 g/m*3 17.2 C 1.6 km/h
1414 19-05-2014 21:45:00 17.1 C 10.63 g/m*3 17.1 C 1.6 km/h
1415 19-05-2014 21:50:00 16.9 C 10.5 g/m*3 16.9 C 1.6 km/h
1416 19-05-2014 21:55:00 16.8 C 10.44 g/m*3 16.8 C 1.6 km/h
1417 19-05-2014 22:00:00 16.7 C 10.37 g/m*3 16.7 C 1.6 km/h
1418 19-05-2014 22:05:00 16.7 C 10.23 g/m*3 16.7 C 1.6 km/h
1419 19-05-2014 22:10:00 16.6 C 10.45 g/m*3 16.6 C 0 km/h
1420 19-05-2014 22:15:00 16.5 C 10.39 g/m*3 16.5 C 1.6 km/h
1421 19-05-2014 22:20:00 16.4 C 10.19 g/m*3 16.4 C 0 km/h
1422 19-05-2014 22:25:00 16.3 C 10.27 g/m*3 16.3 C 0 km/h
1423 19-05-2014 22:30:00 16.2 C 10.07 g/m*3 16.2 C 0 km/h
1424 19-05-2014 22:35:00 16.1 C 10.14 g/m*3 16.1 C 0 km/h
1425 19-05-2014 22:40:00 15.9 C 10.29 g/m*3 15.9 C 0 km/h
Sensor: Nr:Datum:Temp:Abs-Feuchte:Windchill:Wind:
Aussen-T/F 1426 19-05-2014 22:45:00 15.8 C 10.23 g/m*3 15.8 C 0 km/h
1427 19-05-2014 22:50:00 15.7 C 10.3 g/m*3 15.7 C 0 km/h
1428 19-05-2014 22:55:00 15.6 C 10.37 g/m*3 15.6 C 0 km/h
1429 19-05-2014 23:00:00 15.4 C 10.38 g/m*3 15.4 C 0 km/h
1430 19-05-2014 23:05:00 15.3 C 10.45 g/m*3 15.3 C 0 km/h
1431 19-05-2014 23:10:00 15.2 C 10.25 g/m*3 15.2 C 0 km/h
1432 19-05-2014 23:15:00 15.2 C 10.38 g/m*3 15.2 C 1.6 km/h
1433 19-05-2014 23:20:00 15.2 C 10.51 g/m*3 15.2 C 1.6 km/h
1434 19-05-2014 23:25:00 15.2 C 10.51 g/m*3 15.2 C 3.2 km/h
1435 19-05-2014 23:30:00 15.1 C 10.45 g/m*3 15.1 C 0 km/h
1436 19-05-2014 23:35:00 15 C 10.39 g/m*3 15 C 0 km/h
1437 19-05-2014 23:40:00 14.8 C 10.39 g/m*3 14.8 C 0 km/h
1438 19-05-2014 23:45:00 14.7 C 10.32 g/m*3 14.7 C 1.6 km/h
1439 19-05-2014 23:50:00 14.5 C 10.32 g/m*3 14.5 C 0 km/h
1440 19-05-2014 23:55:00 14.4 C 10.26 g/m*3 14.4 C 0 km/h
1441 20-05-2014 00:00:00 14.4 C 10.38 g/m*3 14.4 C 0 km/h
1442 20-05-2014 00:05:00 14.3 C 10.44 g/m*3 14.3 C 0 km/h
1443 20-05-2014 00:10:00 14.3 C 10.44 g/m*3 14.3 C 0 km/h
1444 20-05-2014 00:15:00 14.2 C 10.38 g/m*3 14.2 C 0 km/h
1445 20-05-2014 00:20:00 14.1 C 10.32 g/m*3 14.1 C 0 km/h
1446 20-05-2014 00:25:00 13.9 C 10.19 g/m*3 13.9 C 1.6 km/h
1447 20-05-2014 00:30:00 13.9 C 10.19 g/m*3 13.9 C 0 km/h
1448 20-05-2014 00:35:00 13.8 C 10.25 g/m*3 13.8 C 0 km/h
1449 20-05-2014 00:40:00 13.7 C 10.18 g/m*3 13.7 C 0 km/h
1450 20-05-2014 00:45:00 13.6 C 10.24 g/m*3 13.6 C 0 km/h
Sensor: Nr:Datum:Temp:Abs-Feuchte:Windchill:Wind:
Aussen-T/F 1451 20-05-2014 00:50:00 13.5 C 10.18 g/m*3 13.5 C 0 km/h
1452 20-05-2014 00:55:00 13.4 C 10.11 g/m*3 13.4 C 0 km/h
1453 20-05-2014 01:00:00 13.3 C 10.17 g/m*3 13.3 C 0 km/h
1454 20-05-2014 01:05:00 13.2 C 10.1 g/m*3 13.2 C 0 km/h
1455 20-05-2014 01:10:00 13.1 C 10.04 g/m*3 13.1 C 0 km/h
1456 20-05-2014 01:15:00 13.1 C 10.04 g/m*3 13.1 C 0 km/h
1457 20-05-2014 01:20:00 13 C 10.09 g/m*3 13 C 0 km/h
1458 20-05-2014 01:25:00 12.9 C 10.03 g/m*3 12.9 C 0 km/h
1459 20-05-2014 01:30:00 12.8 C 9.97 g/m*3 12.8 C 0 km/h
1460 20-05-2014 01:35:00 12.7 C 9.91 g/m*3 12.7 C 0 km/h
1461 20-05-2014 01:40:00 12.7 C 9.91 g/m*3 12.7 C 0 km/h
1462 20-05-2014 01:45:00 12.7 C 9.91 g/m*3 12.7 C 0 km/h
1463 20-05-2014 01:50:00 12.6 C 9.85 g/m*3 12.6 C 0 km/h
1464 20-05-2014 01:55:00 12.6 C 9.85 g/m*3 12.6 C 0 km/h
1465 20-05-2014 02:00:00 12.6 C 9.96 g/m*3 12.6 C 0 km/h
1466 20-05-2014 02:05:00 12.7 C 10.02 g/m*3 12.7 C 0 km/h
1467 20-05-2014 02:10:00 12.7 C 10.02 g/m*3 12.7 C 0 km/h
1468 20-05-2014 02:15:00 12.8 C 10.19 g/m*3 12.8 C 0 km/h
1469 20-05-2014 02:20:00 12.9 C 10.26 g/m*3 12.9 C 0 km/h
1470 20-05-2014 02:25:00 13 C 10.32 g/m*3 13 C 0 km/h
1471 20-05-2014 02:30:00 13 C 10.32 g/m*3 13 C 0 km/h
1472 20-05-2014 02:35:00 13.1 C 10.38 g/m*3 13.1 C 0 km/h
1473 20-05-2014 02:40:00 13.1 C 10.38 g/m*3 13.1 C 0 km/h
1474 20-05-2014 02:45:00 13 C 10.21 g/m*3 13 C 0 km/h
1475 20-05-2014 02:50:00 12.9 C 10.14 g/m*3 12.9 C 0 km/h
Sensor: Nr:Datum:Temp:Abs-Feuchte:Windchill:Wind:
Aussen-T/F 1476 20-05-2014 02:55:00 12.8 C 10.08 g/m*3 12.8 C 0 km/h
1477 20-05-2014 03:00:00 12.7 C 10.13 g/m*3 12.7 C 0 km/h
1478 20-05-2014 03:05:00 12.6 C 10.07 g/m*3 12.6 C 0 km/h
1479 20-05-2014 03:10:00 12.5 C 10 g/m*3 12.5 C 0 km/h
1480 20-05-2014 03:15:00 12.5 C 10 g/m*3 12.5 C 0 km/h
1481 20-05-2014 03:20:00 12.6 C 10.07 g/m*3 12.6 C 0 km/h
1482 20-05-2014 03:25:00 12.6 C 10.07 g/m*3 12.6 C 0 km/h
1483 20-05-2014 03:30:00 12.6 C 10.07 g/m*3 12.6 C 0 km/h
1484 20-05-2014 03:35:00 12.7 C 10.13 g/m*3 12.7 C 0 km/h
1485 20-05-2014 03:40:00 12.6 C 10.07 g/m*3 12.6 C 0 km/h
1486 20-05-2014 03:45:00 12.6 C 10.07 g/m*3 12.6 C 0 km/h
1487 20-05-2014 03:50:00 12.4 C 9.94 g/m*3 12.4 C 0 km/h
1488 20-05-2014 03:55:00 12.3 C 9.88 g/m*3 12.3 C 0 km/h
1489 20-05-2014 04:00:00 12.3 C 9.88 g/m*3 12.3 C 0 km/h
1490 20-05-2014 04:05:00 12.2 C 9.82 g/m*3 12.2 C 0 km/h
1491 20-05-2014 04:10:00 12 C 9.8 g/m*3 12 C 0 km/h
1492 20-05-2014 04:15:00 11.9 C 9.74 g/m*3 11.9 C 0 km/h
1493 20-05-2014 04:20:00 11.9 C 9.74 g/m*3 11.9 C 0 km/h
1494 20-05-2014 04:25:00 11.8 C 9.68 g/m*3 11.8 C 0 km/h
1495 20-05-2014 04:30:00 11.7 C 9.62 g/m*3 11.7 C 0 km/h
1496 20-05-2014 04:35:00 11.7 C 9.73 g/m*3 11.7 C 0 km/h
1497 20-05-2014 04:40:00 11.7 C 9.73 g/m*3 11.7 C 0 km/h
1498 20-05-2014 04:45:00 11.7 C 9.73 g/m*3 11.7 C 0 km/h
1499 20-05-2014 04:50:00 11.8 C 9.79 g/m*3 11.8 C 0 km/h
1500 20-05-2014 04:55:00 11.8 C 9.79 g/m*3 11.8 C 0 km/h
Sensor: Nr:Datum:Temp:Abs-Feuchte:Windchill:Wind:
Aussen-T/F 1501 20-05-2014 05:00:00 11.8 C 9.79 g/m*3 11.8 C 0 km/h
1502 20-05-2014 05:05:00 11.8 C 9.79 g/m*3 11.8 C 0 km/h
1503 20-05-2014 05:10:00 11.8 C 9.79 g/m*3 11.8 C 0 km/h
1504 20-05-2014 05:15:00 11.7 C 9.73 g/m*3 11.7 C 0 km/h
1505 20-05-2014 05:20:00 11.7 C 9.73 g/m*3 11.7 C 0 km/h
1506 20-05-2014 05:25:00 11.7 C 9.73 g/m*3 11.7 C 0 km/h
1507 20-05-2014 05:30:00 11.7 C 9.83 g/m*3 11.7 C 0 km/h
1508 20-05-2014 05:35:00 11.6 C 9.77 g/m*3 11.6 C 0 km/h
1509 20-05-2014 05:40:00 11.6 C 9.77 g/m*3 11.6 C 0 km/h
1510 20-05-2014 05:45:00 11.6 C 9.77 g/m*3 11.6 C 0 km/h
1511 20-05-2014 05:50:00 11.6 C 9.77 g/m*3 11.6 C 0 km/h
1512 20-05-2014 05:55:00 11.7 C 9.83 g/m*3 11.7 C 0 km/h
1513 20-05-2014 06:00:00 11.7 C 9.83 g/m*3 11.7 C 0 km/h
1514 20-05-2014 06:05:00 11.8 C 9.89 g/m*3 11.8 C 0 km/h
1515 20-05-2014 06:10:00 11.9 C 9.96 g/m*3 11.9 C 0 km/h
1516 20-05-2014 06:15:00 11.9 C 9.96 g/m*3 11.9 C 1.6 km/h
1517 20-05-2014 06:20:00 12 C 10.02 g/m*3 12 C 6.4 km/h
1518 20-05-2014 06:25:00 12.1 C 10.08 g/m*3 12.1 C 0 km/h
1519 20-05-2014 06:30:00 12.2 C 10.14 g/m*3 12.2 C 0 km/h
1520 20-05-2014 06:35:00 12.3 C 10.21 g/m*3 12.3 C 1.6 km/h
1521 20-05-2014 06:40:00 12.3 C 10.1 g/m*3 12.3 C 0 km/h
1522 20-05-2014 06:45:00 12.4 C 10.16 g/m*3 12.4 C 0 km/h
1523 20-05-2014 06:50:00 12.6 C 10.29 g/m*3 12.6 C 0 km/h
1524 20-05-2014 06:55:00 12.6 C 10.29 g/m*3 12.6 C 1.6 km/h
1525 20-05-2014 07:00:00 12.7 C 10.24 g/m*3 12.7 C 0 km/h
Sensor: Nr:Datum:Temp:Abs-Feuchte:Windchill:Wind:
Aussen-T/F 1526 20-05-2014 07:05:00 12.8 C 10.3 g/m*3 12.8 C 0 km/h
1527 20-05-2014 07:10:00 12.9 C 10.37 g/m*3 12.9 C 0 km/h
1528 20-05-2014 07:15:00 13 C 10.43 g/m*3 13 C 0 km/h
1529 20-05-2014 07:20:00 13.1 C 10.38 g/m*3 13.1 C 0 km/h
1530 20-05-2014 07:25:00 13.2 C 10.45 g/m*3 13.2 C 0 km/h
1531 20-05-2014 07:30:00 13.2 C 10.45 g/m*3 13.2 C 3.2 km/h
1532 20-05-2014 07:35:00 13.4 C 10.46 g/m*3 13.4 C 3.2 km/h
1533 20-05-2014 07:40:00 13.4 C 10.35 g/m*3 13.4 C 0 km/h
1534 20-05-2014 07:45:00 13.6 C 10.47 g/m*3 13.6 C 0 km/h
1535 20-05-2014 07:50:00 13.8 C 10.6 g/m*3 13.8 C 0 km/h
1536 20-05-2014 07:55:00 14 C 10.61 g/m*3 14 C 4.8 km/h
1537 20-05-2014 08:00:00 14.2 C 10.75 g/m*3 14.2 C 3.2 km/h
1538 20-05-2014 08:05:00 14.2 C 10.62 g/m*3 14.2 C 4.8 km/h
1539 20-05-2014 08:10:00 14.3 C 10.81 g/m*3 14.3 C 0 km/h
1540 20-05-2014 08:15:00 14.5 C 10.82 g/m*3 14.5 C 4.8 km/h
1541 20-05-2014 08:20:00 14.6 C 10.89 g/m*3 14.6 C 3.2 km/h
1542 20-05-2014 08:25:00 14.7 C 10.83 g/m*3 14.7 C 8.1 km/h
1543 20-05-2014 08:30:00 14.9 C 10.96 g/m*3 14.9 C 4.8 km/h
1544 20-05-2014 08:35:00 15.1 C 10.97 g/m*3 15.1 C 9.7 km/h
1545 20-05-2014 08:40:00 15.2 C 11.03 g/m*3 15.2 C 6.4 km/h
1546 20-05-2014 08:45:00 15.4 C 10.9 g/m*3 15.4 C 8.1 km/h
1547 20-05-2014 08:50:00 15.5 C 10.97 g/m*3 15.5 C 4.8 km/h
1548 20-05-2014 08:55:00 15.7 C 10.97 g/m*3 15.7 C 3.2 km/h
1549 20-05-2014 09:00:00 15.9 C 11.1 g/m*3 15.9 C 3.2 km/h
1550 20-05-2014 09:05:00 16.1 C 11.1 g/m*3 16.1 C 3.2 km/h
Sensor: Nr:Datum:Temp:Abs-Feuchte:Windchill:Wind:
Aussen-T/F 1551 20-05-2014 09:10:00 16.3 C 11.1 g/m*3 16.3 C 3.2 km/h
1552 20-05-2014 09:15:00 16.4 C 11.31 g/m*3 16.4 C 1.6 km/h
1553 20-05-2014 09:20:00 16.6 C 11.3 g/m*3 16.6 C 6.4 km/h
1554 20-05-2014 09:25:00 16.7 C 11.08 g/m*3 16.7 C 4.8 km/h
1555 20-05-2014 09:30:00 16.9 C 11.22 g/m*3 16.9 C 4.8 km/h
1556 20-05-2014 09:35:00 17.2 C 11.28 g/m*3 17.2 C 4.8 km/h
1557 20-05-2014 09:40:00 17.5 C 11.33 g/m*3 17.5 C 3.2 km/h
1558 20-05-2014 09:45:00 17.8 C 11.69 g/m*3 17.8 C 3.2 km/h
1559 20-05-2014 09:50:00 18.1 C 11.43 g/m*3 18.1 C 1.6 km/h
1560 20-05-2014 09:55:00 18.3 C 11.57 g/m*3 18.3 C 0 km/h
1561 20-05-2014 10:00:00 18.5 C 11.71 g/m*3 18.5 C 3.2 km/h
1562 20-05-2014 10:05:00 18.9 C 11.66 g/m*3 18.9 C 3.2 km/h
1563 20-05-2014 10:10:00 19.3 C 11.78 g/m*3 19.3 C 3.2 km/h
1564 20-05-2014 10:15:00 19.8 C 12.13 g/m*3 19.8 C 3.2 km/h
1565 20-05-2014 10:20:00 20.2 C 12.24 g/m*3 20.2 C 3.2 km/h
1566 20-05-2014 10:25:00 20.3 C 11.96 g/m*3 20.3 C 3.2 km/h
1567 20-05-2014 10:30:00 20.5 C 12.1 g/m*3 20.5 C 3.2 km/h
1568 20-05-2014 10:35:00 20.6 C 11.81 g/m*3 20.6 C 1.6 km/h
1569 20-05-2014 10:40:00 20.6 C 12.17 g/m*3 20.6 C 4.8 km/h
1570 20-05-2014 10:45:00 20.7 C 12.24 g/m*3 20.7 C 4.8 km/h
1571 20-05-2014 10:50:00 20.9 C 12.57 g/m*3 20.9 C 3.2 km/h
1572 20-05-2014 10:55:00 21.1 C 12.53 g/m*3 21.1 C 3.2 km/h
1573 20-05-2014 11:00:00 21.3 C 11.74 g/m*3 21.3 C 4.8 km/h
1574 20-05-2014 11:05:00 21.7 C 11.83 g/m*3 21.7 C 8.1 km/h
1575 20-05-2014 11:10:00 22.1 C 11.71 g/m*3 22.1 C 9.7 km/h
Sensor: Nr:Datum:Temp:Abs-Feuchte:Windchill:Wind:
Aussen-T/F 1576 20-05-2014 11:15:00 22.6 C 11.85 g/m*3 22.6 C 9.7 km/h
1577 20-05-2014 11:20:00 22.8 C 11.18 g/m*3 22.8 C 8.1 km/h
1578 20-05-2014 11:25:00 22.8 C 11.58 g/m*3 22.8 C 8.1 km/h
1579 20-05-2014 11:30:00 22.9 C 11.85 g/m*3 22.9 C 8.1 km/h
1580 20-05-2014 11:35:00 23.1 C 10.96 g/m*3 23.1 C 11.3 km/h
1581 20-05-2014 11:40:00 23.1 C 11.16 g/m*3 23.1 C 11.3 km/h
1582 20-05-2014 11:45:00 23.2 C 11.02 g/m*3 23.2 C 8.1 km/h
1583 20-05-2014 11:50:00 23.4 C 10.93 g/m*3 23.4 C 9.7 km/h
1584 20-05-2014 11:55:00 23.6 C 11.06 g/m*3 23.6 C 11.3 km/h
1585 20-05-2014 12:00:00 23.8 C 10.97 g/m*3 23.8 C 8.1 km/h
1586 20-05-2014 12:05:00 24 C 10.88 g/m*3 24 C 9.7 km/h
1587 20-05-2014 12:10:00 24.1 C 10.94 g/m*3 24.1 C 12.9 km/h
1588 20-05-2014 12:15:00 24.3 C 11.29 g/m*3 24.3 C 11.3 km/h
1589 20-05-2014 12:20:00 24.3 C 10.84 g/m*3 24.3 C 8.1 km/h
1590 20-05-2014 12:25:00 24.4 C 11.35 g/m*3 24.4 C 11.3 km/h
1591 20-05-2014 12:30:00 24.4 C 10.9 g/m*3 24.4 C 12.9 km/h
1592 20-05-2014 12:35:00 24.6 C 10.58 g/m*3 24.6 C 9.7 km/h
1593 20-05-2014 12:40:00 24.8 C 10.47 g/m*3 24.8 C 9.7 km/h
1594 20-05-2014 12:45:00 24.9 C 11.22 g/m*3 24.9 C 6.4 km/h
1595 20-05-2014 12:50:00 25.1 C 10.42 g/m*3 25.1 C 9.7 km/h
1596 20-05-2014 12:55:00 25.2 C 10.71 g/m*3 25.2 C 6.4 km/h
1597 20-05-2014 13:00:00 25.3 C 10.07 g/m*3 25.3 C 9.7 km/h
1598 20-05-2014 13:05:00 25.4 C 10.12 g/m*3 25.4 C 11.3 km/h
1599 20-05-2014 13:10:00 25.3 C 10.07 g/m*3 25.3 C 9.7 km/h
1600 20-05-2014 13:15:00 25.4 C 11.06 g/m*3 25.4 C 6.4 km/h
Sensor: Nr:Datum:Temp:Abs-Feuchte:Windchill:Wind:
Aussen-T/F 1601 20-05-2014 13:20:00 25.8 C 11.07 g/m*3 25.8 C 8.1 km/h
1602 20-05-2014 13:25:00 26.1 C 10.53 g/m*3 26.1 C 9.7 km/h
1603 20-05-2014 13:30:00 26.2 C 10.59 g/m*3 26.2 C 14.5 km/h
1604 20-05-2014 13:35:00 26.3 C 10.15 g/m*3 26.3 C 11.3 km/h
1605 20-05-2014 13:40:00 26.3 C 10.4 g/m*3 26.3 C 8.1 km/h
1606 20-05-2014 13:45:00 26.6 C 10.82 g/m*3 26.6 C 8.1 km/h
1607 20-05-2014 13:50:00 26.6 C 10.57 g/m*3 26.6 C 8.1 km/h
1608 20-05-2014 13:55:00 26.7 C 10.63 g/m*3 26.7 C 8.1 km/h
1609 20-05-2014 14:00:00 26.8 C 10.69 g/m*3 26.8 C 8.1 km/h
1610 20-05-2014 14:05:00 27.1 C 10.87 g/m*3 27.1 C 4.8 km/h
1611 20-05-2014 14:10:00 27.4 C 10.52 g/m*3 27.4 C 6.4 km/h
1612 20-05-2014 14:15:00 27.3 C 10.2 g/m*3 27.3 C 8.1 km/h
1613 20-05-2014 14:20:00 27.4 C 10.79 g/m*3 27.4 C 8.1 km/h
1614 20-05-2014 14:25:00 27.6 C 10.64 g/m*3 27.6 C 4.8 km/h
1615 20-05-2014 14:30:00 27.8 C 11.03 g/m*3 27.8 C 8.1 km/h
1616 20-05-2014 14:35:00 28 C 11.15 g/m*3 28 C 8.1 km/h
1617 20-05-2014 14:40:00 28.3 C 11.06 g/m*3 28.3 C 8.1 km/h
1618 20-05-2014 14:45:00 28.3 C 9.95 g/m*3 28.3 C 8.1 km/h
1619 20-05-2014 14:50:00 28.4 C 10.28 g/m*3 28.4 C 6.4 km/h
1620 20-05-2014 14:55:00 28.6 C 10.4 g/m*3 28.6 C 6.4 km/h
1621 20-05-2014 15:00:00 28.6 C 10.4 g/m*3 28.6 C 8.1 km/h
1622 20-05-2014 15:05:00 28.5 C 10.34 g/m*3 28.5 C 8.1 km/h
1623 20-05-2014 15:10:00 28.8 C 9.66 g/m*3 28.8 C 6.4 km/h
1624 20-05-2014 15:15:00 29.1 C 8.95 g/m*3 29.1 C 9.7 km/h
1625 20-05-2014 15:20:00 29 C 8.9 g/m*3 29 C 9.7 km/h
Sensor: Nr:Datum:Temp:Abs-Feuchte:Windchill:Wind:
Aussen-T/F 1626 20-05-2014 15:25:00 28.7 C 8.48 g/m*3 28.7 C 11.3 km/h
1627 20-05-2014 15:30:00 28.6 C 8.43 g/m*3 28.6 C 8.1 km/h
1628 20-05-2014 15:35:00 28.8 C 8.52 g/m*3 28.8 C 4.8 km/h
1629 20-05-2014 15:40:00 29 C 8.62 g/m*3 29 C 6.4 km/h
1630 20-05-2014 15:45:00 29.2 C 8.42 g/m*3 29.2 C 11.3 km/h
1631 20-05-2014 15:50:00 29.2 C 9 g/m*3 29.2 C 4.8 km/h
1632 20-05-2014 15:55:00 29.7 C 9.25 g/m*3 29.7 C 6.4 km/h
1633 20-05-2014 16:00:00 30.1 C 8.84 g/m*3 30.1 C 6.4 km/h
1634 20-05-2014 16:05:00 29.8 C 10.2 g/m*3 29.8 C 4.8 km/h
1635 20-05-2014 16:10:00 29.3 C 9.34 g/m*3 29.3 C 8.1 km/h
1636 20-05-2014 16:15:00 29.3 C 8.76 g/m*3 29.3 C 12.9 km/h
1637 20-05-2014 16:20:00 29.1 C 9.82 g/m*3 29.1 C 6.4 km/h
1638 20-05-2014 16:25:00 29.3 C 9.34 g/m*3 29.3 C 6.4 km/h
1639 20-05-2014 16:30:00 29.2 C 10.16 g/m*3 29.2 C 6.4 km/h
1640 20-05-2014 16:35:00 29.1 C 9.82 g/m*3 29.1 C 12.9 km/h
1641 20-05-2014 16:40:00 29.1 C 9.53 g/m*3 29.1 C 4.8 km/h
1642 20-05-2014 16:45:00 29.1 C 9.82 g/m*3 29.1 C 6.4 km/h
1643 20-05-2014 16:50:00 28.9 C 9.71 g/m*3 28.9 C 9.7 km/h
1644 20-05-2014 16:55:00 28.9 C 10 g/m*3 28.9 C 4.8 km/h
1645 20-05-2014 17:00:00 28.7 C 9.61 g/m*3 28.7 C 8.1 km/h
1646 20-05-2014 17:05:00 28.3 C 10.23 g/m*3 28.3 C 4.8 km/h
1647 20-05-2014 17:10:00 27.9 C 10.28 g/m*3 27.9 C 4.8 km/h
1648 20-05-2014 17:15:00 27.8 C 10.22 g/m*3 27.8 C 6.4 km/h
1649 20-05-2014 17:20:00 27.7 C 10.43 g/m*3 27.7 C 8.1 km/h
1650 20-05-2014 17:25:00 27.9 C 10.28 g/m*3 27.9 C 4.8 km/h
Sensor: Nr:Datum:Temp:Abs-Feuchte:Windchill:Wind:
Aussen-T/F 1651 20-05-2014 17:30:00 28.3 C 10.51 g/m*3 28.3 C 6.4 km/h
1652 20-05-2014 17:35:00 28.8 C 10.51 g/m*3 28.8 C 4.8 km/h
1653 20-05-2014 17:40:00 29.1 C 10.11 g/m*3 29.1 C 6.4 km/h
1654 20-05-2014 17:45:00 28.8 C 10.23 g/m*3 28.8 C 9.7 km/h
1655 20-05-2014 17:50:00 29 C 10.34 g/m*3 29 C 4.8 km/h
1656 20-05-2014 17:55:00 28.9 C 10.28 g/m*3 28.9 C 9.7 km/h
1657 20-05-2014 18:00:00 28.7 C 10.74 g/m*3 28.7 C 4.8 km/h
1658 20-05-2014 18:05:00 28.1 C 10.66 g/m*3 28.1 C 6.4 km/h
1659 20-05-2014 18:10:00 27.7 C 10.97 g/m*3 27.7 C 1.6 km/h
1660 20-05-2014 18:15:00 27.5 C 12.17 g/m*3 27.5 C 3.2 km/h
1661 20-05-2014 18:20:00 27.3 C 10.99 g/m*3 27.3 C 3.2 km/h
1662 20-05-2014 18:25:00 27.5 C 10.32 g/m*3 27.5 C 3.2 km/h
1663 20-05-2014 18:30:00 27.6 C 10.64 g/m*3 27.6 C 3.2 km/h
1664 20-05-2014 18:35:00 27.3 C 11.77 g/m*3 27.3 C 4.8 km/h
1665 20-05-2014 18:40:00 26.8 C 11.96 g/m*3 26.8 C 1.6 km/h
1666 20-05-2014 18:45:00 26.2 C 12.56 g/m*3 26.2 C 1.6 km/h
1667 20-05-2014 18:50:00 25.7 C 12.69 g/m*3 25.7 C 1.6 km/h
1668 20-05-2014 18:55:00 25.2 C 12.57 g/m*3 25.2 C 1.6 km/h
1669 20-05-2014 19:00:00 24.7 C 12.9 g/m*3 24.7 C 0 km/h
1670 20-05-2014 19:05:00 24.2 C 12.54 g/m*3 24.2 C 0 km/h
1671 20-05-2014 19:10:00 23.7 C 12.83 g/m*3 23.7 C 1.6 km/h
1672 20-05-2014 19:15:00 23.3 C 12.55 g/m*3 23.3 C 0 km/h
1673 20-05-2014 19:20:00 23.1 C 12.61 g/m*3 23.1 C 0 km/h
1674 20-05-2014 19:25:00 23.1 C 12.61 g/m*3 23.1 C 0 km/h
1675 20-05-2014 19:30:00 23.1 C 12.61 g/m*3 23.1 C 0 km/h
Sensor: Nr:Datum:Temp:Abs-Feuchte:Windchill:Wind:
Aussen-T/F 1676 20-05-2014 19:35:00 22.9 C 12.47 g/m*3 22.9 C 1.6 km/h
1677 20-05-2014 19:40:00 22.8 C 12.4 g/m*3 22.8 C 0 km/h
1678 20-05-2014 19:45:00 22.6 C 12.25 g/m*3 22.6 C 0 km/h
1679 20-05-2014 19:50:00 22.4 C 12.11 g/m*3 22.4 C 0 km/h
1680 20-05-2014 19:55:00 22.3 C 11.85 g/m*3 22.3 C 1.6 km/h
1681 20-05-2014 20:00:00 22 C 11.84 g/m*3 22 C 1.6 km/h
1682 20-05-2014 20:05:00 21.7 C 11.64 g/m*3 21.7 C 1.6 km/h
1683 20-05-2014 20:10:00 21.3 C 11.56 g/m*3 21.3 C 1.6 km/h
1684 20-05-2014 20:15:00 20.9 C 11.47 g/m*3 20.9 C 1.6 km/h
1685 20-05-2014 20:20:00 20.7 C 11.16 g/m*3 20.7 C 1.6 km/h
1686 20-05-2014 20:25:00 20.4 C 10.97 g/m*3 20.4 C 1.6 km/h
1687 20-05-2014 20:30:00 20.3 C 10.73 g/m*3 20.3 C 1.6 km/h
1688 20-05-2014 20:35:00 20.2 C 10.84 g/m*3 20.2 C 1.6 km/h
1689 20-05-2014 20:40:00 20.1 C 10.95 g/m*3 20.1 C 1.6 km/h
1690 20-05-2014 20:45:00 19.9 C 10.65 g/m*3 19.9 C 1.6 km/h
1691 20-05-2014 20:50:00 19.8 C 10.93 g/m*3 19.8 C 1.6 km/h
1692 20-05-2014 20:55:00 19.6 C 10.8 g/m*3 19.6 C 1.6 km/h
1693 20-05-2014 21:00:00 19.5 C 10.74 g/m*3 19.5 C 1.6 km/h
1694 20-05-2014 21:05:00 19.4 C 10.68 g/m*3 19.4 C 1.6 km/h
1695 20-05-2014 21:10:00 19.3 C 10.78 g/m*3 19.3 C 1.6 km/h
1696 20-05-2014 21:15:00 19.3 C 10.78 g/m*3 19.3 C 1.6 km/h
1697 20-05-2014 21:20:00 19.2 C 10.72 g/m*3 19.2 C 1.6 km/h
1698 20-05-2014 21:25:00 19.1 C 10.66 g/m*3 19.1 C 1.6 km/h
1699 20-05-2014 21:30:00 18.9 C 10.53 g/m*3 18.9 C 1.6 km/h
1700 20-05-2014 21:35:00 18.9 C 10.69 g/m*3 18.9 C 0 km/h
Sensor: Nr:Datum:Temp:Abs-Feuchte:Windchill:Wind:
Aussen-T/F 1701 20-05-2014 21:40:00 18.8 C 10.63 g/m*3 18.8 C 1.6 km/h
1702 20-05-2014 21:45:00 18.7 C 10.73 g/m*3 18.7 C 1.6 km/h
1703 20-05-2014 21:50:00 18.7 C 10.57 g/m*3 18.7 C 1.6 km/h
1704 20-05-2014 21:55:00 18.6 C 10.66 g/m*3 18.6 C 1.6 km/h
1705 20-05-2014 22:00:00 18.5 C 10.6 g/m*3 18.5 C 1.6 km/h
1706 20-05-2014 22:05:00 18.4 C 10.54 g/m*3 18.4 C 1.6 km/h
1707 20-05-2014 22:10:00 18.4 C 10.7 g/m*3 18.4 C 1.6 km/h
1708 20-05-2014 22:15:00 18.4 C 10.54 g/m*3 18.4 C 1.6 km/h
1709 20-05-2014 22:20:00 18.4 C 10.54 g/m*3 18.4 C 1.6 km/h
1710 20-05-2014 22:25:00 18.4 C 10.54 g/m*3 18.4 C 1.6 km/h
1711 20-05-2014 22:30:00 18.4 C 10.54 g/m*3 18.4 C 1.6 km/h
1712 20-05-2014 22:35:00 18.4 C 10.54 g/m*3 18.4 C 1.6 km/h
1713 20-05-2014 22:40:00 18.4 C 10.7 g/m*3 18.4 C 1.6 km/h
1714 20-05-2014 22:45:00 18.3 C 10.48 g/m*3 18.3 C 1.6 km/h
1715 20-05-2014 22:50:00 18.3 C 10.48 g/m*3 18.3 C 1.6 km/h
1716 20-05-2014 22:55:00 18.2 C 10.57 g/m*3 18.2 C 3.2 km/h
1717 20-05-2014 23:00:00 18.2 C 10.57 g/m*3 18.2 C 3.2 km/h
1718 20-05-2014 23:05:00 18.3 C 10.63 g/m*3 18.3 C 1.6 km/h
1719 20-05-2014 23:10:00 18.3 C 10.63 g/m*3 18.3 C 1.6 km/h
1720 20-05-2014 23:15:00 18.3 C 10.63 g/m*3 18.3 C 1.6 km/h
1721 20-05-2014 23:20:00 18.2 C 10.57 g/m*3 18.2 C 1.6 km/h
1722 20-05-2014 23:25:00 18.2 C 10.57 g/m*3 18.2 C 1.6 km/h
1723 20-05-2014 23:30:00 18.2 C 10.72 g/m*3 18.2 C 1.6 km/h
1724 20-05-2014 23:35:00 18.1 C 10.51 g/m*3 18.1 C 1.6 km/h
1725 20-05-2014 23:40:00 18 C 10.6 g/m*3 18 C 0 km/h
Sensor: Nr:Datum:Temp:Abs-Feuchte:Windchill:Wind:
Aussen-T/F 1726 20-05-2014 23:45:00 17.9 C 10.69 g/m*3 17.9 C 0 km/h
1727 20-05-2014 23:50:00 17.8 C 10.78 g/m*3 17.8 C 0 km/h
1728 20-05-2014 23:55:00 17.6 C 10.65 g/m*3 17.6 C 0 km/h
1729 21-05-2014 00:00:00 17.4 C 10.67 g/m*3 17.4 C 0 km/h
1730 21-05-2014 00:05:00 17.2 C 10.54 g/m*3 17.2 C 0 km/h
1731 21-05-2014 00:10:00 16.9 C 10.36 g/m*3 16.9 C 0 km/h
1732 21-05-2014 00:15:00 16.9 C 10.64 g/m*3 16.9 C 0 km/h
1733 21-05-2014 00:20:00 16.8 C 10.58 g/m*3 16.8 C 1.6 km/h
1734 21-05-2014 00:25:00 16.9 C 10.5 g/m*3 16.9 C 1.6 km/h
1735 21-05-2014 00:30:00 17.1 C 10.48 g/m*3 17.1 C 0 km/h
1736 21-05-2014 00:35:00 17.3 C 10.46 g/m*3 17.3 C 1.6 km/h
1737 21-05-2014 00:40:00 17.4 C 10.52 g/m*3 17.4 C 0 km/h
1738 21-05-2014 00:45:00 17.7 C 10.56 g/m*3 17.7 C 1.6 km/h
1739 21-05-2014 00:50:00 17.8 C 10.62 g/m*3 17.8 C 0 km/h
1740 21-05-2014 00:55:00 17.7 C 10.71 g/m*3 17.7 C 3.2 km/h
1741 21-05-2014 01:00:00 17.5 C 10.73 g/m*3 17.5 C 3.2 km/h
1742 21-05-2014 01:05:00 17.4 C 10.82 g/m*3 17.4 C 1.6 km/h
1743 21-05-2014 01:10:00 17.3 C 10.75 g/m*3 17.3 C 0 km/h
1744 21-05-2014 01:15:00 17.3 C 10.75 g/m*3 17.3 C 0 km/h
1745 21-05-2014 01:20:00 17.2 C 10.69 g/m*3 17.2 C 0 km/h
1746 21-05-2014 01:25:00 17.2 C 10.84 g/m*3 17.2 C 0 km/h
1747 21-05-2014 01:30:00 17.1 C 10.77 g/m*3 17.1 C 0 km/h
1748 21-05-2014 01:35:00 16.9 C 10.64 g/m*3 16.9 C 0 km/h
1749 21-05-2014 01:40:00 16.6 C 10.74 g/m*3 16.6 C 0 km/h
1750 21-05-2014 01:45:00 16.3 C 10.68 g/m*3 16.3 C 0 km/h
Sensor: Nr:Datum:Temp:Abs-Feuchte:Windchill:Wind:
Aussen-T/F 1751 21-05-2014 01:50:00 16.1 C 10.55 g/m*3 16.1 C 0 km/h
1752 21-05-2014 01:55:00 15.9 C 10.56 g/m*3 15.9 C 0 km/h
1753 21-05-2014 02:00:00 15.8 C 10.5 g/m*3 15.8 C 0 km/h
1754 21-05-2014 02:05:00 15.8 C 10.5 g/m*3 15.8 C 0 km/h
1755 21-05-2014 02:10:00 15.6 C 10.37 g/m*3 15.6 C 0 km/h
1756 21-05-2014 02:15:00 15.5 C 10.44 g/m*3 15.5 C 0 km/h
1757 21-05-2014 02:20:00 15.4 C 10.51 g/m*3 15.4 C 0 km/h
1758 21-05-2014 02:25:00 15.3 C 10.45 g/m*3 15.3 C 0 km/h
1759 21-05-2014 02:30:00 15.2 C 10.51 g/m*3 15.2 C 0 km/h
1760 21-05-2014 02:35:00 15.3 C 10.58 g/m*3 15.3 C 0 km/h
1761 21-05-2014 02:40:00 15.2 C 10.51 g/m*3 15.2 C 0 km/h
1762 21-05-2014 02:45:00 15.2 C 10.51 g/m*3 15.2 C 0 km/h
1763 21-05-2014 02:50:00 15.1 C 10.58 g/m*3 15.1 C 0 km/h
1764 21-05-2014 02:55:00 15.1 C 10.58 g/m*3 15.1 C 0 km/h
1765 21-05-2014 03:00:00 15.1 C 10.58 g/m*3 15.1 C 0 km/h
1766 21-05-2014 03:05:00 15.1 C 10.58 g/m*3 15.1 C 0 km/h
1767 21-05-2014 03:10:00 14.9 C 10.58 g/m*3 14.9 C 0 km/h
1768 21-05-2014 03:15:00 14.9 C 10.58 g/m*3 14.9 C 0 km/h
1769 21-05-2014 03:20:00 14.8 C 10.64 g/m*3 14.8 C 0 km/h
1770 21-05-2014 03:25:00 14.7 C 10.58 g/m*3 14.7 C 0 km/h
1771 21-05-2014 03:30:00 14.7 C 10.7 g/m*3 14.7 C 0 km/h
1772 21-05-2014 03:35:00 14.7 C 10.7 g/m*3 14.7 C 0 km/h
1773 21-05-2014 03:40:00 14.7 C 10.7 g/m*3 14.7 C 0 km/h
1774 21-05-2014 03:45:00 14.6 C 10.76 g/m*3 14.6 C 0 km/h
1775 21-05-2014 03:50:00 14.6 C 10.76 g/m*3 14.6 C 0 km/h
Sensor: Nr:Datum:Temp:Abs-Feuchte:Windchill:Wind:
Aussen-T/F 1776 21-05-2014 03:55:00 14.5 C 10.7 g/m*3 14.5 C 0 km/h
1777 21-05-2014 04:00:00 14.4 C 10.51 g/m*3 14.4 C 0 km/h
1778 21-05-2014 04:05:00 14.3 C 10.44 g/m*3 14.3 C 0 km/h
1779 21-05-2014 04:10:00 14.2 C 10.5 g/m*3 14.2 C 0 km/h
1780 21-05-2014 04:15:00 14.1 C 10.56 g/m*3 14.1 C 0 km/h
1781 21-05-2014 04:20:00 14.1 C 10.56 g/m*3 14.1 C 0 km/h
1782 21-05-2014 04:25:00 13.9 C 10.55 g/m*3 13.9 C 0 km/h
1783 21-05-2014 04:30:00 13.9 C 10.55 g/m*3 13.9 C 0 km/h
1784 21-05-2014 04:35:00 13.9 C 10.55 g/m*3 13.9 C 0 km/h
1785 21-05-2014 04:40:00 13.9 C 10.55 g/m*3 13.9 C 0 km/h
1786 21-05-2014 04:45:00 13.8 C 10.48 g/m*3 13.8 C 0 km/h
1787 21-05-2014 04:50:00 13.8 C 10.37 g/m*3 13.8 C 0 km/h
1788 21-05-2014 04:55:00 13.7 C 10.3 g/m*3 13.7 C 0 km/h
1789 21-05-2014 05:00:00 13.7 C 10.3 g/m*3 13.7 C 0 km/h
1790 21-05-2014 05:05:00 13.7 C 10.3 g/m*3 13.7 C 0 km/h
1791 21-05-2014 05:10:00 13.7 C 10.42 g/m*3 13.7 C 0 km/h
1792 21-05-2014 05:15:00 13.6 C 10.36 g/m*3 13.6 C 0 km/h
1793 21-05-2014 05:20:00 13.6 C 10.36 g/m*3 13.6 C 0 km/h
1794 21-05-2014 05:25:00 13.7 C 10.42 g/m*3 13.7 C 0 km/h
1795 21-05-2014 05:30:00 13.7 C 10.42 g/m*3 13.7 C 0 km/h
1796 21-05-2014 05:35:00 13.7 C 10.42 g/m*3 13.7 C 0 km/h
1797 21-05-2014 05:40:00 13.8 C 10.48 g/m*3 13.8 C 0 km/h
1798 21-05-2014 05:45:00 13.8 C 10.48 g/m*3 13.8 C 0 km/h
1799 21-05-2014 05:50:00 13.8 C 10.48 g/m*3 13.8 C 0 km/h
1800 21-05-2014 05:55:00 13.8 C 10.48 g/m*3 13.8 C 0 km/h
Sensor: Nr:Datum:Temp:Abs-Feuchte:Windchill:Wind:
Aussen-T/F 1801 21-05-2014 06:00:00 13.9 C 10.55 g/m*3 13.9 C 0 km/h
1802 21-05-2014 06:05:00 14 C 10.61 g/m*3 14 C 0 km/h
1803 21-05-2014 06:10:00 14.1 C 10.68 g/m*3 14.1 C 0 km/h
1804 21-05-2014 06:15:00 14.2 C 10.75 g/m*3 14.2 C 0 km/h
1805 21-05-2014 06:20:00 14.2 C 10.75 g/m*3 14.2 C 0 km/h
1806 21-05-2014 06:25:00 14.3 C 10.81 g/m*3 14.3 C 3.2 km/h
1807 21-05-2014 06:30:00 14.3 C 10.81 g/m*3 14.3 C 1.6 km/h
1808 21-05-2014 06:35:00 14.4 C 10.75 g/m*3 14.4 C 0 km/h
1809 21-05-2014 06:40:00 14.5 C 10.82 g/m*3 14.5 C 0 km/h
1810 21-05-2014 06:45:00 14.6 C 10.89 g/m*3 14.6 C 0 km/h
1811 21-05-2014 06:50:00 14.6 C 10.89 g/m*3 14.6 C 0 km/h
1812 21-05-2014 06:55:00 14.7 C 10.95 g/m*3 14.7 C 0 km/h
1813 21-05-2014 07:00:00 14.7 C 11.08 g/m*3 14.7 C 0 km/h
1814 21-05-2014 07:05:00 14.7 C 11.08 g/m*3 14.7 C 0 km/h
1815 21-05-2014 07:10:00 14.8 C 11.02 g/m*3 14.8 C 1.6 km/h
1816 21-05-2014 07:15:00 14.9 C 11.22 g/m*3 14.9 C 1.6 km/h
1817 21-05-2014 07:20:00 15.1 C 11.22 g/m*3 15.1 C 3.2 km/h
1818 21-05-2014 07:25:00 15.2 C 11.29 g/m*3 15.2 C 1.6 km/h
1819 21-05-2014 07:30:00 15.3 C 11.23 g/m*3 15.3 C 0 km/h
1820 21-05-2014 07:35:00 15.4 C 11.3 g/m*3 15.4 C 0 km/h
1821 21-05-2014 07:40:00 15.6 C 11.44 g/m*3 15.6 C 0 km/h
1822 21-05-2014 07:45:00 15.7 C 11.51 g/m*3 15.7 C 0 km/h
1823 21-05-2014 07:50:00 15.8 C 11.31 g/m*3 15.8 C 0 km/h
1824 21-05-2014 07:55:00 15.9 C 11.24 g/m*3 15.9 C 1.6 km/h
1825 21-05-2014 08:00:00 16.1 C 11.38 g/m*3 16.1 C 1.6 km/h
Sensor: Nr:Datum:Temp:Abs-Feuchte:Windchill:Wind:
Aussen-T/F 1826 21-05-2014 08:05:00 16.2 C 11.45 g/m*3 16.2 C 1.6 km/h
1827 21-05-2014 08:10:00 16.3 C 11.38 g/m*3 16.3 C 0 km/h
1828 21-05-2014 08:15:00 16.4 C 11.45 g/m*3 16.4 C 0 km/h
1829 21-05-2014 08:20:00 16.6 C 11.58 g/m*3 16.6 C 0 km/h
1830 21-05-2014 08:25:00 16.7 C 11.51 g/m*3 16.7 C 0 km/h
1831 21-05-2014 08:30:00 16.9 C 11.65 g/m*3 16.9 C 3.2 km/h
1832 21-05-2014 08:35:00 17 C 11.72 g/m*3 17 C 0 km/h
1833 21-05-2014 08:40:00 17.1 C 11.65 g/m*3 17.1 C 0 km/h
1834 21-05-2014 08:45:00 17.3 C 11.93 g/m*3 17.3 C 0 km/h
1835 21-05-2014 08:50:00 17.4 C 11.86 g/m*3 17.4 C 0 km/h
1836 21-05-2014 08:55:00 17.6 C 12 g/m*3 17.6 C 0 km/h
1837 21-05-2014 09:00:00 17.7 C 11.62 g/m*3 17.7 C 0 km/h
1838 21-05-2014 09:05:00 17.8 C 11.84 g/m*3 17.8 C 0 km/h
1839 21-05-2014 09:10:00 17.9 C 12.06 g/m*3 17.9 C 0 km/h
1840 21-05-2014 09:15:00 18.1 C 12.21 g/m*3 18.1 C 0 km/h
1841 21-05-2014 09:20:00 18 C 12.29 g/m*3 18 C 0 km/h
1842 21-05-2014 09:25:00 18 C 12.29 g/m*3 18 C 0 km/h
1843 21-05-2014 09:30:00 18.1 C 12.36 g/m*3 18.1 C 0 km/h
1844 21-05-2014 09:35:00 18.2 C 12.59 g/m*3 18.2 C 0 km/h
1845 21-05-2014 09:40:00 18.2 C 12.43 g/m*3 18.2 C 0 km/h
1846 21-05-2014 09:45:00 18.3 C 12.51 g/m*3 18.3 C 0 km/h
1847 21-05-2014 09:50:00 18.4 C 12.58 g/m*3 18.4 C 0 km/h
1848 21-05-2014 09:55:00 18.6 C 13.05 g/m*3 18.6 C 0 km/h
1849 21-05-2014 10:00:00 18.8 C 12.88 g/m*3 18.8 C 0 km/h
1850 21-05-2014 10:05:00 19.3 C 13.27 g/m*3 19.3 C 0 km/h
Sensor: Nr:Datum:Temp:Abs-Feuchte:Windchill:Wind:
Aussen-T/F 1851 21-05-2014 10:10:00 19.7 C 13.25 g/m*3 19.7 C 0 km/h
1852 21-05-2014 10:15:00 20.1 C 13.39 g/m*3 20.1 C 1.6 km/h
1853 21-05-2014 10:20:00 20.4 C 13.44 g/m*3 20.4 C 3.2 km/h
1854 21-05-2014 10:25:00 20.7 C 13.5 g/m*3 20.7 C 1.6 km/h
1855 21-05-2014 10:30:00 21.3 C 11.56 g/m*3 21.3 C 6.4 km/h
1856 21-05-2014 10:35:00 22 C 11.45 g/m*3 22 C 6.4 km/h
1857 21-05-2014 10:40:00 21.9 C 13.31 g/m*3 21.9 C 0 km/h
1858 21-05-2014 10:45:00 21.7 C 13.54 g/m*3 21.7 C 1.6 km/h
1859 21-05-2014 10:50:00 21.6 C 12.9 g/m*3 21.6 C 1.6 km/h
1860 21-05-2014 10:55:00 21.4 C 13.31 g/m*3 21.4 C 0 km/h
1861 21-05-2014 11:00:00 21.2 C 13.16 g/m*3 21.2 C 1.6 km/h
1862 21-05-2014 11:05:00 21.3 C 13.05 g/m*3 21.3 C 1.6 km/h
1863 21-05-2014 11:10:00 21.4 C 12.19 g/m*3 21.4 C 4.8 km/h
1864 21-05-2014 11:15:00 21.8 C 12.09 g/m*3 21.8 C 1.6 km/h
1865 21-05-2014 11:20:00 21.7 C 12.97 g/m*3 21.7 C 0 km/h
1866 21-05-2014 11:25:00 21.4 C 13.12 g/m*3 21.4 C 0 km/h
1867 21-05-2014 11:30:00 21.3 C 13.05 g/m*3 21.3 C 0 km/h
1868 21-05-2014 11:35:00 21.7 C 13.16 g/m*3 21.7 C 0 km/h
1869 21-05-2014 11:40:00 22 C 11.65 g/m*3 22 C 4.8 km/h
1870 21-05-2014 11:45:00 22.6 C 11.05 g/m*3 22.6 C 4.8 km/h
1871 21-05-2014 11:50:00 23.3 C 11.29 g/m*3 23.3 C 6.4 km/h
1872 21-05-2014 11:55:00 23.7 C 10.69 g/m*3 23.7 C 4.8 km/h
1873 21-05-2014 12:00:00 23.9 C 11.03 g/m*3 23.9 C 3.2 km/h
1874 21-05-2014 12:05:00 24.1 C 11.6 g/m*3 24.1 C 11.3 km/h
1875 21-05-2014 12:10:00 24.2 C 10.78 g/m*3 24.2 C 6.4 km/h
Sensor: Nr:Datum:Temp:Abs-Feuchte:Windchill:Wind:
Aussen-T/F 1876 21-05-2014 12:15:00 24.3 C 12.61 g/m*3 24.3 C 4.8 km/h
1877 21-05-2014 12:20:00 24.2 C 12.1 g/m*3 24.2 C 3.2 km/h
1878 21-05-2014 12:25:00 24 C 12.4 g/m*3 24 C 3.2 km/h
1879 21-05-2014 12:30:00 24.1 C 11.6 g/m*3 24.1 C 4.8 km/h
1880 21-05-2014 12:35:00 24.2 C 11.44 g/m*3 24.2 C 4.8 km/h
1881 21-05-2014 12:40:00 24.4 C 10.9 g/m*3 24.4 C 3.2 km/h
1882 21-05-2014 12:45:00 24.4 C 10.9 g/m*3 24.4 C 4.8 km/h
1883 21-05-2014 12:50:00 24.6 C 11.93 g/m*3 24.6 C 3.2 km/h
1884 21-05-2014 12:55:00 24.4 C 11.35 g/m*3 24.4 C 8.1 km/h
1885 21-05-2014 13:00:00 24.6 C 11.03 g/m*3 24.6 C 4.8 km/h
1886 21-05-2014 13:05:00 24.8 C 11.38 g/m*3 24.8 C 8.1 km/h
1887 21-05-2014 13:10:00 25.1 C 11.11 g/m*3 25.1 C 11.3 km/h
1888 21-05-2014 13:15:00 25.2 C 10.94 g/m*3 25.2 C 8.1 km/h
1889 21-05-2014 13:20:00 25.4 C 10.83 g/m*3 25.4 C 8.1 km/h
1890 21-05-2014 13:25:00 25.4 C 11.06 g/m*3 25.4 C 6.4 km/h
1891 21-05-2014 13:30:00 25.5 C 11.36 g/m*3 25.5 C 8.1 km/h
1892 21-05-2014 13:35:00 25.6 C 11.43 g/m*3 25.6 C 4.8 km/h
1893 21-05-2014 13:40:00 25.7 C 11.49 g/m*3 25.7 C 8.1 km/h
1894 21-05-2014 13:45:00 25.8 C 10.83 g/m*3 25.8 C 11.3 km/h
1895 21-05-2014 13:50:00 26.2 C 11.08 g/m*3 26.2 C 8.1 km/h
1896 21-05-2014 13:55:00 26.3 C 11.14 g/m*3 26.3 C 9.7 km/h
1897 21-05-2014 14:00:00 26.3 C 10.89 g/m*3 26.3 C 6.4 km/h
1898 21-05-2014 14:05:00 26.4 C 10.21 g/m*3 26.4 C 6.4 km/h
1899 21-05-2014 14:10:00 26.3 C 10.64 g/m*3 26.3 C 11.3 km/h
1900 21-05-2014 14:15:00 26.1 C 10.28 g/m*3 26.1 C 4.8 km/h
Sensor: Nr:Datum:Temp:Abs-Feuchte:Windchill:Wind:
Aussen-T/F 1901 21-05-2014 14:20:00 26 C 11.2 g/m*3 26 C 4.8 km/h
1902 21-05-2014 14:25:00 26.1 C 11.02 g/m*3 26.1 C 8.1 km/h
1903 21-05-2014 14:30:00 26.4 C 11.2 g/m*3 26.4 C 9.7 km/h
1904 21-05-2014 14:35:00 26.8 C 11.96 g/m*3 26.8 C 8.1 km/h
1905 21-05-2014 14:40:00 26.8 C 11.45 g/m*3 26.8 C 9.7 km/h
1906 21-05-2014 14:45:00 26.9 C 11.26 g/m*3 26.9 C 9.7 km/h
1907 21-05-2014 14:50:00 27.1 C 11.65 g/m*3 27.1 C 6.4 km/h
1908 21-05-2014 14:55:00 27.2 C 11.97 g/m*3 27.2 C 9.7 km/h
1909 21-05-2014 15:00:00 27 C 11.84 g/m*3 27 C 8.1 km/h
1910 21-05-2014 15:05:00 27 C 11.58 g/m*3 27 C 9.7 km/h
1911 21-05-2014 15:10:00 27.3 C 12.04 g/m*3 27.3 C 11.3 km/h
1912 21-05-2014 15:15:00 27.6 C 11.44 g/m*3 27.6 C 9.7 km/h
1913 21-05-2014 15:20:00 27.6 C 11.17 g/m*3 27.6 C 9.7 km/h
1914 21-05-2014 15:25:00 27.7 C 12.57 g/m*3 27.7 C 6.4 km/h
1915 21-05-2014 15:30:00 28 C 11.69 g/m*3 28 C 6.4 km/h
1916 21-05-2014 15:35:00 28.2 C 11.55 g/m*3 28.2 C 9.7 km/h
1917 21-05-2014 15:40:00 28.2 C 11.82 g/m*3 28.2 C 9.7 km/h
1918 21-05-2014 15:45:00 28.3 C 11.89 g/m*3 28.3 C 9.7 km/h
1919 21-05-2014 15:50:00 28 C 12.24 g/m*3 28 C 6.4 km/h
1920 21-05-2014 15:55:00 28 C 12.78 g/m*3 28 C 3.2 km/h
1921 21-05-2014 16:00:00 28 C 10.61 g/m*3 28 C 6.4 km/h
1922 21-05-2014 16:05:00 28.2 C 10.45 g/m*3 28.2 C 6.4 km/h
1923 21-05-2014 16:10:00 28.3 C 10.51 g/m*3 28.3 C 6.4 km/h
1924 21-05-2014 16:15:00 28.4 C 11.12 g/m*3 28.4 C 6.4 km/h
1925 21-05-2014 16:20:00 28.3 C 12.16 g/m*3 28.3 C 6.4 km/h
Sensor: Nr:Datum:Temp:Abs-Feuchte:Windchill:Wind:
Aussen-T/F 1926 21-05-2014 16:25:00 28.2 C 10.72 g/m*3 28.2 C 1.6 km/h
1927 21-05-2014 16:30:00 27.7 C 11.5 g/m*3 27.7 C 4.8 km/h
1928 21-05-2014 16:35:00 26.9 C 13.31 g/m*3 26.9 C 1.6 km/h
1929 21-05-2014 16:40:00 26.3 C 12.87 g/m*3 26.3 C 1.6 km/h
1930 21-05-2014 16:45:00 26.1 C 13.46 g/m*3 26.1 C 1.6 km/h
1931 21-05-2014 16:50:00 25.7 C 12.93 g/m*3 25.7 C 1.6 km/h
1932 21-05-2014 16:55:00 25.7 C 11.01 g/m*3 25.7 C 3.2 km/h
1933 21-05-2014 17:00:00 25.4 C 13.89 g/m*3 25.4 C 1.6 km/h
1934 21-05-2014 17:05:00 25.1 C 13.66 g/m*3 25.1 C 1.6 km/h
1935 21-05-2014 17:10:00 24.7 C 14.26 g/m*3 24.7 C 0 km/h
1936 21-05-2014 17:15:00 24.4 C 14.24 g/m*3 24.4 C 0 km/h
1937 21-05-2014 17:20:00 24.3 C 14.16 g/m*3 24.3 C 0 km/h
1938 21-05-2014 17:25:00 24.3 C 14.61 g/m*3 24.3 C 0 km/h
1939 21-05-2014 17:30:00 24.2 C 13.64 g/m*3 24.2 C 0 km/h
1940 21-05-2014 17:35:00 24.1 C 14 g/m*3 24.1 C 0 km/h
1941 21-05-2014 17:40:00 23.8 C 13.98 g/m*3 23.8 C 0 km/h
1942 21-05-2014 17:45:00 23.8 C 14.2 g/m*3 23.8 C 0 km/h
1943 21-05-2014 17:50:00 23.7 C 13.9 g/m*3 23.7 C 0 km/h
1944 21-05-2014 17:55:00 23.7 C 13.9 g/m*3 23.7 C 1.6 km/h
1945 21-05-2014 18:00:00 23.6 C 14.25 g/m*3 23.6 C 0 km/h
1946 21-05-2014 18:05:00 23.5 C 13.96 g/m*3 23.5 C 0 km/h
1947 21-05-2014 18:10:00 23.4 C 13.88 g/m*3 23.4 C 0 km/h
1948 21-05-2014 18:15:00 23.4 C 14.09 g/m*3 23.4 C 1.6 km/h
1949 21-05-2014 18:20:00 23.4 C 14.72 g/m*3 23.4 C 1.6 km/h
1950 21-05-2014 18:25:00 23.3 C 14.43 g/m*3 23.3 C 0 km/h
Sensor: Nr:Datum:Temp:Abs-Feuchte:Windchill:Wind:
Aussen-T/F 1951 21-05-2014 18:30:00 23.2 C 14.34 g/m*3 23.2 C 1.6 km/h
1952 21-05-2014 18:35:00 23.1 C 14.47 g/m*3 23.1 C 1.6 km/h
1953 21-05-2014 18:40:00 22.9 C 14.31 g/m*3 22.9 C 0 km/h
1954 21-05-2014 18:45:00 23.1 C 14.26 g/m*3 23.1 C 1.6 km/h
1955 21-05-2014 18:50:00 23.3 C 14.43 g/m*3 23.3 C 1.6 km/h
1956 21-05-2014 18:55:00 23.5 C 14.17 g/m*3 23.5 C 0 km/h
1957 21-05-2014 19:00:00 23.7 C 14.33 g/m*3 23.7 C 0 km/h
1958 21-05-2014 19:05:00 24 C 12.62 g/m*3 24 C 3.2 km/h
1959 21-05-2014 19:10:00 24.6 C 13.73 g/m*3 24.6 C 1.6 km/h
1960 21-05-2014 19:15:00 24.9 C 12.82 g/m*3 24.9 C 3.2 km/h
1961 21-05-2014 19:20:00 25.4 C 12.71 g/m*3 25.4 C 4.8 km/h
1962 21-05-2014 19:25:00 25.6 C 13.33 g/m*3 25.6 C 3.2 km/h
1963 21-05-2014 19:30:00 25.8 C 11.8 g/m*3 25.8 C 8.1 km/h
1964 21-05-2014 19:35:00 26 C 12.42 g/m*3 26 C 6.4 km/h
1965 21-05-2014 19:40:00 26.1 C 12.24 g/m*3 26.1 C 4.8 km/h
1966 21-05-2014 19:45:00 26.3 C 11.14 g/m*3 26.3 C 4.8 km/h
1967 21-05-2014 19:50:00 26.4 C 11.7 g/m*3 26.4 C 3.2 km/h
1968 21-05-2014 19:55:00 26.3 C 11.39 g/m*3 26.3 C 4.8 km/h
1969 21-05-2014 20:00:00 26.1 C 12 g/m*3 26.1 C 3.2 km/h
1970 21-05-2014 20:05:00 25.8 C 13 g/m*3 25.8 C 4.8 km/h
1971 21-05-2014 20:10:00 25.4 C 12.71 g/m*3 25.4 C 0 km/h
1972 21-05-2014 20:15:00 24.9 C 12.82 g/m*3 24.9 C 1.6 km/h
1973 21-05-2014 20:20:00 24.4 C 12.91 g/m*3 24.4 C 0 km/h
1974 21-05-2014 20:25:00 23.9 C 12.98 g/m*3 23.9 C 1.6 km/h
1975 21-05-2014 20:30:00 23.4 C 12.62 g/m*3 23.4 C 1.6 km/h
Sensor: Nr:Datum:Temp:Abs-Feuchte:Windchill:Wind:
Aussen-T/F 1976 21-05-2014 20:35:00 23.1 C 12.61 g/m*3 23.1 C 1.6 km/h
1977 21-05-2014 20:40:00 22.7 C 12.53 g/m*3 22.7 C 0 km/h
1978 21-05-2014 20:45:00 22.3 C 12.44 g/m*3 22.3 C 0 km/h
1979 21-05-2014 20:50:00 21.9 C 12.35 g/m*3 21.9 C 1.6 km/h
1980 21-05-2014 20:55:00 21.6 C 12.14 g/m*3 21.6 C 0 km/h
1981 21-05-2014 21:00:00 21.3 C 11.93 g/m*3 21.3 C 1.6 km/h
1982 21-05-2014 21:05:00 21.2 C 11.86 g/m*3 21.2 C 0 km/h
1983 21-05-2014 21:10:00 21 C 11.91 g/m*3 21 C 1.6 km/h
1984 21-05-2014 21:15:00 20.8 C 11.77 g/m*3 20.8 C 1.6 km/h
1985 21-05-2014 21:20:00 20.6 C 11.63 g/m*3 20.6 C 1.6 km/h
1986 21-05-2014 21:25:00 20.4 C 11.5 g/m*3 20.4 C 1.6 km/h
1987 21-05-2014 21:30:00 20.2 C 11.54 g/m*3 20.2 C 1.6 km/h
1988 21-05-2014 21:35:00 20.1 C 11.65 g/m*3 20.1 C 1.6 km/h
1989 21-05-2014 21:40:00 20 C 11.58 g/m*3 20 C 0 km/h
1990 21-05-2014 21:45:00 19.9 C 11.51 g/m*3 19.9 C 1.6 km/h
1991 21-05-2014 21:50:00 19.9 C 11.68 g/m*3 19.9 C 1.6 km/h
1992 21-05-2014 21:55:00 20 C 11.75 g/m*3 20 C 1.6 km/h
1993 21-05-2014 22:00:00 20 C 11.75 g/m*3 20 C 3.2 km/h
1994 21-05-2014 22:05:00 20.1 C 11.82 g/m*3 20.1 C 1.6 km/h
1995 21-05-2014 22:10:00 20 C 11.92 g/m*3 20 C 1.6 km/h
1996 21-05-2014 22:15:00 19.9 C 11.85 g/m*3 19.9 C 3.2 km/h
1997 21-05-2014 22:20:00 19.8 C 11.79 g/m*3 19.8 C 0 km/h
1998 21-05-2014 22:25:00 19.8 C 11.79 g/m*3 19.8 C 1.6 km/h
1999 21-05-2014 22:30:00 19.8 C 11.79 g/m*3 19.8 C 1.6 km/h
2000 21-05-2014 22:35:00 19.7 C 11.72 g/m*3 19.7 C 1.6 km/h
Sensor: Nr:Datum:Temp:Abs-Feuchte:Windchill:Wind:
Aussen-T/F 2001 21-05-2014 22:40:00 19.7 C 11.72 g/m*3 19.7 C 3.2 km/h
2002 21-05-2014 22:45:00 19.6 C 11.48 g/m*3 19.6 C 1.6 km/h
2003 21-05-2014 22:50:00 19.6 C 11.65 g/m*3 19.6 C 1.6 km/h
2004 21-05-2014 22:55:00 19.6 C 11.31 g/m*3 19.6 C 1.6 km/h
2005 21-05-2014 23:00:00 19.7 C 11.38 g/m*3 19.7 C 1.6 km/h
2006 21-05-2014 23:05:00 19.7 C 11.55 g/m*3 19.7 C 1.6 km/h
2007 21-05-2014 23:10:00 19.7 C 11.38 g/m*3 19.7 C 1.6 km/h
2008 21-05-2014 23:15:00 19.7 C 11.21 g/m*3 19.7 C 3.2 km/h
2009 21-05-2014 23:20:00 19.7 C 11.21 g/m*3 19.7 C 1.6 km/h
2010 21-05-2014 23:25:00 19.7 C 11.21 g/m*3 19.7 C 1.6 km/h
2011 21-05-2014 23:30:00 19.7 C 11.21 g/m*3 19.7 C 1.6 km/h
2012 21-05-2014 23:35:00 19.5 C 11.24 g/m*3 19.5 C 3.2 km/h
2013 21-05-2014 23:40:00 19.4 C 11.01 g/m*3 19.4 C 3.2 km/h
2014 21-05-2014 23:45:00 19.5 C 11.41 g/m*3 19.5 C 3.2 km/h
2015 21-05-2014 23:50:00 19.4 C 11.35 g/m*3 19.4 C 1.6 km/h
2016 21-05-2014 23:55:00 19.4 C 11.18 g/m*3 19.4 C 0 km/h
2017 22-05-2014 00:00:00 19.4 C 11.35 g/m*3 19.4 C 1.6 km/h
2018 22-05-2014 00:05:00 19.4 C 11.35 g/m*3 19.4 C 1.6 km/h
2019 22-05-2014 00:10:00 19.4 C 11.18 g/m*3 19.4 C 1.6 km/h
2020 22-05-2014 00:15:00 19.6 C 11.31 g/m*3 19.6 C 1.6 km/h
2021 22-05-2014 00:20:00 19.5 C 11.24 g/m*3 19.5 C 3.2 km/h
2022 22-05-2014 00:25:00 19.4 C 10.68 g/m*3 19.4 C 1.6 km/h
2023 22-05-2014 00:30:00 19.4 C 11.18 g/m*3 19.4 C 0 km/h
2024 22-05-2014 00:35:00 19.4 C 11.18 g/m*3 19.4 C 1.6 km/h
2025 22-05-2014 00:40:00 19.3 C 10.95 g/m*3 19.3 C 1.6 km/h
Sensor: Nr:Datum:Temp:Abs-Feuchte:Windchill:Wind:
Aussen-T/F 2026 22-05-2014 00:45:00 19.3 C 11.11 g/m*3 19.3 C 1.6 km/h
2027 22-05-2014 00:50:00 19.3 C 10.95 g/m*3 19.3 C 1.6 km/h
2028 22-05-2014 00:55:00 19.3 C 11.11 g/m*3 19.3 C 0 km/h
2029 22-05-2014 01:00:00 19.3 C 10.95 g/m*3 19.3 C 0 km/h
2030 22-05-2014 01:05:00 19.2 C 10.88 g/m*3 19.2 C 0 km/h
2031 22-05-2014 01:10:00 19.1 C 10.82 g/m*3 19.1 C 4.8 km/h
2032 22-05-2014 01:15:00 19.1 C 10.98 g/m*3 19.1 C 4.8 km/h
2033 22-05-2014 01:20:00 19 C 10.92 g/m*3 19 C 1.6 km/h
2034 22-05-2014 01:25:00 19.1 C 11.15 g/m*3 19.1 C 3.2 km/h
2035 22-05-2014 01:30:00 19 C 10.92 g/m*3 19 C 1.6 km/h
2036 22-05-2014 01:35:00 18.8 C 10.79 g/m*3 18.8 C 1.6 km/h
2037 22-05-2014 01:40:00 18.8 C 10.79 g/m*3 18.8 C 0 km/h
2038 22-05-2014 01:45:00 18.8 C 10.79 g/m*3 18.8 C 8.1 km/h
2039 22-05-2014 01:50:00 18.9 C 10.69 g/m*3 18.9 C 4.8 km/h
2040 22-05-2014 01:55:00 19.1 C 10.66 g/m*3 19.1 C 4.8 km/h
2041 22-05-2014 02:00:00 20.3 C 10.55 g/m*3 20.3 C 17.7 km/h
2042 22-05-2014 02:05:00 21.5 C 10.56 g/m*3 21.5 C 8.1 km/h
2043 22-05-2014 02:10:00 21.7 C 10.68 g/m*3 21.7 C 4.8 km/h
2044 22-05-2014 02:15:00 22.1 C 10.74 g/m*3 22.1 C 9.7 km/h
2045 22-05-2014 02:20:00 22.3 C 11.06 g/m*3 22.3 C 1.6 km/h
2046 22-05-2014 02:25:00 22.1 C 11.32 g/m*3 22.1 C 1.6 km/h
2047 22-05-2014 02:30:00 21.5 C 11.31 g/m*3 21.5 C 0 km/h
2048 22-05-2014 02:35:00 20.9 C 11.29 g/m*3 20.9 C 0 km/h
2049 22-05-2014 02:40:00 20.6 C 11.28 g/m*3 20.6 C 1.6 km/h
2050 22-05-2014 02:45:00 20.3 C 11.43 g/m*3 20.3 C 0 km/h
Sensor: Nr:Datum:Temp:Abs-Feuchte:Windchill:Wind:
Aussen-T/F 2051 22-05-2014 02:50:00 20.2 C 11.19 g/m*3 20.2 C 0 km/h
2052 22-05-2014 02:55:00 20.1 C 11.3 g/m*3 20.1 C 1.6 km/h
2053 22-05-2014 03:00:00 20.1 C 11.3 g/m*3 20.1 C 1.6 km/h
2054 22-05-2014 03:05:00 20 C 11.06 g/m*3 20 C 3.2 km/h
2055 22-05-2014 03:10:00 20.2 C 11.54 g/m*3 20.2 C 1.6 km/h
2056 22-05-2014 03:15:00 20.2 C 11.37 g/m*3 20.2 C 3.2 km/h
2057 22-05-2014 03:20:00 20.4 C 11.5 g/m*3 20.4 C 3.2 km/h
2058 22-05-2014 03:25:00 20.4 C 11.5 g/m*3 20.4 C 1.6 km/h
2059 22-05-2014 03:30:00 20.6 C 11.63 g/m*3 20.6 C 4.8 km/h
2060 22-05-2014 03:35:00 20.8 C 11.77 g/m*3 20.8 C 9.7 km/h
2061 22-05-2014 03:40:00 20.8 C 11.77 g/m*3 20.8 C 8.1 km/h
2062 22-05-2014 03:45:00 20.7 C 11.88 g/m*3 20.7 C 12.9 km/h
2063 22-05-2014 03:50:00 20.6 C 11.99 g/m*3 20.6 C 16.1 km/h
2064 22-05-2014 03:55:00 20.4 C 12.03 g/m*3 20.4 C 9.7 km/h
2065 22-05-2014 04:00:00 20.2 C 12.06 g/m*3 20.2 C 4.8 km/h
2066 22-05-2014 04:05:00 20.1 C 12.17 g/m*3 20.1 C 6.4 km/h
2067 22-05-2014 04:10:00 19.9 C 12.03 g/m*3 19.9 C 4.8 km/h
2068 22-05-2014 04:15:00 19.7 C 12.23 g/m*3 19.7 C 0 km/h
2069 22-05-2014 04:20:00 19.5 C 12.08 g/m*3 19.5 C 1.6 km/h
2070 22-05-2014 04:25:00 19.3 C 12.27 g/m*3 19.3 C 1.6 km/h
2071 22-05-2014 04:30:00 19.1 C 12.13 g/m*3 19.1 C 3.2 km/h
2072 22-05-2014 04:35:00 18.9 C 12.15 g/m*3 18.9 C 0 km/h
2073 22-05-2014 04:40:00 18.7 C 12.17 g/m*3 18.7 C 1.6 km/h
2074 22-05-2014 04:45:00 18.6 C 12.26 g/m*3 18.6 C 4.8 km/h
2075 22-05-2014 04:50:00 18.4 C 12.27 g/m*3 18.4 C 1.6 km/h
Sensor: Nr:Datum:Temp:Abs-Feuchte:Windchill:Wind:
Aussen-T/F 2076 22-05-2014 04:55:00 18.2 C 12.12 g/m*3 18.2 C 1.6 km/h
2077 22-05-2014 05:00:00 18.1 C 12.05 g/m*3 18.1 C 1.6 km/h
2078 22-05-2014 05:05:00 18 C 12.13 g/m*3 18 C 1.6 km/h
2079 22-05-2014 05:10:00 17.9 C 12.06 g/m*3 17.9 C 0 km/h
2080 22-05-2014 05:15:00 17.8 C 11.84 g/m*3 17.8 C 0 km/h
2081 22-05-2014 05:20:00 17.7 C 11.77 g/m*3 17.7 C 1.6 km/h
2082 22-05-2014 05:25:00 17.6 C 11.85 g/m*3 17.6 C 0 km/h
2083 22-05-2014 05:30:00 17.4 C 11.86 g/m*3 17.4 C 0 km/h
2084 22-05-2014 05:35:00 17.3 C 11.79 g/m*3 17.3 C 1.6 km/h
2085 22-05-2014 05:40:00 17.1 C 11.79 g/m*3 17.1 C 0 km/h
2086 22-05-2014 05:45:00 16.9 C 11.65 g/m*3 16.9 C 0 km/h
2087 22-05-2014 05:50:00 16.8 C 11.72 g/m*3 16.8 C 0 km/h
2088 22-05-2014 05:55:00 16.6 C 11.72 g/m*3 16.6 C 0 km/h
2089 22-05-2014 06:00:00 16.5 C 11.65 g/m*3 16.5 C 0 km/h
2090 22-05-2014 06:05:00 16.4 C 11.58 g/m*3 16.4 C 0 km/h
2091 22-05-2014 06:10:00 16.4 C 11.58 g/m*3 16.4 C 0 km/h
2092 22-05-2014 06:15:00 16.4 C 11.72 g/m*3 16.4 C 0 km/h
2093 22-05-2014 06:20:00 16.4 C 11.72 g/m*3 16.4 C 0 km/h
2094 22-05-2014 06:25:00 16.5 C 11.8 g/m*3 16.5 C 0 km/h
2095 22-05-2014 06:30:00 16.6 C 11.72 g/m*3 16.6 C 0 km/h
2096 22-05-2014 06:35:00 16.7 C 11.8 g/m*3 16.7 C 1.6 km/h
2097 22-05-2014 06:40:00 16.8 C 11.58 g/m*3 16.8 C 3.2 km/h
2098 22-05-2014 06:45:00 17.1 C 11.65 g/m*3 17.1 C 1.6 km/h
2099 22-05-2014 06:50:00 17.2 C 11.42 g/m*3 17.2 C 1.6 km/h
2100 22-05-2014 06:55:00 17.3 C 11.49 g/m*3 17.3 C 1.6 km/h
Sensor: Nr:Datum:Temp:Abs-Feuchte:Windchill:Wind:
Aussen-T/F 2101 22-05-2014 07:00:00 17.4 C 11.56 g/m*3 17.4 C 1.6 km/h
2102 22-05-2014 07:05:00 17.4 C 11.56 g/m*3 17.4 C 3.2 km/h
2103 22-05-2014 07:10:00 17.4 C 11.71 g/m*3 17.4 C 0 km/h
2104 22-05-2014 07:15:00 17.3 C 11.79 g/m*3 17.3 C 0 km/h
2105 22-05-2014 07:20:00 17.3 C 11.93 g/m*3 17.3 C 0 km/h
2106 22-05-2014 07:25:00 17.2 C 11.72 g/m*3 17.2 C 0 km/h
2107 22-05-2014 07:30:00 17.2 C 11.42 g/m*3 17.2 C 3.2 km/h
2108 22-05-2014 07:35:00 17.3 C 11.93 g/m*3 17.3 C 0 km/h
2109 22-05-2014 07:40:00 17.2 C 12.01 g/m*3 17.2 C 0 km/h
2110 22-05-2014 07:45:00 17.1 C 11.94 g/m*3 17.1 C 0 km/h
2111 22-05-2014 07:50:00 17.1 C 11.5 g/m*3 17.1 C 0 km/h
2112 22-05-2014 07:55:00 17.1 C 11.79 g/m*3 17.1 C 0 km/h
2113 22-05-2014 08:00:00 17 C 11.87 g/m*3 17 C 0 km/h
2114 22-05-2014 08:05:00 16.9 C 11.94 g/m*3 16.9 C 0 km/h
2115 22-05-2014 08:10:00 16.9 C 11.94 g/m*3 16.9 C 0 km/h
2116 22-05-2014 08:15:00 16.9 C 11.94 g/m*3 16.9 C 0 km/h
2117 22-05-2014 08:20:00 17 C 12.01 g/m*3 17 C 0 km/h
2118 22-05-2014 08:25:00 17.1 C 12.08 g/m*3 17.1 C 0 km/h
2119 22-05-2014 08:30:00 17.2 C 12.15 g/m*3 17.2 C 0 km/h
2120 22-05-2014 08:35:00 17.3 C 11.34 g/m*3 17.3 C 4.8 km/h
2121 22-05-2014 08:40:00 17.7 C 11.47 g/m*3 17.7 C 3.2 km/h
2122 22-05-2014 08:45:00 18 C 11.37 g/m*3 18 C 6.4 km/h
2123 22-05-2014 08:50:00 18.2 C 11.04 g/m*3 18.2 C 8.1 km/h
2124 22-05-2014 08:55:00 18.4 C 11.17 g/m*3 18.4 C 0 km/h
2125 22-05-2014 09:00:00 18.6 C 10.82 g/m*3 18.6 C 4.8 km/h
Sensor: Nr:Datum:Temp:Abs-Feuchte:Windchill:Wind:
Aussen-T/F 2126 22-05-2014 09:05:00 18.8 C 10.47 g/m*3 18.8 C 12.9 km/h
2127 22-05-2014 09:10:00 18.8 C 10.15 g/m*3 18.8 C 11.3 km/h
2128 22-05-2014 09:15:00 18.9 C 9.88 g/m*3 18.9 C 9.7 km/h
2129 22-05-2014 09:20:00 19 C 9.94 g/m*3 19 C 11.3 km/h
2130 22-05-2014 09:25:00 19.1 C 10 g/m*3 19.1 C 4.8 km/h
2131 22-05-2014 09:30:00 19.3 C 9.79 g/m*3 19.3 C 9.7 km/h
2132 22-05-2014 09:35:00 19.4 C 9.84 g/m*3 19.4 C 9.7 km/h
2133 22-05-2014 09:40:00 19.7 C 9.85 g/m*3 19.7 C 9.7 km/h
2134 22-05-2014 09:45:00 19.9 C 9.62 g/m*3 19.9 C 11.3 km/h
2135 22-05-2014 09:50:00 20.1 C 9.56 g/m*3 20.1 C 11.3 km/h
2136 22-05-2014 09:55:00 20.2 C 9.44 g/m*3 20.2 C 9.7 km/h
2137 22-05-2014 10:00:00 20.4 C 9.55 g/m*3 20.4 C 6.4 km/h
2138 22-05-2014 10:05:00 20.6 C 9.31 g/m*3 20.6 C 12.9 km/h
2139 22-05-2014 10:10:00 20.8 C 9.23 g/m*3 20.8 C 8.1 km/h
2140 22-05-2014 10:15:00 20.9 C 9.29 g/m*3 20.9 C 9.7 km/h
2141 22-05-2014 10:20:00 21 C 8.98 g/m*3 21 C 9.7 km/h
2142 22-05-2014 10:25:00 21.1 C 9.21 g/m*3 21.1 C 9.7 km/h
2143 22-05-2014 10:30:00 21.3 C 9.69 g/m*3 21.3 C 8.1 km/h
2144 22-05-2014 10:35:00 21.5 C 9.62 g/m*3 21.5 C 9.7 km/h
2145 22-05-2014 10:40:00 21.7 C 9.16 g/m*3 21.7 C 4.8 km/h
2146 22-05-2014 10:45:00 21.8 C 9.21 g/m*3 21.8 C 6.4 km/h
2147 22-05-2014 10:50:00 21.9 C 9.07 g/m*3 21.9 C 6.4 km/h
2148 22-05-2014 10:55:00 22.2 C 10.21 g/m*3 22.2 C 3.2 km/h
2149 22-05-2014 11:00:00 22.4 C 9.73 g/m*3 22.4 C 4.8 km/h
2150 22-05-2014 11:05:00 22.6 C 9.64 g/m*3 22.6 C 6.4 km/h
Sensor: Nr:Datum:Temp:Abs-Feuchte:Windchill:Wind:
Aussen-T/F 2151 22-05-2014 11:10:00 22.9 C 8.99 g/m*3 22.9 C 8.1 km/h
2152 22-05-2014 11:15:00 23.1 C 9.3 g/m*3 23.1 C 9.7 km/h
2153 22-05-2014 11:20:00 23.3 C 9.2 g/m*3 23.3 C 6.4 km/h
2154 22-05-2014 11:25:00 23.5 C 9.31 g/m*3 23.5 C 11.3 km/h
2155 22-05-2014 11:30:00 23.3 C 9.2 g/m*3 23.3 C 8.1 km/h
2156 22-05-2014 11:35:00 23.3 C 8.78 g/m*3 23.3 C 4.8 km/h
2157 22-05-2014 11:40:00 23.2 C 8.94 g/m*3 23.2 C 6.4 km/h
2158 22-05-2014 11:45:00 23.3 C 8.99 g/m*3 23.3 C 8.1 km/h
2159 22-05-2014 11:50:00 23.4 C 9.46 g/m*3 23.4 C 8.1 km/h
2160 22-05-2014 11:55:00 23.7 C 9.2 g/m*3 23.7 C 6.4 km/h
2161 22-05-2014 12:00:00 24.1 C 8.75 g/m*3 24.1 C 6.4 km/h
2162 22-05-2014 12:05:00 24.3 C 8.85 g/m*3 24.3 C 6.4 km/h
2163 22-05-2014 12:10:00 24.3 C 8.85 g/m*3 24.3 C 3.2 km/h
2164 22-05-2014 12:15:00 24.6 C 9 g/m*3 24.6 C 6.4 km/h
2165 22-05-2014 12:20:00 24.8 C 9.33 g/m*3 24.8 C 6.4 km/h
2166 22-05-2014 12:25:00 24.8 C 8.65 g/m*3 24.8 C 3.2 km/h
2167 22-05-2014 12:30:00 24.9 C 9.39 g/m*3 24.9 C 6.4 km/h
2168 22-05-2014 12:35:00 25.2 C 8.85 g/m*3 25.2 C 6.4 km/h
2169 22-05-2014 12:40:00 25.2 C 9.08 g/m*3 25.2 C 8.1 km/h
2170 22-05-2014 12:45:00 25.2 C 9.31 g/m*3 25.2 C 8.1 km/h
2171 22-05-2014 12:50:00 25.2 C 9.54 g/m*3 25.2 C 4.8 km/h
2172 22-05-2014 12:55:00 25.3 C 10.07 g/m*3 25.3 C 6.4 km/h
2173 22-05-2014 13:00:00 25.4 C 10.36 g/m*3 25.4 C 9.7 km/h
2174 22-05-2014 13:05:00 25.6 C 10.48 g/m*3 25.6 C 3.2 km/h
2175 22-05-2014 13:10:00 25.8 C 10.35 g/m*3 25.8 C 4.8 km/h
Sensor: Nr:Datum:Temp:Abs-Feuchte:Windchill:Wind:
Aussen-T/F 2176 22-05-2014 13:15:00 26.1 C 10.28 g/m*3 26.1 C 8.1 km/h
2177 22-05-2014 13:20:00 26 C 10.47 g/m*3 26 C 4.8 km/h
2178 22-05-2014 13:25:00 26.2 C 10.34 g/m*3 26.2 C 4.8 km/h
2179 22-05-2014 13:30:00 26.3 C 11.39 g/m*3 26.3 C 3.2 km/h
2180 22-05-2014 13:35:00 26.2 C 10.09 g/m*3 26.2 C 6.4 km/h
2181 22-05-2014 13:40:00 26.2 C 10.59 g/m*3 26.2 C 1.6 km/h
2182 22-05-2014 13:45:00 26.3 C 10.64 g/m*3 26.3 C 4.8 km/h
2183 22-05-2014 13:50:00 26.4 C 10.46 g/m*3 26.4 C 4.8 km/h
2184 22-05-2014 13:55:00 26.7 C 10.88 g/m*3 26.7 C 6.4 km/h
2185 22-05-2014 14:00:00 26.8 C 10.94 g/m*3 26.8 C 4.8 km/h
2186 22-05-2014 14:05:00 26.7 C 10.12 g/m*3 26.7 C 11.3 km/h
2187 22-05-2014 14:10:00 26.6 C 10.07 g/m*3 26.6 C 6.4 km/h
2188 22-05-2014 14:15:00 26.7 C 10.38 g/m*3 26.7 C 4.8 km/h
2189 22-05-2014 14:20:00 26.7 C 10.12 g/m*3 26.7 C 6.4 km/h
2190 22-05-2014 14:25:00 26.6 C 9.82 g/m*3 26.6 C 17.7 km/h
2191 22-05-2014 14:30:00 26.4 C 10.7 g/m*3 26.4 C 16.1 km/h
2192 22-05-2014 14:35:00 26.5 C 10.01 g/m*3 26.5 C 8.1 km/h
2193 22-05-2014 14:40:00 26.8 C 10.94 g/m*3 26.8 C 11.3 km/h
2194 22-05-2014 14:45:00 27.1 C 10.35 g/m*3 27.1 C 9.7 km/h
2195 22-05-2014 14:50:00 27.1 C 10.35 g/m*3 27.1 C 9.7 km/h
2196 22-05-2014 14:55:00 27.2 C 10.15 g/m*3 27.2 C 4.8 km/h
2197 22-05-2014 15:00:00 27.3 C 9.94 g/m*3 27.3 C 9.7 km/h
2198 22-05-2014 15:05:00 27.2 C 10.93 g/m*3 27.2 C 8.1 km/h
2199 22-05-2014 15:10:00 27.4 C 10 g/m*3 27.4 C 14.5 km/h
2200 22-05-2014 15:15:00 27.4 C 10.52 g/m*3 27.4 C 14.5 km/h
Sensor: Nr:Datum:Temp:Abs-Feuchte:Windchill:Wind:
Aussen-T/F 2201 22-05-2014 15:20:00 27.1 C 9.83 g/m*3 27.1 C 11.3 km/h
2202 22-05-2014 15:25:00 27 C 10.04 g/m*3 27 C 11.3 km/h
2203 22-05-2014 15:30:00 27.3 C 10.2 g/m*3 27.3 C 11.3 km/h
2204 22-05-2014 15:35:00 27.3 C 10.2 g/m*3 27.3 C 9.7 km/h
2205 22-05-2014 15:40:00 27.2 C 10.15 g/m*3 27.2 C 11.3 km/h
2206 22-05-2014 15:45:00 27 C 10.29 g/m*3 27 C 8.1 km/h
2207 22-05-2014 15:50:00 27.2 C 9.89 g/m*3 27.2 C 9.7 km/h
2208 22-05-2014 15:55:00 27.7 C 10.43 g/m*3 27.7 C 8.1 km/h
2209 22-05-2014 16:00:00 27.8 C 10.49 g/m*3 27.8 C 9.7 km/h
2210 22-05-2014 16:05:00 27.8 C 9.95 g/m*3 27.8 C 8.1 km/h
2211 22-05-2014 16:10:00 27.8 C 9.95 g/m*3 27.8 C 8.1 km/h
2212 22-05-2014 16:15:00 28.1 C 10.66 g/m*3 28.1 C 8.1 km/h
2213 22-05-2014 16:20:00 28.4 C 10.56 g/m*3 28.4 C 8.1 km/h
2214 22-05-2014 16:25:00 28.2 C 9.62 g/m*3 28.2 C 12.9 km/h
2215 22-05-2014 16:30:00 27.9 C 10.28 g/m*3 27.9 C 11.3 km/h
2216 22-05-2014 16:35:00 28 C 10.06 g/m*3 28 C 11.3 km/h
2217 22-05-2014 16:40:00 27.8 C 10.22 g/m*3 27.8 C 4.8 km/h
2218 22-05-2014 16:45:00 27.3 C 10.2 g/m*3 27.3 C 4.8 km/h
2219 22-05-2014 16:50:00 27.1 C 10.35 g/m*3 27.1 C 3.2 km/h
2220 22-05-2014 16:55:00 26.7 C 9.87 g/m*3 26.7 C 3.2 km/h
2221 22-05-2014 17:00:00 26.2 C 11.08 g/m*3 26.2 C 0 km/h
2222 22-05-2014 17:05:00 25.7 C 10.53 g/m*3 25.7 C 4.8 km/h
2223 22-05-2014 17:10:00 25.4 C 10.36 g/m*3 25.4 C 6.4 km/h
2224 22-05-2014 17:15:00 25.2 C 10.48 g/m*3 25.2 C 8.1 km/h
2225 22-05-2014 17:20:00 25 C 9.9 g/m*3 25 C 16.1 km/h
Sensor: Nr:Datum:Temp:Abs-Feuchte:Windchill:Wind:
Aussen-T/F 2226 22-05-2014 17:25:00 25.1 C 10.19 g/m*3 25.1 C 9.7 km/h
2227 22-05-2014 17:30:00 25.3 C 10.07 g/m*3 25.3 C 9.7 km/h
2228 22-05-2014 17:35:00 25.4 C 10.36 g/m*3 25.4 C 17.7 km/h
2229 22-05-2014 17:40:00 25.1 C 10.42 g/m*3 25.1 C 9.7 km/h
2230 22-05-2014 17:45:00 24.8 C 10.24 g/m*3 24.8 C 16.1 km/h
2231 22-05-2014 17:50:00 24.5 C 10.74 g/m*3 24.5 C 8.1 km/h
2232 22-05-2014 17:55:00 24.3 C 10.62 g/m*3 24.3 C 4.8 km/h
2233 22-05-2014 18:00:00 24.2 C 10.12 g/m*3 24.2 C 8.1 km/h
2234 22-05-2014 18:05:00 24 C 9.57 g/m*3 24 C 14.5 km/h
2235 22-05-2014 18:10:00 23.8 C 9.46 g/m*3 23.8 C 12.9 km/h
2236 22-05-2014 18:15:00 23.7 C 9.41 g/m*3 23.7 C 16.1 km/h
2237 22-05-2014 18:20:00 23.6 C 9.57 g/m*3 23.6 C 17.7 km/h
2238 22-05-2014 18:25:00 23.3 C 10.04 g/m*3 23.3 C 16.1 km/h
2239 22-05-2014 18:30:00 22.6 C 11.05 g/m*3 22.6 C 16.1 km/h
2240 22-05-2014 18:35:00 21.4 C 11.81 g/m*3 21.4 C 14.5 km/h
2241 22-05-2014 18:40:00 20.4 C 12.56 g/m*3 20.4 C 1.6 km/h
2242 22-05-2014 18:45:00 19.4 C 13.01 g/m*3 19.4 C 0 km/h
2243 22-05-2014 18:50:00 18.8 C 12.88 g/m*3 18.8 C 0 km/h
2244 22-05-2014 18:55:00 18.3 C 12.98 g/m*3 18.3 C 0 km/h
2245 22-05-2014 19:00:00 17.9 C 13.13 g/m*3 17.9 C 1.6 km/h
2246 22-05-2014 19:05:00 17.7 C 12.22 g/m*3 17.7 C 9.7 km/h
2247 22-05-2014 19:10:00 17.6 C 12 g/m*3 17.6 C 11.3 km/h
2248 22-05-2014 19:15:00 17.5 C 12.08 g/m*3 17.5 C 24.1 km/h
2249 22-05-2014 19:20:00 17 C 11.87 g/m*3 17 C 17.7 km/h
2250 22-05-2014 19:25:00 16.4 C 11.72 g/m*3 16.4 C 4.8 km/h
Sensor: Nr:Datum:Temp:Abs-Feuchte:Windchill:Wind:
Aussen-T/F 2251 22-05-2014 19:30:00 16 C 11.72 g/m*3 16 C 3.2 km/h
2252 22-05-2014 19:35:00 15.8 C 11.85 g/m*3 15.8 C 3.2 km/h
2253 22-05-2014 19:40:00 15.6 C 11.84 g/m*3 15.6 C 1.6 km/h
2254 22-05-2014 19:45:00 15.4 C 11.82 g/m*3 15.4 C 0 km/h
2255 22-05-2014 19:50:00 15.4 C 12.09 g/m*3 15.4 C 0 km/h
2256 22-05-2014 19:55:00 15.3 C 11.88 g/m*3 15.3 C 0 km/h
2257 22-05-2014 20:00:00 15.2 C 11.94 g/m*3 15.2 C 0 km/h
2258 22-05-2014 20:05:00 15.1 C 11.87 g/m*3 15.1 C 0 km/h
2259 22-05-2014 20:10:00 15 C 11.93 g/m*3 15 C 0 km/h
2260 22-05-2014 20:15:00 14.9 C 11.85 g/m*3 14.9 C 0 km/h
2261 22-05-2014 20:20:00 14.9 C 11.85 g/m*3 14.9 C 0 km/h
2262 22-05-2014 20:25:00 14.8 C 11.78 g/m*3 14.8 C 0 km/h
2263 22-05-2014 20:30:00 14.8 C 11.91 g/m*3 14.8 C 0 km/h
2264 22-05-2014 20:35:00 14.8 C 11.91 g/m*3 14.8 C 0 km/h
2265 22-05-2014 20:40:00 14.8 C 11.91 g/m*3 14.8 C 0 km/h
2266 22-05-2014 20:45:00 14.7 C 11.83 g/m*3 14.7 C 0 km/h
2267 22-05-2014 20:50:00 14.7 C 11.83 g/m*3 14.7 C 0 km/h
2268 22-05-2014 20:55:00 14.7 C 11.83 g/m*3 14.7 C 0 km/h
2269 22-05-2014 21:00:00 14.7 C 11.83 g/m*3 14.7 C 0 km/h
2270 22-05-2014 21:05:00 14.6 C 11.89 g/m*3 14.6 C 0 km/h
2271 22-05-2014 21:10:00 14.6 C 11.89 g/m*3 14.6 C 0 km/h
2272 22-05-2014 21:15:00 14.7 C 11.96 g/m*3 14.7 C 3.2 km/h
2273 22-05-2014 21:20:00 14.7 C 11.96 g/m*3 14.7 C 1.6 km/h
2274 22-05-2014 21:25:00 14.6 C 11.89 g/m*3 14.6 C 1.6 km/h
2275 22-05-2014 21:30:00 14.6 C 11.89 g/m*3 14.6 C 1.6 km/h
Sensor: Nr:Datum:Temp:Abs-Feuchte:Windchill:Wind:
Aussen-T/F 2276 22-05-2014 21:35:00 14.6 C 11.89 g/m*3 14.6 C 1.6 km/h
2277 22-05-2014 21:40:00 14.4 C 11.74 g/m*3 14.4 C 1.6 km/h
2278 22-05-2014 21:45:00 14.4 C 11.74 g/m*3 14.4 C 0 km/h
2279 22-05-2014 21:50:00 14.4 C 11.74 g/m*3 14.4 C 1.6 km/h
2280 22-05-2014 21:55:00 14.4 C 11.74 g/m*3 14.4 C 0 km/h
2281 22-05-2014 22:00:00 14.3 C 11.67 g/m*3 14.3 C 0 km/h
2282 22-05-2014 22:05:00 14.3 C 11.67 g/m*3 14.3 C 0 km/h
2283 22-05-2014 22:10:00 14.2 C 11.6 g/m*3 14.2 C 0 km/h
2284 22-05-2014 22:15:00 14.2 C 11.6 g/m*3 14.2 C 0 km/h
2285 22-05-2014 22:20:00 14.2 C 11.6 g/m*3 14.2 C 1.6 km/h
2286 22-05-2014 22:25:00 14.1 C 11.53 g/m*3 14.1 C 1.6 km/h
2287 22-05-2014 22:30:00 14 C 11.46 g/m*3 14 C 1.6 km/h
2288 22-05-2014 22:35:00 14 C 11.58 g/m*3 14 C 1.6 km/h
2289 22-05-2014 22:40:00 13.9 C 11.51 g/m*3 13.9 C 0 km/h
2290 22-05-2014 22:45:00 13.9 C 11.51 g/m*3 13.9 C 0 km/h
2291 22-05-2014 22:50:00 13.9 C 11.51 g/m*3 13.9 C 0 km/h
2292 22-05-2014 22:55:00 13.9 C 11.51 g/m*3 13.9 C 0 km/h
2293 22-05-2014 23:00:00 13.8 C 11.44 g/m*3 13.8 C 0 km/h
2294 22-05-2014 23:05:00 13.8 C 11.44 g/m*3 13.8 C 0 km/h
2295 22-05-2014 23:10:00 13.8 C 11.44 g/m*3 13.8 C 0 km/h
2296 22-05-2014 23:15:00 13.8 C 11.44 g/m*3 13.8 C 0 km/h
2297 22-05-2014 23:20:00 13.8 C 11.44 g/m*3 13.8 C 0 km/h
2298 22-05-2014 23:25:00 13.8 C 11.44 g/m*3 13.8 C 0 km/h
2299 22-05-2014 23:30:00 13.8 C 11.44 g/m*3 13.8 C 0 km/h
2300 22-05-2014 23:35:00 13.7 C 11.37 g/m*3 13.7 C 0 km/h
Sensor: Nr:Datum:Temp:Abs-Feuchte:Windchill:Wind:
Aussen-T/F 2301 22-05-2014 23:40:00 13.7 C 11.37 g/m*3 13.7 C 0 km/h
2302 22-05-2014 23:45:00 13.7 C 11.37 g/m*3 13.7 C 0 km/h
2303 22-05-2014 23:50:00 13.7 C 11.37 g/m*3 13.7 C 0 km/h
2304 22-05-2014 23:55:00 13.6 C 11.3 g/m*3 13.6 C 0 km/h
2305 23-05-2014 00:00:00 13.6 C 11.3 g/m*3 13.6 C 0 km/h
2306 23-05-2014 00:05:00 13.6 C 11.3 g/m*3 13.6 C 0 km/h
2307 23-05-2014 00:10:00 13.6 C 11.3 g/m*3 13.6 C 0 km/h
2308 23-05-2014 00:15:00 13.6 C 11.3 g/m*3 13.6 C 1.6 km/h
2309 23-05-2014 00:20:00 13.6 C 11.42 g/m*3 13.6 C 0 km/h
2310 23-05-2014 00:25:00 13.6 C 11.3 g/m*3 13.6 C 0 km/h
2311 23-05-2014 00:30:00 13.6 C 11.3 g/m*3 13.6 C 1.6 km/h
2312 23-05-2014 00:35:00 13.6 C 11.42 g/m*3 13.6 C 0 km/h
2313 23-05-2014 00:40:00 13.6 C 11.42 g/m*3 13.6 C 1.6 km/h
2314 23-05-2014 00:45:00 13.6 C 11.42 g/m*3 13.6 C 0 km/h
2315 23-05-2014 00:50:00 13.6 C 11.3 g/m*3 13.6 C 0 km/h
2316 23-05-2014 00:55:00 13.6 C 11.3 g/m*3 13.6 C 0 km/h
2317 23-05-2014 01:00:00 13.6 C 11.3 g/m*3 13.6 C 0 km/h
2318 23-05-2014 01:05:00 13.6 C 11.42 g/m*3 13.6 C 1.6 km/h
2319 23-05-2014 01:10:00 13.5 C 11.35 g/m*3 13.5 C 0 km/h
2320 23-05-2014 01:15:00 13.5 C 11.35 g/m*3 13.5 C 1.6 km/h
2321 23-05-2014 01:20:00 13.4 C 11.16 g/m*3 13.4 C 3.2 km/h
2322 23-05-2014 01:25:00 13.4 C 11.28 g/m*3 13.4 C 0 km/h
2323 23-05-2014 01:30:00 13.4 C 11.28 g/m*3 13.4 C 0 km/h
2324 23-05-2014 01:35:00 13.4 C 11.28 g/m*3 13.4 C 0 km/h
2325 23-05-2014 01:40:00 13.4 C 11.28 g/m*3 13.4 C 0 km/h
Sensor: Nr:Datum:Temp:Abs-Feuchte:Windchill:Wind:
Aussen-T/F 2326 23-05-2014 01:45:00 13.4 C 11.16 g/m*3 13.4 C 3.2 km/h
2327 23-05-2014 01:50:00 13.4 C 11.16 g/m*3 13.4 C 0 km/h
2328 23-05-2014 01:55:00 13.4 C 11.28 g/m*3 13.4 C 0 km/h
2329 23-05-2014 02:00:00 13.4 C 11.28 g/m*3 13.4 C 0 km/h
2330 23-05-2014 02:05:00 13.3 C 11.21 g/m*3 13.3 C 0 km/h
2331 23-05-2014 02:10:00 13.3 C 11.21 g/m*3 13.3 C 0 km/h
2332 23-05-2014 02:15:00 13.3 C 11.21 g/m*3 13.3 C 0 km/h
2333 23-05-2014 02:20:00 13.3 C 11.21 g/m*3 13.3 C 0 km/h
2334 23-05-2014 02:25:00 13.3 C 11.21 g/m*3 13.3 C 0 km/h
2335 23-05-2014 02:30:00 13.3 C 11.21 g/m*3 13.3 C 0 km/h
2336 23-05-2014 02:35:00 13.3 C 11.21 g/m*3 13.3 C 0 km/h
2337 23-05-2014 02:40:00 13.3 C 11.21 g/m*3 13.3 C 0 km/h
2338 23-05-2014 02:45:00 13.3 C 11.21 g/m*3 13.3 C 0 km/h
2339 23-05-2014 02:50:00 13.3 C 11.21 g/m*3 13.3 C 0 km/h
2340 23-05-2014 02:55:00 13.3 C 11.21 g/m*3 13.3 C 0 km/h
2341 23-05-2014 03:00:00 13.3 C 11.21 g/m*3 13.3 C 0 km/h
2342 23-05-2014 03:05:00 13.3 C 11.21 g/m*3 13.3 C 0 km/h
2343 23-05-2014 03:10:00 13.3 C 11.21 g/m*3 13.3 C 0 km/h
2344 23-05-2014 03:15:00 13.3 C 11.21 g/m*3 13.3 C 0 km/h
2345 23-05-2014 03:20:00 13.2 C 11.14 g/m*3 13.2 C 0 km/h
2346 23-05-2014 03:25:00 13.2 C 11.14 g/m*3 13.2 C 0 km/h
2347 23-05-2014 03:30:00 13.2 C 11.14 g/m*3 13.2 C 0 km/h
2348 23-05-2014 03:35:00 13.2 C 11.14 g/m*3 13.2 C 0 km/h
2349 23-05-2014 03:40:00 13.2 C 11.14 g/m*3 13.2 C 0 km/h
2350 23-05-2014 03:45:00 13.2 C 11.14 g/m*3 13.2 C 0 km/h
Sensor: Nr:Datum:Temp:Abs-Feuchte:Windchill:Wind:
Aussen-T/F 2351 23-05-2014 03:50:00 13.2 C 11.14 g/m*3 13.2 C 0 km/h
2352 23-05-2014 03:55:00 13.2 C 11.14 g/m*3 13.2 C 0 km/h
2353 23-05-2014 04:00:00 13.1 C 11.07 g/m*3 13.1 C 0 km/h
2354 23-05-2014 04:05:00 13.1 C 11.07 g/m*3 13.1 C 0 km/h
2355 23-05-2014 04:10:00 13.1 C 11.07 g/m*3 13.1 C 0 km/h
2356 23-05-2014 04:15:00 13.1 C 11.07 g/m*3 13.1 C 0 km/h
2357 23-05-2014 04:20:00 13.1 C 11.07 g/m*3 13.1 C 0 km/h
2358 23-05-2014 04:25:00 13 C 11 g/m*3 13 C 0 km/h
2359 23-05-2014 04:30:00 12.9 C 10.93 g/m*3 12.9 C 0 km/h
2360 23-05-2014 04:35:00 12.9 C 10.93 g/m*3 12.9 C 0 km/h
2361 23-05-2014 04:40:00 12.9 C 10.93 g/m*3 12.9 C 0 km/h
2362 23-05-2014 04:45:00 12.8 C 10.87 g/m*3 12.8 C 0 km/h
2363 23-05-2014 04:50:00 12.8 C 10.87 g/m*3 12.8 C 0 km/h
2364 23-05-2014 04:55:00 12.7 C 10.8 g/m*3 12.7 C 0 km/h
2365 23-05-2014 05:00:00 12.7 C 10.8 g/m*3 12.7 C 0 km/h
2366 23-05-2014 05:05:00 12.7 C 10.8 g/m*3 12.7 C 0 km/h
2367 23-05-2014 05:10:00 12.7 C 10.8 g/m*3 12.7 C 0 km/h
2368 23-05-2014 05:15:00 12.7 C 10.8 g/m*3 12.7 C 0 km/h
2369 23-05-2014 05:20:00 12.7 C 10.8 g/m*3 12.7 C 0 km/h
2370 23-05-2014 05:25:00 12.7 C 10.8 g/m*3 12.7 C 0 km/h
2371 23-05-2014 05:30:00 12.7 C 10.8 g/m*3 12.7 C 0 km/h
2372 23-05-2014 05:35:00 12.7 C 10.8 g/m*3 12.7 C 0 km/h
2373 23-05-2014 05:40:00 12.7 C 10.8 g/m*3 12.7 C 0 km/h
2374 23-05-2014 05:45:00 12.8 C 10.87 g/m*3 12.8 C 0 km/h
2375 23-05-2014 05:50:00 12.8 C 10.87 g/m*3 12.8 C 0 km/h
Sensor: Nr:Datum:Temp:Abs-Feuchte:Windchill:Wind:
Aussen-T/F 2376 23-05-2014 05:55:00 12.9 C 11.05 g/m*3 12.9 C 0 km/h
2377 23-05-2014 06:00:00 12.9 C 11.05 g/m*3 12.9 C 0 km/h
2378 23-05-2014 06:05:00 13.1 C 11.18 g/m*3 13.1 C 0 km/h
2379 23-05-2014 06:10:00 13.1 C 11.07 g/m*3 13.1 C 0 km/h
2380 23-05-2014 06:15:00 13.1 C 11.07 g/m*3 13.1 C 0 km/h
2381 23-05-2014 06:20:00 13.1 C 11.07 g/m*3 13.1 C 0 km/h
2382 23-05-2014 06:25:00 13.1 C 11.07 g/m*3 13.1 C 0 km/h
2383 23-05-2014 06:30:00 13.1 C 11.07 g/m*3 13.1 C 0 km/h
2384 23-05-2014 06:35:00 13.1 C 11.07 g/m*3 13.1 C 0 km/h
2385 23-05-2014 06:40:00 13.1 C 11.07 g/m*3 13.1 C 0 km/h
2386 23-05-2014 06:45:00 13.1 C 11.07 g/m*3 13.1 C 0 km/h
2387 23-05-2014 06:50:00 13.1 C 11.07 g/m*3 13.1 C 0 km/h
2388 23-05-2014 06:55:00 13.2 C 11.14 g/m*3 13.2 C 0 km/h
2389 23-05-2014 07:00:00 13.2 C 11.14 g/m*3 13.2 C 0 km/h
2390 23-05-2014 07:05:00 13.2 C 11.14 g/m*3 13.2 C 0 km/h
2391 23-05-2014 07:10:00 13.2 C 11.14 g/m*3 13.2 C 0 km/h
2392 23-05-2014 07:15:00 13.2 C 11.25 g/m*3 13.2 C 0 km/h
2393 23-05-2014 07:20:00 13.3 C 11.32 g/m*3 13.3 C 0 km/h
2394 23-05-2014 07:25:00 13.3 C 11.32 g/m*3 13.3 C 0 km/h
2395 23-05-2014 07:30:00 13.3 C 11.32 g/m*3 13.3 C 0 km/h
2396 23-05-2014 07:35:00 13.4 C 11.39 g/m*3 13.4 C 0 km/h
2397 23-05-2014 07:40:00 13.6 C 11.53 g/m*3 13.6 C 0 km/h
2398 23-05-2014 07:45:00 13.6 C 11.53 g/m*3 13.6 C 0 km/h
2399 23-05-2014 07:50:00 13.7 C 11.6 g/m*3 13.7 C 0 km/h
2400 23-05-2014 07:55:00 13.8 C 11.68 g/m*3 13.8 C 0 km/h
Sensor: Nr:Datum:Temp:Abs-Feuchte:Windchill:Wind:
Aussen-T/F 2401 23-05-2014 08:00:00 13.8 C 11.68 g/m*3 13.8 C 0 km/h
2402 23-05-2014 08:05:00 13.8 C 11.68 g/m*3 13.8 C 0 km/h
2403 23-05-2014 08:10:00 13.8 C 11.68 g/m*3 13.8 C 0 km/h
2404 23-05-2014 08:15:00 13.8 C 11.68 g/m*3 13.8 C 0 km/h
2405 23-05-2014 08:20:00 13.9 C 11.75 g/m*3 13.9 C 0 km/h
2406 23-05-2014 08:25:00 13.9 C 11.75 g/m*3 13.9 C 0 km/h
2407 23-05-2014 08:30:00 13.9 C 11.75 g/m*3 13.9 C 0 km/h
2408 23-05-2014 08:35:00 14 C 11.82 g/m*3 14 C 0 km/h
2409 23-05-2014 08:40:00 13.9 C 11.75 g/m*3 13.9 C 0 km/h
2410 23-05-2014 08:45:00 13.9 C 11.75 g/m*3 13.9 C 0 km/h
2411 23-05-2014 08:50:00 14 C 11.82 g/m*3 14 C 0 km/h
2412 23-05-2014 08:55:00 14 C 11.82 g/m*3 14 C 0 km/h
2413 23-05-2014 09:00:00 14 C 11.82 g/m*3 14 C 0 km/h
2414 23-05-2014 09:05:00 13.9 C 11.75 g/m*3 13.9 C 0 km/h
2415 23-05-2014 09:10:00 13.9 C 11.75 g/m*3 13.9 C 0 km/h
2416 23-05-2014 09:15:00 14 C 11.82 g/m*3 14 C 0 km/h
2417 23-05-2014 09:20:00 14 C 11.82 g/m*3 14 C 0 km/h
2418 23-05-2014 09:25:00 14 C 11.82 g/m*3 14 C 0 km/h
2419 23-05-2014 09:30:00 14.1 C 11.89 g/m*3 14.1 C 3.2 km/h
2420 23-05-2014 09:35:00 14 C 11.82 g/m*3 14 C 0 km/h
2421 23-05-2014 09:40:00 13.9 C 11.75 g/m*3 13.9 C 1.6 km/h
2422 23-05-2014 09:45:00 13.9 C 11.75 g/m*3 13.9 C 0 km/h
2423 23-05-2014 09:50:00 13.9 C 11.75 g/m*3 13.9 C 0 km/h
2424 23-05-2014 09:55:00 14 C 11.82 g/m*3 14 C 0 km/h
2425 23-05-2014 10:00:00 14.1 C 11.89 g/m*3 14.1 C 0 km/h
Sensor: Nr:Datum:Temp:Abs-Feuchte:Windchill:Wind:
Aussen-T/F 2426 23-05-2014 10:05:00 14.1 C 11.77 g/m*3 14.1 C 0 km/h
2427 23-05-2014 10:10:00 14.3 C 12.04 g/m*3 14.3 C 0 km/h
2428 23-05-2014 10:15:00 14.4 C 12.11 g/m*3 14.4 C 0 km/h
2429 23-05-2014 10:20:00 14.5 C 12.19 g/m*3 14.5 C 0 km/h
2430 23-05-2014 10:25:00 14.5 C 12.19 g/m*3 14.5 C 0 km/h
2431 23-05-2014 10:30:00 14.5 C 12.06 g/m*3 14.5 C 1.6 km/h
2432 23-05-2014 10:35:00 14.6 C 12.14 g/m*3 14.6 C 4.8 km/h
2433 23-05-2014 10:40:00 14.6 C 12.14 g/m*3 14.6 C 4.8 km/h
2434 23-05-2014 10:45:00 14.7 C 12.21 g/m*3 14.7 C 3.2 km/h
2435 23-05-2014 10:50:00 14.8 C 12.16 g/m*3 14.8 C 4.8 km/h
2436 23-05-2014 10:55:00 14.9 C 12.11 g/m*3 14.9 C 6.4 km/h
2437 23-05-2014 11:00:00 15.1 C 12.26 g/m*3 15.1 C 3.2 km/h
2438 23-05-2014 11:05:00 15.2 C 12.33 g/m*3 15.2 C 0 km/h
2439 23-05-2014 11:10:00 15.2 C 12.33 g/m*3 15.2 C 0 km/h
2440 23-05-2014 11:15:00 15.2 C 12.33 g/m*3 15.2 C 3.2 km/h
2441 23-05-2014 11:20:00 15.1 C 12.13 g/m*3 15.1 C 0 km/h
2442 23-05-2014 11:25:00 15.1 C 12.26 g/m*3 15.1 C 0 km/h
2443 23-05-2014 11:30:00 15.1 C 12.13 g/m*3 15.1 C 0 km/h
2444 23-05-2014 11:35:00 15.2 C 12.33 g/m*3 15.2 C 0 km/h
2445 23-05-2014 11:40:00 15.2 C 12.2 g/m*3 15.2 C 1.6 km/h
2446 23-05-2014 11:45:00 15.2 C 12.2 g/m*3 15.2 C 1.6 km/h
2447 23-05-2014 11:50:00 15.3 C 12.41 g/m*3 15.3 C 0 km/h
2448 23-05-2014 11:55:00 15.5 C 12.56 g/m*3 15.5 C 0 km/h
2449 23-05-2014 12:00:00 15.6 C 12.5 g/m*3 15.6 C 3.2 km/h
2450 23-05-2014 12:05:00 15.7 C 12.31 g/m*3 15.7 C 4.8 km/h
Sensor: Nr:Datum:Temp:Abs-Feuchte:Windchill:Wind:
Aussen-T/F 2451 23-05-2014 12:10:00 15.8 C 12.25 g/m*3 15.8 C 3.2 km/h
2452 23-05-2014 12:15:00 15.9 C 12.19 g/m*3 15.9 C 8.1 km/h
2453 23-05-2014 12:20:00 15.9 C 12.05 g/m*3 15.9 C 6.4 km/h
2454 23-05-2014 12:25:00 16.1 C 12.34 g/m*3 16.1 C 1.6 km/h
2455 23-05-2014 12:30:00 16.1 C 12.34 g/m*3 16.1 C 3.2 km/h
2456 23-05-2014 12:35:00 16.3 C 12.35 g/m*3 16.3 C 4.8 km/h
2457 23-05-2014 12:40:00 16.4 C 12.28 g/m*3 16.4 C 4.8 km/h
2458 23-05-2014 12:45:00 16.5 C 12.08 g/m*3 16.5 C 6.4 km/h
2459 23-05-2014 12:50:00 16.7 C 12.36 g/m*3 16.7 C 4.8 km/h
2460 23-05-2014 12:55:00 17.1 C 12.52 g/m*3 17.1 C 4.8 km/h
2461 23-05-2014 13:00:00 17.4 C 12.15 g/m*3 17.4 C 6.4 km/h
2462 23-05-2014 13:05:00 17.8 C 12.29 g/m*3 17.8 C 8.1 km/h
2463 23-05-2014 13:10:00 17.8 C 11.99 g/m*3 17.8 C 9.7 km/h
2464 23-05-2014 13:15:00 17.8 C 12.29 g/m*3 17.8 C 6.4 km/h
2465 23-05-2014 13:20:00 17.6 C 12 g/m*3 17.6 C 6.4 km/h
2466 23-05-2014 13:25:00 17.4 C 12.3 g/m*3 17.4 C 3.2 km/h
2467 23-05-2014 13:30:00 17.2 C 12.01 g/m*3 17.2 C 4.8 km/h
2468 23-05-2014 13:35:00 17.1 C 12.66 g/m*3 17.1 C 1.6 km/h
2469 23-05-2014 13:40:00 17 C 12.59 g/m*3 17 C 0 km/h
2470 23-05-2014 13:45:00 16.7 C 11.94 g/m*3 16.7 C 1.6 km/h
2471 23-05-2014 13:50:00 16.6 C 11.87 g/m*3 16.6 C 1.6 km/h
2472 23-05-2014 13:55:00 16.2 C 11.72 g/m*3 16.2 C 1.6 km/h
2473 23-05-2014 14:00:00 15.9 C 11.51 g/m*3 15.9 C 1.6 km/h
2474 23-05-2014 14:05:00 15.8 C 12.11 g/m*3 15.8 C 1.6 km/h
2475 23-05-2014 14:10:00 16 C 12.53 g/m*3 16 C 0 km/h
Sensor: Nr:Datum:Temp:Abs-Feuchte:Windchill:Wind:
Aussen-T/F 2476 23-05-2014 14:15:00 16 C 12.53 g/m*3 16 C 0 km/h
2477 23-05-2014 14:20:00 16.1 C 12.75 g/m*3 16.1 C 0 km/h
2478 23-05-2014 14:25:00 16.2 C 12.82 g/m*3 16.2 C 1.6 km/h
2479 23-05-2014 14:30:00 16.3 C 12.76 g/m*3 16.3 C 0 km/h
2480 23-05-2014 14:35:00 16.7 C 12.79 g/m*3 16.7 C 0 km/h
2481 23-05-2014 14:40:00 17.3 C 12.82 g/m*3 17.3 C 3.2 km/h
2482 23-05-2014 14:45:00 17.8 C 11.84 g/m*3 17.8 C 4.8 km/h
2483 23-05-2014 14:50:00 18.1 C 12.36 g/m*3 18.1 C 4.8 km/h
2484 23-05-2014 14:55:00 18.3 C 12.35 g/m*3 18.3 C 3.2 km/h
2485 23-05-2014 15:00:00 18.6 C 12.57 g/m*3 18.6 C 3.2 km/h
2486 23-05-2014 15:05:00 18.9 C 12.64 g/m*3 18.9 C 6.4 km/h
2487 23-05-2014 15:10:00 19 C 12.71 g/m*3 19 C 6.4 km/h
2488 23-05-2014 15:15:00 18.9 C 12.8 g/m*3 18.9 C 1.6 km/h
2489 23-05-2014 15:20:00 18.8 C 13.53 g/m*3 18.8 C 3.2 km/h
2490 23-05-2014 15:25:00 18.7 C 13.29 g/m*3 18.7 C 3.2 km/h
2491 23-05-2014 15:30:00 19 C 13.69 g/m*3 19 C 8.1 km/h
2492 23-05-2014 15:35:00 19.2 C 12.86 g/m*3 19.2 C 4.8 km/h
2493 23-05-2014 15:40:00 19.2 C 13.03 g/m*3 19.2 C 6.4 km/h
2494 23-05-2014 15:45:00 19.2 C 13.19 g/m*3 19.2 C 6.4 km/h
2495 23-05-2014 15:50:00 19.3 C 12.94 g/m*3 19.3 C 8.1 km/h
2496 23-05-2014 15:55:00 19.4 C 13.01 g/m*3 19.4 C 9.7 km/h
2497 23-05-2014 16:00:00 19.3 C 12.77 g/m*3 19.3 C 4.8 km/h
2498 23-05-2014 16:05:00 19.1 C 12.79 g/m*3 19.1 C 6.4 km/h
2499 23-05-2014 16:10:00 19.3 C 12.44 g/m*3 19.3 C 8.1 km/h
2500 23-05-2014 16:15:00 19.6 C 13.34 g/m*3 19.6 C 9.7 km/h
Sensor: Nr:Datum:Temp:Abs-Feuchte:Windchill:Wind:
Aussen-T/F 2501 23-05-2014 16:20:00 19.7 C 12.23 g/m*3 19.7 C 8.1 km/h
2502 23-05-2014 16:25:00 20.1 C 12.86 g/m*3 20.1 C 9.7 km/h
2503 23-05-2014 16:30:00 20.7 C 12.96 g/m*3 20.7 C 8.1 km/h
2504 23-05-2014 16:35:00 21.1 C 13.08 g/m*3 21.1 C 8.1 km/h
2505 23-05-2014 16:40:00 21.1 C 12.53 g/m*3 21.1 C 6.4 km/h
2506 23-05-2014 16:45:00 21 C 12.27 g/m*3 21 C 3.2 km/h
2507 23-05-2014 16:50:00 20.6 C 12.71 g/m*3 20.6 C 0 km/h
2508 23-05-2014 16:55:00 20.8 C 12.67 g/m*3 20.8 C 4.8 km/h
2509 23-05-2014 17:00:00 21.1 C 12.71 g/m*3 21.1 C 6.4 km/h
2510 23-05-2014 17:05:00 21.1 C 12.53 g/m*3 21.1 C 8.1 km/h
2511 23-05-2014 17:10:00 20.7 C 13.68 g/m*3 20.7 C 3.2 km/h
2512 23-05-2014 17:15:00 19.7 C 13.25 g/m*3 19.7 C 0 km/h
2513 23-05-2014 17:20:00 19.2 C 12.7 g/m*3 19.2 C 4.8 km/h
2514 23-05-2014 17:25:00 19.1 C 12.79 g/m*3 19.1 C 4.8 km/h
2515 23-05-2014 17:30:00 19 C 13.36 g/m*3 19 C 0 km/h
2516 23-05-2014 17:35:00 18.7 C 13.13 g/m*3 18.7 C 0 km/h
2517 23-05-2014 17:40:00 18.5 C 13.45 g/m*3 18.5 C 0 km/h
2518 23-05-2014 17:45:00 18.2 C 13.37 g/m*3 18.2 C 0 km/h
2519 23-05-2014 17:50:00 17.8 C 13.36 g/m*3 17.8 C 0 km/h
2520 23-05-2014 17:55:00 17.7 C 13.43 g/m*3 17.7 C 0 km/h
2521 23-05-2014 18:00:00 17.6 C 13.35 g/m*3 17.6 C 0 km/h
2522 23-05-2014 18:05:00 17.5 C 12.08 g/m*3 17.5 C 0 km/h
2523 23-05-2014 18:10:00 18 C 13.36 g/m*3 18 C 1.6 km/h
2524 23-05-2014 18:15:00 18.3 C 12.35 g/m*3 18.3 C 3.2 km/h
2525 23-05-2014 18:20:00 19.1 C 11.97 g/m*3 19.1 C 8.1 km/h
Sensor: Nr:Datum:Temp:Abs-Feuchte:Windchill:Wind:
Aussen-T/F 2526 23-05-2014 18:25:00 19.9 C 12.2 g/m*3 19.9 C 8.1 km/h
2527 23-05-2014 18:30:00 20.6 C 12.35 g/m*3 20.6 C 6.4 km/h
2528 23-05-2014 18:35:00 20.8 C 11.59 g/m*3 20.8 C 9.7 km/h
2529 23-05-2014 18:40:00 20.8 C 11.77 g/m*3 20.8 C 8.1 km/h
2530 23-05-2014 18:45:00 21.2 C 12.42 g/m*3 21.2 C 9.7 km/h
2531 23-05-2014 18:50:00 21.3 C 11.74 g/m*3 21.3 C 8.1 km/h
2532 23-05-2014 18:55:00 21.3 C 11.74 g/m*3 21.3 C 6.4 km/h
2533 23-05-2014 19:00:00 21 C 11.91 g/m*3 21 C 9.7 km/h
2534 23-05-2014 19:05:00 20.9 C 11.66 g/m*3 20.9 C 8.1 km/h
2535 23-05-2014 19:10:00 20.7 C 11.88 g/m*3 20.7 C 6.4 km/h
2536 23-05-2014 19:15:00 20.5 C 11.92 g/m*3 20.5 C 1.6 km/h
2537 23-05-2014 19:20:00 20.3 C 11.96 g/m*3 20.3 C 4.8 km/h
2538 23-05-2014 19:25:00 20.3 C 11.78 g/m*3 20.3 C 6.4 km/h
2539 23-05-2014 19:30:00 20.4 C 11.68 g/m*3 20.4 C 9.7 km/h
2540 23-05-2014 19:35:00 20.3 C 11.61 g/m*3 20.3 C 4.8 km/h
2541 23-05-2014 19:40:00 20.2 C 12.94 g/m*3 20.2 C 1.6 km/h
2542 23-05-2014 19:45:00 19.9 C 11.68 g/m*3 19.9 C 3.2 km/h
2543 23-05-2014 19:50:00 19.8 C 11.61 g/m*3 19.8 C 6.4 km/h
2544 23-05-2014 19:55:00 19.8 C 12.13 g/m*3 19.8 C 4.8 km/h
2545 23-05-2014 20:00:00 19.7 C 13.25 g/m*3 19.7 C 1.6 km/h
2546 23-05-2014 20:05:00 19.3 C 11.61 g/m*3 19.3 C 1.6 km/h
2547 23-05-2014 20:10:00 19.2 C 11.71 g/m*3 19.2 C 0 km/h
2548 23-05-2014 20:15:00 19.1 C 13.28 g/m*3 19.1 C 0 km/h
2549 23-05-2014 20:20:00 18.6 C 12.73 g/m*3 18.6 C 3.2 km/h
2550 23-05-2014 20:25:00 18.3 C 12.98 g/m*3 18.3 C 1.6 km/h
Sensor: Nr:Datum:Temp:Abs-Feuchte:Windchill:Wind:
Aussen-T/F 2551 23-05-2014 20:30:00 17.9 C 12.83 g/m*3 17.9 C 0 km/h
2552 23-05-2014 20:35:00 17.6 C 12.75 g/m*3 17.6 C 0 km/h
2553 23-05-2014 20:40:00 17.3 C 12.52 g/m*3 17.3 C 0 km/h
2554 23-05-2014 20:45:00 17.2 C 12.45 g/m*3 17.2 C 1.6 km/h
2555 23-05-2014 20:50:00 17 C 12.44 g/m*3 17 C 0 km/h
2556 23-05-2014 20:55:00 16.7 C 12.36 g/m*3 16.7 C 0 km/h
2557 23-05-2014 21:00:00 16.3 C 12.07 g/m*3 16.3 C 1.6 km/h
2558 23-05-2014 21:05:00 16 C 11.99 g/m*3 16 C 0 km/h
2559 23-05-2014 21:10:00 15.7 C 11.91 g/m*3 15.7 C 0 km/h
2560 23-05-2014 21:15:00 15.4 C 11.69 g/m*3 15.4 C 1.6 km/h
2561 23-05-2014 21:20:00 15.3 C 11.62 g/m*3 15.3 C 1.6 km/h
2562 23-05-2014 21:25:00 15.2 C 11.55 g/m*3 15.2 C 1.6 km/h
2563 23-05-2014 21:30:00 15 C 11.54 g/m*3 15 C 0 km/h
2564 23-05-2014 21:35:00 14.9 C 11.47 g/m*3 14.9 C 0 km/h
2565 23-05-2014 21:40:00 14.7 C 11.33 g/m*3 14.7 C 1.6 km/h
2566 23-05-2014 21:45:00 14.6 C 11.26 g/m*3 14.6 C 3.2 km/h
2567 23-05-2014 21:50:00 14.6 C 11.39 g/m*3 14.6 C 1.6 km/h
2568 23-05-2014 21:55:00 14.4 C 11.25 g/m*3 14.4 C 1.6 km/h
2569 23-05-2014 22:00:00 14.3 C 11.18 g/m*3 14.3 C 0 km/h
2570 23-05-2014 22:05:00 14.3 C 11.18 g/m*3 14.3 C 0 km/h
2571 23-05-2014 22:10:00 14.2 C 11.23 g/m*3 14.2 C 0 km/h
2572 23-05-2014 22:15:00 14.2 C 11.23 g/m*3 14.2 C 0 km/h
2573 23-05-2014 22:20:00 14.1 C 11.17 g/m*3 14.1 C 1.6 km/h
2574 23-05-2014 22:25:00 14.1 C 11.17 g/m*3 14.1 C 0 km/h
2575 23-05-2014 22:30:00 13.9 C 11.03 g/m*3 13.9 C 0 km/h
Sensor: Nr:Datum:Temp:Abs-Feuchte:Windchill:Wind:
Aussen-T/F 2576 23-05-2014 22:35:00 13.9 C 11.03 g/m*3 13.9 C 0 km/h
2577 23-05-2014 22:40:00 13.8 C 10.96 g/m*3 13.8 C 1.6 km/h
2578 23-05-2014 22:45:00 13.8 C 10.96 g/m*3 13.8 C 0 km/h
2579 23-05-2014 22:50:00 13.7 C 11.01 g/m*3 13.7 C 0 km/h
2580 23-05-2014 22:55:00 13.7 C 11.01 g/m*3 13.7 C 1.6 km/h
2581 23-05-2014 23:00:00 13.6 C 10.95 g/m*3 13.6 C 0 km/h
2582 23-05-2014 23:05:00 13.6 C 10.95 g/m*3 13.6 C 0 km/h
2583 23-05-2014 23:10:00 13.6 C 10.95 g/m*3 13.6 C 0 km/h
2584 23-05-2014 23:15:00 13.5 C 10.88 g/m*3 13.5 C 0 km/h
2585 23-05-2014 23:20:00 13.4 C 10.81 g/m*3 13.4 C 1.6 km/h
2586 23-05-2014 23:25:00 13.4 C 10.81 g/m*3 13.4 C 0 km/h
2587 23-05-2014 23:30:00 13.3 C 10.74 g/m*3 13.3 C 0 km/h
2588 23-05-2014 23:35:00 13.3 C 10.74 g/m*3 13.3 C 0 km/h
2589 23-05-2014 23:40:00 13.3 C 10.74 g/m*3 13.3 C 0 km/h
2590 23-05-2014 23:45:00 13.2 C 10.68 g/m*3 13.2 C 0 km/h
2591 23-05-2014 23:50:00 13.2 C 10.68 g/m*3 13.2 C 0 km/h
2592 23-05-2014 23:55:00 13.1 C 10.73 g/m*3 13.1 C 0 km/h
2593 24-05-2014 00:00:00 13.1 C 10.73 g/m*3 13.1 C 0 km/h
2594 24-05-2014 00:05:00 13.1 C 10.73 g/m*3 13.1 C 0 km/h
2595 24-05-2014 00:10:00 12.9 C 10.59 g/m*3 12.9 C 0 km/h
2596 24-05-2014 00:15:00 12.9 C 10.59 g/m*3 12.9 C 0 km/h
2597 24-05-2014 00:20:00 12.9 C 10.59 g/m*3 12.9 C 1.6 km/h
2598 24-05-2014 00:25:00 12.9 C 10.59 g/m*3 12.9 C 0 km/h
2599 24-05-2014 00:30:00 12.8 C 10.64 g/m*3 12.8 C 0 km/h
2600 24-05-2014 00:35:00 12.8 C 10.64 g/m*3 12.8 C 0 km/h
Sensor: Nr:Datum:Temp:Abs-Feuchte:Windchill:Wind:
Aussen-T/F 2601 24-05-2014 00:40:00 12.7 C 10.58 g/m*3 12.7 C 0 km/h
2602 24-05-2014 00:45:00 12.7 C 10.46 g/m*3 12.7 C 0 km/h
2603 24-05-2014 00:50:00 12.7 C 10.58 g/m*3 12.7 C 0 km/h
2604 24-05-2014 00:55:00 12.7 C 10.58 g/m*3 12.7 C 0 km/h
2605 24-05-2014 01:00:00 12.6 C 10.51 g/m*3 12.6 C 0 km/h
2606 24-05-2014 01:05:00 12.5 C 10.44 g/m*3 12.5 C 0 km/h
2607 24-05-2014 01:10:00 12.4 C 10.38 g/m*3 12.4 C 0 km/h
2608 24-05-2014 01:15:00 12.4 C 10.38 g/m*3 12.4 C 0 km/h
2609 24-05-2014 01:20:00 12.4 C 10.38 g/m*3 12.4 C 0 km/h
2610 24-05-2014 01:25:00 12.4 C 10.38 g/m*3 12.4 C 0 km/h
2611 24-05-2014 01:30:00 12.4 C 10.38 g/m*3 12.4 C 1.6 km/h
2612 24-05-2014 01:35:00 12.3 C 10.32 g/m*3 12.3 C 0 km/h
2613 24-05-2014 01:40:00 12.2 C 10.25 g/m*3 12.2 C 0 km/h
2614 24-05-2014 01:45:00 12.2 C 10.25 g/m*3 12.2 C 0 km/h
2615 24-05-2014 01:50:00 12.1 C 10.19 g/m*3 12.1 C 0 km/h
2616 24-05-2014 01:55:00 11.9 C 10.06 g/m*3 11.9 C 0 km/h
2617 24-05-2014 02:00:00 11.8 C 10 g/m*3 11.8 C 0 km/h
2618 24-05-2014 02:05:00 11.7 C 9.94 g/m*3 11.7 C 0 km/h
2619 24-05-2014 02:10:00 11.7 C 9.94 g/m*3 11.7 C 0 km/h
2620 24-05-2014 02:15:00 11.7 C 10.04 g/m*3 11.7 C 0 km/h
2621 24-05-2014 02:20:00 11.7 C 10.04 g/m*3 11.7 C 0 km/h
2622 24-05-2014 02:25:00 11.8 C 10.1 g/m*3 11.8 C 0 km/h
2623 24-05-2014 02:30:00 11.8 C 10.1 g/m*3 11.8 C 0 km/h
2624 24-05-2014 02:35:00 11.8 C 10.1 g/m*3 11.8 C 0 km/h
2625 24-05-2014 02:40:00 11.8 C 10.1 g/m*3 11.8 C 0 km/h
Sensor: Nr:Datum:Temp:Abs-Feuchte:Windchill:Wind:
Aussen-T/F 2626 24-05-2014 02:45:00 12 C 10.23 g/m*3 12 C 4.8 km/h
2627 24-05-2014 02:50:00 12.3 C 10.53 g/m*3 12.3 C 14.5 km/h
2628 24-05-2014 02:55:00 12.6 C 10.62 g/m*3 12.6 C 3.2 km/h
2629 24-05-2014 03:00:00 12.8 C 10.75 g/m*3 12.8 C 1.6 km/h
2630 24-05-2014 03:05:00 12.9 C 10.71 g/m*3 12.9 C 4.8 km/h
2631 24-05-2014 03:10:00 13.1 C 10.61 g/m*3 13.1 C 9.7 km/h
2632 24-05-2014 03:15:00 13.6 C 10.36 g/m*3 13.6 C 8.1 km/h
2633 24-05-2014 03:20:00 13.9 C 10.31 g/m*3 13.9 C 11.3 km/h
2634 24-05-2014 03:25:00 14.1 C 10.32 g/m*3 14.1 C 4.8 km/h
2635 24-05-2014 03:30:00 14.1 C 10.32 g/m*3 14.1 C 6.4 km/h
2636 24-05-2014 03:35:00 14.1 C 10.44 g/m*3 14.1 C 3.2 km/h
2637 24-05-2014 03:40:00 14 C 10.25 g/m*3 14 C 4.8 km/h
2638 24-05-2014 03:45:00 14.1 C 10.19 g/m*3 14.1 C 6.4 km/h
2639 24-05-2014 03:50:00 14.1 C 10.19 g/m*3 14.1 C 12.9 km/h
2640 24-05-2014 03:55:00 14.2 C 10.26 g/m*3 14.2 C 12.9 km/h
2641 24-05-2014 04:00:00 14.2 C 10.14 g/m*3 14.2 C 6.4 km/h
2642 24-05-2014 04:05:00 14.2 C 10.26 g/m*3 14.2 C 4.8 km/h
2643 24-05-2014 04:10:00 14.1 C 10.07 g/m*3 14.1 C 8.1 km/h
2644 24-05-2014 04:15:00 14.1 C 9.95 g/m*3 14.1 C 14.5 km/h
2645 24-05-2014 04:20:00 14.1 C 9.95 g/m*3 14.1 C 9.7 km/h
2646 24-05-2014 04:25:00 14.1 C 9.95 g/m*3 14.1 C 11.3 km/h
2647 24-05-2014 04:30:00 14 C 9.89 g/m*3 14 C 9.7 km/h
2648 24-05-2014 04:35:00 14 C 9.77 g/m*3 14 C 6.4 km/h
2649 24-05-2014 04:40:00 13.9 C 9.83 g/m*3 13.9 C 11.3 km/h
2650 24-05-2014 04:45:00 13.9 C 9.71 g/m*3 13.9 C 8.1 km/h
Sensor: Nr:Datum:Temp:Abs-Feuchte:Windchill:Wind:
Aussen-T/F 2651 24-05-2014 04:50:00 13.8 C 9.77 g/m*3 13.8 C 8.1 km/h
2652 24-05-2014 04:55:00 13.8 C 9.65 g/m*3 13.8 C 12.9 km/h
2653 24-05-2014 05:00:00 13.7 C 9.59 g/m*3 13.7 C 9.7 km/h
2654 24-05-2014 05:05:00 13.7 C 9.59 g/m*3 13.7 C 4.8 km/h
2655 24-05-2014 05:10:00 13.7 C 9.59 g/m*3 13.7 C 8.1 km/h
2656 24-05-2014 05:15:00 13.7 C 9.47 g/m*3 13.7 C 1.6 km/h
2657 24-05-2014 05:20:00 13.7 C 9.59 g/m*3 13.7 C 1.6 km/h
2658 24-05-2014 05:25:00 13.6 C 9.65 g/m*3 13.6 C 0 km/h
2659 24-05-2014 05:30:00 13.5 C 9.59 g/m*3 13.5 C 0 km/h
2660 24-05-2014 05:35:00 13.5 C 9.94 g/m*3 13.5 C 0 km/h
2661 24-05-2014 05:40:00 13.3 C 10.05 g/m*3 13.3 C 0 km/h
2662 24-05-2014 05:45:00 13.1 C 10.16 g/m*3 13.1 C 0 km/h
2663 24-05-2014 05:50:00 12.7 C 10.13 g/m*3 12.7 C 1.6 km/h
2664 24-05-2014 05:55:00 12.5 C 10.11 g/m*3 12.5 C 1.6 km/h
2665 24-05-2014 06:00:00 12.3 C 10.1 g/m*3 12.3 C 1.6 km/h
2666 24-05-2014 06:05:00 12.3 C 10.1 g/m*3 12.3 C 0 km/h
2667 24-05-2014 06:10:00 12.2 C 10.04 g/m*3 12.2 C 1.6 km/h
2668 24-05-2014 06:15:00 12.2 C 10.14 g/m*3 12.2 C 1.6 km/h
2669 24-05-2014 06:20:00 12.1 C 10.08 g/m*3 12.1 C 0 km/h
2670 24-05-2014 06:25:00 12.1 C 10.08 g/m*3 12.1 C 1.6 km/h
2671 24-05-2014 06:30:00 12.2 C 10.25 g/m*3 12.2 C 8.1 km/h
2672 24-05-2014 06:35:00 12.2 C 10.25 g/m*3 12.2 C 1.6 km/h
2673 24-05-2014 06:40:00 12.2 C 10.25 g/m*3 12.2 C 0 km/h
2674 24-05-2014 06:45:00 12.2 C 10.25 g/m*3 12.2 C 0 km/h
2675 24-05-2014 06:50:00 12.2 C 10.25 g/m*3 12.2 C 0 km/h
Sensor: Nr:Datum:Temp:Abs-Feuchte:Windchill:Wind:
Aussen-T/F 2676 24-05-2014 06:55:00 12.2 C 10.25 g/m*3 12.2 C 1.6 km/h
2677 24-05-2014 07:00:00 12.1 C 10.19 g/m*3 12.1 C 0 km/h
2678 24-05-2014 07:05:00 12.2 C 10.36 g/m*3 12.2 C 0 km/h
2679 24-05-2014 07:10:00 12.2 C 10.36 g/m*3 12.2 C 0 km/h
2680 24-05-2014 07:15:00 12.2 C 10.36 g/m*3 12.2 C 0 km/h
2681 24-05-2014 07:20:00 12.2 C 10.36 g/m*3 12.2 C 1.6 km/h
2682 24-05-2014 07:25:00 12.2 C 10.36 g/m*3 12.2 C 1.6 km/h
2683 24-05-2014 07:30:00 12.1 C 10.29 g/m*3 12.1 C 4.8 km/h
2684 24-05-2014 07:35:00 12.1 C 10.19 g/m*3 12.1 C 3.2 km/h
2685 24-05-2014 07:40:00 12.1 C 10.19 g/m*3 12.1 C 3.2 km/h
2686 24-05-2014 07:45:00 12.2 C 10.25 g/m*3 12.2 C 1.6 km/h
2687 24-05-2014 07:50:00 12.2 C 10.25 g/m*3 12.2 C 1.6 km/h
2688 24-05-2014 07:55:00 12.3 C 10.21 g/m*3 12.3 C 4.8 km/h
2689 24-05-2014 08:00:00 12.4 C 10.38 g/m*3 12.4 C 4.8 km/h
2690 24-05-2014 08:05:00 12.4 C 10.38 g/m*3 12.4 C 0 km/h
2691 24-05-2014 08:10:00 12.5 C 10.44 g/m*3 12.5 C 1.6 km/h
2692 24-05-2014 08:15:00 12.6 C 10.51 g/m*3 12.6 C 1.6 km/h
2693 24-05-2014 08:20:00 12.6 C 10.51 g/m*3 12.6 C 0 km/h
2694 24-05-2014 08:25:00 12.7 C 10.58 g/m*3 12.7 C 0 km/h
2695 24-05-2014 08:30:00 12.7 C 10.58 g/m*3 12.7 C 0 km/h
2696 24-05-2014 08:35:00 12.8 C 10.64 g/m*3 12.8 C 0 km/h
2697 24-05-2014 08:40:00 12.8 C 10.64 g/m*3 12.8 C 3.2 km/h
2698 24-05-2014 08:45:00 12.9 C 10.71 g/m*3 12.9 C 3.2 km/h
2699 24-05-2014 08:50:00 12.9 C 10.71 g/m*3 12.9 C 0 km/h
2700 24-05-2014 08:55:00 13 C 10.89 g/m*3 13 C 0 km/h
Sensor: Nr:Datum:Temp:Abs-Feuchte:Windchill:Wind:
Aussen-T/F 2701 24-05-2014 09:00:00 13.2 C 11.02 g/m*3 13.2 C 0 km/h
2702 24-05-2014 09:05:00 13.3 C 11.09 g/m*3 13.3 C 3.2 km/h
2703 24-05-2014 09:10:00 13.3 C 11.09 g/m*3 13.3 C 4.8 km/h
2704 24-05-2014 09:15:00 13.5 C 11.23 g/m*3 13.5 C 0 km/h
2705 24-05-2014 09:20:00 13.6 C 11.18 g/m*3 13.6 C 0 km/h
2706 24-05-2014 09:25:00 13.6 C 11.18 g/m*3 13.6 C 0 km/h
2707 24-05-2014 09:30:00 13.6 C 11.18 g/m*3 13.6 C 0 km/h
2708 24-05-2014 09:35:00 13.6 C 11.18 g/m*3 13.6 C 0 km/h
2709 24-05-2014 09:40:00 13.7 C 11.37 g/m*3 13.7 C 0 km/h
2710 24-05-2014 09:45:00 13.8 C 11.44 g/m*3 13.8 C 0 km/h
2711 24-05-2014 09:50:00 14 C 11.58 g/m*3 14 C 0 km/h
2712 24-05-2014 09:55:00 14.2 C 11.72 g/m*3 14.2 C 0 km/h
2713 24-05-2014 10:00:00 14.3 C 11.79 g/m*3 14.3 C 0 km/h
2714 24-05-2014 10:05:00 14.4 C 11.87 g/m*3 14.4 C 0 km/h
2715 24-05-2014 10:10:00 14.4 C 11.62 g/m*3 14.4 C 0 km/h
2716 24-05-2014 10:15:00 14.5 C 11.82 g/m*3 14.5 C 3.2 km/h
2717 24-05-2014 10:20:00 14.7 C 11.83 g/m*3 14.7 C 1.6 km/h
2718 24-05-2014 10:25:00 14.8 C 11.65 g/m*3 14.8 C 8.1 km/h
2719 24-05-2014 10:30:00 14.9 C 11.6 g/m*3 14.9 C 9.7 km/h
2720 24-05-2014 10:35:00 15 C 11.41 g/m*3 15 C 11.3 km/h
2721 24-05-2014 10:40:00 15 C 11.41 g/m*3 15 C 14.5 km/h
2722 24-05-2014 10:45:00 14.7 C 10.95 g/m*3 14.7 C 14.5 km/h
2723 24-05-2014 10:50:00 14.4 C 11 g/m*3 14.4 C 11.3 km/h
2724 24-05-2014 10:55:00 14.3 C 10.81 g/m*3 14.3 C 14.5 km/h
2725 24-05-2014 11:00:00 14.3 C 10.93 g/m*3 14.3 C 11.3 km/h
Sensor: Nr:Datum:Temp:Abs-Feuchte:Windchill:Wind:
Aussen-T/F 2726 24-05-2014 11:05:00 14.4 C 11 g/m*3 14.4 C 11.3 km/h
2727 24-05-2014 11:10:00 14.6 C 11.14 g/m*3 14.6 C 4.8 km/h
2728 24-05-2014 11:15:00 14.7 C 10.95 g/m*3 14.7 C 12.9 km/h
2729 24-05-2014 11:20:00 14.6 C 10.76 g/m*3 14.6 C 14.5 km/h
2730 24-05-2014 11:25:00 14.4 C 10.51 g/m*3 14.4 C 16.1 km/h
2731 24-05-2014 11:30:00 14.3 C 10.57 g/m*3 14.3 C 16.1 km/h
2732 24-05-2014 11:35:00 14.3 C 10.44 g/m*3 14.3 C 11.3 km/h
2733 24-05-2014 11:40:00 14.6 C 10.76 g/m*3 14.6 C 8.1 km/h
2734 24-05-2014 11:45:00 14.9 C 10.83 g/m*3 14.9 C 8.1 km/h
2735 24-05-2014 11:50:00 15.1 C 10.45 g/m*3 15.1 C 19.3 km/h
2736 24-05-2014 11:55:00 14.9 C 10.2 g/m*3 14.9 C 16.1 km/h
2737 24-05-2014 12:00:00 14.8 C 10.01 g/m*3 14.8 C 16.1 km/h
2738 24-05-2014 12:05:00 14.6 C 9.76 g/m*3 14.6 C 9.7 km/h
2739 24-05-2014 12:10:00 14.4 C 10.01 g/m*3 14.4 C 8.1 km/h
2740 24-05-2014 12:15:00 14.4 C 10.01 g/m*3 14.4 C 8.1 km/h
2741 24-05-2014 12:20:00 14.6 C 10.26 g/m*3 14.6 C 11.3 km/h
2742 24-05-2014 12:25:00 14.7 C 10.32 g/m*3 14.7 C 6.4 km/h
2743 24-05-2014 12:30:00 14.9 C 10.45 g/m*3 14.9 C 11.3 km/h
2744 24-05-2014 12:35:00 15.2 C 10.38 g/m*3 15.2 C 6.4 km/h
2745 24-05-2014 12:40:00 15.7 C 10.84 g/m*3 15.7 C 11.3 km/h
2746 24-05-2014 12:45:00 16.3 C 10.96 g/m*3 16.3 C 11.3 km/h
2747 24-05-2014 12:50:00 16.3 C 10.54 g/m*3 16.3 C 14.5 km/h
2748 24-05-2014 12:55:00 16.3 C 10.82 g/m*3 16.3 C 12.9 km/h
2749 24-05-2014 13:00:00 16.4 C 10.61 g/m*3 16.4 C 9.7 km/h
2750 24-05-2014 13:05:00 16.4 C 10.47 g/m*3 16.4 C 9.7 km/h
Sensor: Nr:Datum:Temp:Abs-Feuchte:Windchill:Wind:
Aussen-T/F 2751 24-05-2014 13:10:00 16.6 C 10.74 g/m*3 16.6 C 6.4 km/h
2752 24-05-2014 13:15:00 16.7 C 10.66 g/m*3 16.7 C 9.7 km/h
2753 24-05-2014 13:20:00 16.7 C 10.66 g/m*3 16.7 C 8.1 km/h
2754 24-05-2014 13:25:00 16.9 C 10.64 g/m*3 16.9 C 16.1 km/h
2755 24-05-2014 13:30:00 17.2 C 10.98 g/m*3 17.2 C 12.9 km/h
2756 24-05-2014 13:35:00 17.4 C 10.67 g/m*3 17.4 C 9.7 km/h
2757 24-05-2014 13:40:00 17.5 C 10.73 g/m*3 17.5 C 9.7 km/h
2758 24-05-2014 13:45:00 17.5 C 10.44 g/m*3 17.5 C 11.3 km/h
2759 24-05-2014 13:50:00 17.4 C 10.37 g/m*3 17.4 C 9.7 km/h
2760 24-05-2014 13:55:00 17.4 C 10.37 g/m*3 17.4 C 11.3 km/h
2761 24-05-2014 14:00:00 17.4 C 10.37 g/m*3 17.4 C 8.1 km/h
2762 24-05-2014 14:05:00 17.4 C 10.23 g/m*3 17.4 C 9.7 km/h
2763 24-05-2014 14:10:00 17.4 C 10.23 g/m*3 17.4 C 11.3 km/h
2764 24-05-2014 14:15:00 17.4 C 10.23 g/m*3 17.4 C 8.1 km/h
2765 24-05-2014 14:20:00 17.4 C 10.37 g/m*3 17.4 C 6.4 km/h
2766 24-05-2014 14:25:00 17.6 C 10.2 g/m*3 17.6 C 11.3 km/h
2767 24-05-2014 14:30:00 18 C 9.98 g/m*3 18 C 17.7 km/h
2768 24-05-2014 14:35:00 18.1 C 10.04 g/m*3 18.1 C 11.3 km/h
2769 24-05-2014 14:40:00 18.1 C 10.04 g/m*3 18.1 C 11.3 km/h
2770 24-05-2014 14:45:00 18.5 C 10.28 g/m*3 18.5 C 11.3 km/h
2771 24-05-2014 14:50:00 18.7 C 9.61 g/m*3 18.7 C 17.7 km/h
2772 24-05-2014 14:55:00 18.3 C 9.69 g/m*3 18.3 C 8.1 km/h
2773 24-05-2014 15:00:00 18.3 C 9.85 g/m*3 18.3 C 16.1 km/h
2774 24-05-2014 15:05:00 18.5 C 9.81 g/m*3 18.5 C 14.5 km/h
2775 24-05-2014 15:10:00 18.5 C 9.81 g/m*3 18.5 C 6.4 km/h
Sensor: Nr:Datum:Temp:Abs-Feuchte:Windchill:Wind:
Aussen-T/F 2776 24-05-2014 15:15:00 18.5 C 9.97 g/m*3 18.5 C 16.1 km/h
2777 24-05-2014 15:20:00 18.8 C 9.66 g/m*3 18.8 C 19.3 km/h
2778 24-05-2014 15:25:00 19.1 C 10 g/m*3 19.1 C 12.9 km/h
2779 24-05-2014 15:30:00 19.4 C 9.34 g/m*3 19.4 C 17.7 km/h
2780 24-05-2014 15:35:00 19.6 C 9.79 g/m*3 19.6 C 11.3 km/h
2781 24-05-2014 15:40:00 19.7 C 9.85 g/m*3 19.7 C 14.5 km/h
2782 24-05-2014 15:45:00 19.7 C 9.51 g/m*3 19.7 C 12.9 km/h
2783 24-05-2014 15:50:00 19.4 C 9.68 g/m*3 19.4 C 8.1 km/h
2784 24-05-2014 15:55:00 19.1 C 9.51 g/m*3 19.1 C 8.1 km/h
2785 24-05-2014 16:00:00 18.7 C 9.61 g/m*3 18.7 C 9.7 km/h
2786 24-05-2014 16:05:00 18.4 C 9.44 g/m*3 18.4 C 16.1 km/h
2787 24-05-2014 16:10:00 18.7 C 9.29 g/m*3 18.7 C 19.3 km/h
2788 24-05-2014 16:15:00 18.3 C 9.22 g/m*3 18.3 C 12.9 km/h
2789 24-05-2014 16:20:00 18.1 C 9.73 g/m*3 18.1 C 9.7 km/h
2790 24-05-2014 16:25:00 18.3 C 9.54 g/m*3 18.3 C 16.1 km/h
2791 24-05-2014 16:30:00 18.6 C 9.39 g/m*3 18.6 C 12.9 km/h
2792 24-05-2014 16:35:00 19.1 C 9.51 g/m*3 19.1 C 9.7 km/h
2793 24-05-2014 16:40:00 19.1 C 9.67 g/m*3 19.1 C 11.3 km/h
2794 24-05-2014 16:45:00 19.1 C 9.67 g/m*3 19.1 C 11.3 km/h
2795 24-05-2014 16:50:00 18.8 C 9.02 g/m*3 18.8 C 9.7 km/h
2796 24-05-2014 16:55:00 18.8 C 9.5 g/m*3 18.8 C 14.5 km/h
2797 24-05-2014 17:00:00 19.3 C 9.79 g/m*3 19.3 C 14.5 km/h
2798 24-05-2014 17:05:00 20 C 9.33 g/m*3 20 C 19.3 km/h
2799 24-05-2014 17:10:00 19.8 C 9.22 g/m*3 19.8 C 16.1 km/h
2800 24-05-2014 17:15:00 19.4 C 8.84 g/m*3 19.4 C 17.7 km/h
Sensor: Nr:Datum:Temp:Abs-Feuchte:Windchill:Wind:
Aussen-T/F 2801 24-05-2014 17:20:00 19.2 C 8.74 g/m*3 19.2 C 14.5 km/h
2802 24-05-2014 17:25:00 19.2 C 8.74 g/m*3 19.2 C 9.7 km/h
2803 24-05-2014 17:30:00 19.3 C 8.96 g/m*3 19.3 C 9.7 km/h
2804 24-05-2014 17:35:00 19.5 C 8.73 g/m*3 19.5 C 12.9 km/h
2805 24-05-2014 17:40:00 19.6 C 8.78 g/m*3 19.6 C 16.1 km/h
2806 24-05-2014 17:45:00 19.7 C 8.83 g/m*3 19.7 C 12.9 km/h
2807 24-05-2014 17:50:00 19.8 C 9.05 g/m*3 19.8 C 14.5 km/h
2808 24-05-2014 17:55:00 20.1 C 9.04 g/m*3 20.1 C 14.5 km/h
2809 24-05-2014 18:00:00 19.9 C 8.42 g/m*3 19.9 C 11.3 km/h
2810 24-05-2014 18:05:00 19.4 C 8.18 g/m*3 19.4 C 12.9 km/h
2811 24-05-2014 18:10:00 19.4 C 8.51 g/m*3 19.4 C 14.5 km/h
2812 24-05-2014 18:15:00 19.8 C 8.37 g/m*3 19.8 C 12.9 km/h
2813 24-05-2014 18:20:00 19.6 C 8.27 g/m*3 19.6 C 12.9 km/h
2814 24-05-2014 18:25:00 19 C 7.99 g/m*3 19 C 8.1 km/h
2815 24-05-2014 18:30:00 18.6 C 8.59 g/m*3 18.6 C 4.8 km/h
2816 24-05-2014 18:35:00 18.3 C 8.6 g/m*3 18.3 C 4.8 km/h
2817 24-05-2014 18:40:00 18 C 9.06 g/m*3 18 C 4.8 km/h
2818 24-05-2014 18:45:00 17.8 C 8.8 g/m*3 17.8 C 1.6 km/h
2819 24-05-2014 18:50:00 17.5 C 9.24 g/m*3 17.5 C 0 km/h
2820 24-05-2014 18:55:00 17.2 C 10.4 g/m*3 17.2 C 0 km/h
2821 24-05-2014 19:00:00 16.8 C 9.15 g/m*3 16.8 C 1.6 km/h
2822 24-05-2014 19:05:00 16.5 C 9.97 g/m*3 16.5 C 0 km/h
2823 24-05-2014 19:10:00 16.3 C 10.13 g/m*3 16.3 C 0 km/h
2824 24-05-2014 19:15:00 16.3 C 9.02 g/m*3 16.3 C 1.6 km/h
2825 24-05-2014 19:20:00 16.3 C 9.02 g/m*3 16.3 C 1.6 km/h
Sensor: Nr:Datum:Temp:Abs-Feuchte:Windchill:Wind:
Aussen-T/F 2826 24-05-2014 19:25:00 16.4 C 9.21 g/m*3 16.4 C 3.2 km/h
2827 24-05-2014 19:30:00 16.4 C 10.05 g/m*3 16.4 C 1.6 km/h
2828 24-05-2014 19:35:00 16.3 C 10.41 g/m*3 16.3 C 0 km/h
2829 24-05-2014 19:40:00 16.2 C 10.48 g/m*3 16.2 C 0 km/h
2830 24-05-2014 19:45:00 16 C 10.35 g/m*3 16 C 0 km/h
2831 24-05-2014 19:50:00 15.8 C 10.63 g/m*3 15.8 C 1.6 km/h
2832 24-05-2014 19:55:00 15.8 C 10.1 g/m*3 15.8 C 0 km/h
2833 24-05-2014 20:00:00 16.1 C 10.55 g/m*3 16.1 C 4.8 km/h
2834 24-05-2014 20:05:00 16.2 C 9.52 g/m*3 16.2 C 6.4 km/h
2835 24-05-2014 20:10:00 16.3 C 10.54 g/m*3 16.3 C 3.2 km/h
2836 24-05-2014 20:15:00 16.2 C 10.34 g/m*3 16.2 C 0 km/h
2837 24-05-2014 20:20:00 16.1 C 10.55 g/m*3 16.1 C 0 km/h
2838 24-05-2014 20:25:00 16 C 10.22 g/m*3 16 C 1.6 km/h
2839 24-05-2014 20:30:00 15.8 C 10.5 g/m*3 15.8 C 1.6 km/h
2840 24-05-2014 20:35:00 15.6 C 10.51 g/m*3 15.6 C 1.6 km/h
2841 24-05-2014 20:40:00 15.4 C 10.25 g/m*3 15.4 C 1.6 km/h
2842 24-05-2014 20:45:00 15.2 C 10.38 g/m*3 15.2 C 1.6 km/h
2843 24-05-2014 20:50:00 14.9 C 10.32 g/m*3 14.9 C 1.6 km/h
2844 24-05-2014 20:55:00 14.7 C 10.32 g/m*3 14.7 C 1.6 km/h
2845 24-05-2014 21:00:00 14.4 C 10.01 g/m*3 14.4 C 1.6 km/h
2846 24-05-2014 21:05:00 14.1 C 9.95 g/m*3 14.1 C 3.2 km/h
2847 24-05-2014 21:10:00 13.9 C 9.83 g/m*3 13.9 C 1.6 km/h
2848 24-05-2014 21:15:00 13.8 C 9.77 g/m*3 13.8 C 1.6 km/h
2849 24-05-2014 21:20:00 13.6 C 9.77 g/m*3 13.6 C 1.6 km/h
2850 24-05-2014 21:25:00 13.5 C 9.71 g/m*3 13.5 C 1.6 km/h
Sensor: Nr:Datum:Temp:Abs-Feuchte:Windchill:Wind:
Aussen-T/F 2851 24-05-2014 21:30:00 13.4 C 9.88 g/m*3 13.4 C 1.6 km/h
2852 24-05-2014 21:35:00 13.2 C 9.76 g/m*3 13.2 C 1.6 km/h
2853 24-05-2014 21:40:00 13.1 C 9.7 g/m*3 13.1 C 0 km/h
2854 24-05-2014 21:45:00 12.9 C 9.58 g/m*3 12.9 C 0 km/h
2855 24-05-2014 21:50:00 12.7 C 9.35 g/m*3 12.7 C 0 km/h
2856 24-05-2014 21:55:00 12.6 C 9.29 g/m*3 12.6 C 0 km/h
2857 24-05-2014 22:00:00 12.4 C 9.18 g/m*3 12.4 C 0 km/h
2858 24-05-2014 22:05:00 12.3 C 9.23 g/m*3 12.3 C 0 km/h
2859 24-05-2014 22:10:00 12.3 C 9.23 g/m*3 12.3 C 0 km/h
2860 24-05-2014 22:35:00 11.8 C 9.16 g/m*3 11.8 C 0 km/h
2861 24-05-2014 22:40:00 11.8 C 9.16 g/m*3 11.8 C 0 km/h
2862 24-05-2014 22:45:00 11.7 C 9.1 g/m*3 11.7 C 0 km/h
2863 24-05-2014 22:50:00 11.6 C 9.04 g/m*3 11.6 C 0 km/h
2864 24-05-2014 22:55:00 11.4 C 8.93 g/m*3 11.4 C 0 km/h
2865 24-05-2014 23:00:00 11.3 C 8.87 g/m*3 11.3 C 0 km/h
2866 24-05-2014 23:05:00 11.3 C 8.98 g/m*3 11.3 C 0 km/h
2867 24-05-2014 23:10:00 11.2 C 8.92 g/m*3 11.2 C 0 km/h
2868 24-05-2014 23:15:00 11.2 C 8.82 g/m*3 11.2 C 0 km/h
2869 24-05-2014 23:20:00 11.3 C 8.87 g/m*3 11.3 C 0 km/h
2870 24-05-2014 23:25:00 11.3 C 8.87 g/m*3 11.3 C 0 km/h
2871 24-05-2014 23:30:00 11.2 C 8.82 g/m*3 11.2 C 0 km/h
2872 24-05-2014 23:35:00 11.1 C 8.76 g/m*3 11.1 C 0 km/h
2873 24-05-2014 23:40:00 11 C 8.81 g/m*3 11 C 0 km/h
2874 24-05-2014 23:45:00 10.9 C 8.75 g/m*3 10.9 C 0 km/h
2875 24-05-2014 23:50:00 10.8 C 8.7 g/m*3 10.8 C 0 km/h
Sensor: Nr:Datum:Temp:Abs-Feuchte:Windchill:Wind:
Aussen-T/F 2876 24-05-2014 23:55:00 10.7 C 8.74 g/m*3 10.7 C 0 km/h
2877 25-05-2014 00:00:00 10.7 C 8.74 g/m*3 10.7 C 0 km/h
2878 25-05-2014 00:05:00 10.7 C 8.74 g/m*3 10.7 C 0 km/h
2879 25-05-2014 00:10:00 10.6 C 8.69 g/m*3 10.6 C 0 km/h
2880 25-05-2014 00:15:00 10.5 C 8.53 g/m*3 10.5 C 1.6 km/h
2881 25-05-2014 00:20:00 10.4 C 8.48 g/m*3 10.4 C 1.6 km/h
2882 25-05-2014 00:25:00 10.3 C 8.52 g/m*3 10.3 C 0 km/h
2883 25-05-2014 00:30:00 10.2 C 8.47 g/m*3 10.2 C 0 km/h
2884 25-05-2014 00:35:00 10 C 8.46 g/m*3 10 C 0 km/h
2885 25-05-2014 00:40:00 9.9 C 8.4 g/m*3 9.9 C 0 km/h
2886 25-05-2014 00:45:00 9.9 C 8.5 g/m*3 9.9 C 0 km/h
2887 25-05-2014 00:50:00 9.8 C 8.44 g/m*3 9.8 C 0 km/h
2888 25-05-2014 00:55:00 9.8 C 8.44 g/m*3 9.8 C 0 km/h
2889 25-05-2014 01:00:00 9.7 C 8.39 g/m*3 9.7 C 0 km/h
2890 25-05-2014 01:05:00 9.7 C 8.39 g/m*3 9.7 C 0 km/h
2891 25-05-2014 01:10:00 9.6 C 8.34 g/m*3 9.6 C 0 km/h
2892 25-05-2014 01:15:00 9.5 C 8.28 g/m*3 9.5 C 0 km/h
2893 25-05-2014 01:20:00 9.5 C 8.28 g/m*3 9.5 C 0 km/h
2894 25-05-2014 01:25:00 9.4 C 8.23 g/m*3 9.4 C 0 km/h
2895 25-05-2014 01:30:00 9.3 C 8.27 g/m*3 9.3 C 0 km/h
2896 25-05-2014 01:35:00 9.3 C 8.27 g/m*3 9.3 C 0 km/h
2897 25-05-2014 01:40:00 9.3 C 8.27 g/m*3 9.3 C 0 km/h
2898 25-05-2014 01:45:00 9.3 C 8.27 g/m*3 9.3 C 0 km/h
2899 25-05-2014 01:50:00 9.3 C 8.36 g/m*3 9.3 C 0 km/h
2900 25-05-2014 01:55:00 9.3 C 8.36 g/m*3 9.3 C 0 km/h
Sensor: Nr:Datum:Temp:Abs-Feuchte:Windchill:Wind:
Aussen-T/F 2901 25-05-2014 02:00:00 9.2 C 8.22 g/m*3 9.2 C 0 km/h
2902 25-05-2014 02:05:00 9.1 C 8.16 g/m*3 9.1 C 0 km/h
2903 25-05-2014 02:10:00 9 C 8.11 g/m*3 9 C 0 km/h
2904 25-05-2014 02:15:00 8.9 C 8.15 g/m*3 8.9 C 0 km/h
2905 25-05-2014 02:20:00 8.9 C 8.15 g/m*3 8.9 C 0 km/h
2906 25-05-2014 02:25:00 8.9 C 8.15 g/m*3 8.9 C 0 km/h
2907 25-05-2014 02:30:00 8.8 C 8.09 g/m*3 8.8 C 0 km/h
2908 25-05-2014 02:35:00 8.8 C 8.09 g/m*3 8.8 C 0 km/h
2909 25-05-2014 02:40:00 8.7 C 8.04 g/m*3 8.7 C 0 km/h
2910 25-05-2014 02:45:00 8.7 C 8.13 g/m*3 8.7 C 0 km/h
2911 25-05-2014 02:50:00 8.7 C 8.04 g/m*3 8.7 C 0 km/h
2912 25-05-2014 02:55:00 8.7 C 8.13 g/m*3 8.7 C 0 km/h
2913 25-05-2014 03:00:00 8.6 C 8.08 g/m*3 8.6 C 0 km/h
2914 25-05-2014 03:05:00 8.6 C 8.08 g/m*3 8.6 C 0 km/h
2915 25-05-2014 03:10:00 8.5 C 8.03 g/m*3 8.5 C 0 km/h
2916 25-05-2014 03:15:00 8.5 C 8.03 g/m*3 8.5 C 0 km/h
2917 25-05-2014 03:20:00 8.4 C 7.97 g/m*3 8.4 C 0 km/h
2918 25-05-2014 03:25:00 8.3 C 7.92 g/m*3 8.3 C 0 km/h
2919 25-05-2014 03:30:00 8.3 C 7.92 g/m*3 8.3 C 0 km/h
2920 25-05-2014 03:35:00 8.2 C 7.87 g/m*3 8.2 C 0 km/h
2921 25-05-2014 03:40:00 8.2 C 7.87 g/m*3 8.2 C 0 km/h
2922 25-05-2014 03:45:00 8.2 C 7.87 g/m*3 8.2 C 0 km/h
2923 25-05-2014 03:50:00 8.2 C 7.87 g/m*3 8.2 C 0 km/h
2924 25-05-2014 03:55:00 8.1 C 7.9 g/m*3 8.1 C 0 km/h
2925 25-05-2014 04:00:00 8.1 C 7.9 g/m*3 8.1 C 0 km/h
Sensor: Nr:Datum:Temp:Abs-Feuchte:Windchill:Wind:
Aussen-T/F 2926 25-05-2014 04:05:00 8.1 C 7.9 g/m*3 8.1 C 0 km/h
2927 25-05-2014 04:10:00 8 C 7.85 g/m*3 8 C 0 km/h
2928 25-05-2014 04:15:00 7.9 C 7.8 g/m*3 7.9 C 0 km/h
2929 25-05-2014 04:20:00 7.9 C 7.8 g/m*3 7.9 C 0 km/h
2930 25-05-2014 04:25:00 7.9 C 7.8 g/m*3 7.9 C 0 km/h
2931 25-05-2014 04:30:00 7.9 C 7.8 g/m*3 7.9 C 0 km/h
2932 25-05-2014 04:35:00 7.8 C 7.75 g/m*3 7.8 C 0 km/h
2933 25-05-2014 04:40:00 7.8 C 7.75 g/m*3 7.8 C 0 km/h
2934 25-05-2014 04:45:00 7.8 C 7.75 g/m*3 7.8 C 0 km/h
2935 25-05-2014 04:50:00 7.8 C 7.75 g/m*3 7.8 C 0 km/h
2936 25-05-2014 04:55:00 7.7 C 7.7 g/m*3 7.7 C 0 km/h
2937 25-05-2014 05:00:00 7.7 C 7.7 g/m*3 7.7 C 0 km/h
2938 25-05-2014 05:05:00 7.7 C 7.7 g/m*3 7.7 C 0 km/h
2939 25-05-2014 05:10:00 7.7 C 7.7 g/m*3 7.7 C 0 km/h
2940 25-05-2014 05:15:00 7.6 C 7.65 g/m*3 7.6 C 0 km/h
2941 25-05-2014 05:20:00 7.6 C 7.65 g/m*3 7.6 C 0 km/h
2942 25-05-2014 05:25:00 7.5 C 7.6 g/m*3 7.5 C 0 km/h
2943 25-05-2014 05:30:00 7.5 C 7.68 g/m*3 7.5 C 0 km/h
2944 25-05-2014 05:35:00 7.5 C 7.68 g/m*3 7.5 C 0 km/h
2945 25-05-2014 05:40:00 7.5 C 7.68 g/m*3 7.5 C 0 km/h
2946 25-05-2014 05:45:00 7.5 C 7.68 g/m*3 7.5 C 0 km/h
2947 25-05-2014 05:50:00 7.4 C 7.63 g/m*3 7.4 C 0 km/h
2948 25-05-2014 05:55:00 7.4 C 7.63 g/m*3 7.4 C 0 km/h
2949 25-05-2014 06:00:00 7.4 C 7.63 g/m*3 7.4 C 0 km/h
2950 25-05-2014 06:05:00 7.4 C 7.63 g/m*3 7.4 C 1.6 km/h
Sensor: Nr:Datum:Temp:Abs-Feuchte:Windchill:Wind:
Aussen-T/F 2951 25-05-2014 06:10:00 7.5 C 7.68 g/m*3 7.5 C 1.6 km/h
2952 25-05-2014 06:15:00 7.5 C 7.68 g/m*3 7.5 C 0 km/h
2953 25-05-2014 06:20:00 7.5 C 7.68 g/m*3 7.5 C 0 km/h
2954 25-05-2014 06:25:00 7.5 C 7.68 g/m*3 7.5 C 0 km/h
2955 25-05-2014 06:30:00 7.5 C 7.68 g/m*3 7.5 C 0 km/h
2956 25-05-2014 06:35:00 7.5 C 7.68 g/m*3 7.5 C 0 km/h
2957 25-05-2014 06:40:00 7.5 C 7.68 g/m*3 7.5 C 0 km/h
2958 25-05-2014 06:45:00 7.5 C 7.68 g/m*3 7.5 C 0 km/h
2959 25-05-2014 06:50:00 7.5 C 7.68 g/m*3 7.5 C 0 km/h
2960 25-05-2014 06:55:00 7.6 C 7.73 g/m*3 7.6 C 3.2 km/h
2961 25-05-2014 07:00:00 7.7 C 7.78 g/m*3 7.7 C 4.8 km/h
2962 25-05-2014 07:05:00 7.8 C 7.83 g/m*3 7.8 C 3.2 km/h
2963 25-05-2014 07:10:00 7.8 C 7.83 g/m*3 7.8 C 3.2 km/h
2964 25-05-2014 07:15:00 7.8 C 7.83 g/m*3 7.8 C 3.2 km/h
2965 25-05-2014 07:20:00 7.9 C 7.89 g/m*3 7.9 C 3.2 km/h
2966 25-05-2014 07:25:00 7.9 C 7.89 g/m*3 7.9 C 3.2 km/h
2967 25-05-2014 07:30:00 8 C 8.02 g/m*3 8 C 0 km/h
2968 25-05-2014 07:35:00 8.1 C 8.07 g/m*3 8.1 C 1.6 km/h
2969 25-05-2014 07:40:00 8.2 C 8.04 g/m*3 8.2 C 0 km/h
2970 25-05-2014 07:45:00 8.3 C 8.18 g/m*3 8.3 C 0 km/h
2971 25-05-2014 07:50:00 8.4 C 8.23 g/m*3 8.4 C 1.6 km/h
2972 25-05-2014 07:55:00 8.6 C 8.34 g/m*3 8.6 C 0 km/h
2973 25-05-2014 08:00:00 8.9 C 8.41 g/m*3 8.9 C 0 km/h
2974 25-05-2014 08:05:00 9.1 C 8.52 g/m*3 9.1 C 0 km/h
2975 25-05-2014 08:10:00 9.3 C 8.54 g/m*3 9.3 C 0 km/h
Sensor: Nr:Datum:Temp:Abs-Feuchte:Windchill:Wind:
Aussen-T/F 2976 25-05-2014 08:15:00 9.6 C 8.7 g/m*3 9.6 C 0 km/h
2977 25-05-2014 08:20:00 9.8 C 8.72 g/m*3 9.8 C 0 km/h
2978 25-05-2014 08:25:00 10.2 C 8.85 g/m*3 10.2 C 0 km/h
2979 25-05-2014 08:30:00 10.3 C 8.91 g/m*3 10.3 C 0 km/h
2980 25-05-2014 08:35:00 10.6 C 8.98 g/m*3 10.6 C 0 km/h
2981 25-05-2014 08:40:00 10.8 C 8.99 g/m*3 10.8 C 0 km/h
2982 25-05-2014 08:45:00 11.1 C 9.07 g/m*3 11.1 C 0 km/h
2983 25-05-2014 08:50:00 11.3 C 9.18 g/m*3 11.3 C 0 km/h
2984 25-05-2014 08:55:00 11.4 C 9.14 g/m*3 11.4 C 0 km/h
2985 25-05-2014 09:00:00 11.6 C 9.25 g/m*3 11.6 C 0 km/h
2986 25-05-2014 09:05:00 11.6 C 9.25 g/m*3 11.6 C 0 km/h
2987 25-05-2014 09:10:00 11.5 C 9.19 g/m*3 11.5 C 0 km/h
2988 25-05-2014 09:15:00 11.4 C 9.24 g/m*3 11.4 C 0 km/h
2989 25-05-2014 09:20:00 11.4 C 9.34 g/m*3 11.4 C 0 km/h
2990 25-05-2014 09:25:00 11.6 C 9.46 g/m*3 11.6 C 0 km/h
2991 25-05-2014 09:30:00 11.7 C 9.62 g/m*3 11.7 C 0 km/h
2992 25-05-2014 09:35:00 11.9 C 9.74 g/m*3 11.9 C 0 km/h
2993 25-05-2014 09:40:00 12.1 C 9.87 g/m*3 12.1 C 0 km/h
2994 25-05-2014 09:45:00 12.3 C 9.88 g/m*3 12.3 C 0 km/h
2995 25-05-2014 09:50:00 12.4 C 9.94 g/m*3 12.4 C 0 km/h
2996 25-05-2014 09:55:00 12.7 C 10.13 g/m*3 12.7 C 1.6 km/h
2997 25-05-2014 10:00:00 13.1 C 10.38 g/m*3 13.1 C 0 km/h
2998 25-05-2014 10:05:00 13.6 C 10.59 g/m*3 13.6 C 0 km/h
2999 25-05-2014 10:10:00 14.2 C 10.75 g/m*3 14.2 C 0 km/h
3000 25-05-2014 10:15:00 14.7 C 10.83 g/m*3 14.7 C 0 km/h
Sensor: Nr:Datum:Temp:Abs-Feuchte:Windchill:Wind:
Aussen-T/F 3001 25-05-2014 10:20:00 14.9 C 10.96 g/m*3 14.9 C 0 km/h
3002 25-05-2014 10:25:00 15.3 C 10.71 g/m*3 15.3 C 1.6 km/h
3003 25-05-2014 10:30:00 15.8 C 10.9 g/m*3 15.8 C 1.6 km/h
3004 25-05-2014 10:35:00 16.2 C 11.17 g/m*3 16.2 C 1.6 km/h
3005 25-05-2014 10:40:00 16.6 C 10.88 g/m*3 16.6 C 3.2 km/h
3006 25-05-2014 10:45:00 16.8 C 11.15 g/m*3 16.8 C 1.6 km/h
3007 25-05-2014 10:50:00 16.7 C 11.23 g/m*3 16.7 C 0 km/h
3008 25-05-2014 10:55:00 16.7 C 11.37 g/m*3 16.7 C 1.6 km/h
3009 25-05-2014 11:00:00 16.8 C 11.15 g/m*3 16.8 C 3.2 km/h
3010 25-05-2014 11:05:00 17.2 C 11.42 g/m*3 17.2 C 1.6 km/h
3011 25-05-2014 11:10:00 17.4 C 10.97 g/m*3 17.4 C 0 km/h
3012 25-05-2014 11:15:00 17.8 C 11.08 g/m*3 17.8 C 1.6 km/h
3013 25-05-2014 11:20:00 18.1 C 11.59 g/m*3 18.1 C 0 km/h
3014 25-05-2014 11:25:00 18.3 C 11.41 g/m*3 18.3 C 4.8 km/h
3015 25-05-2014 11:30:00 18.6 C 10.19 g/m*3 18.6 C 1.6 km/h
3016 25-05-2014 11:35:00 18.7 C 10.73 g/m*3 18.7 C 3.2 km/h
3017 25-05-2014 11:40:00 19.1 C 10.16 g/m*3 19.1 C 4.8 km/h
3018 25-05-2014 11:45:00 19.6 C 9.62 g/m*3 19.6 C 6.4 km/h
3019 25-05-2014 11:50:00 20 C 9.85 g/m*3 20 C 3.2 km/h
3020 25-05-2014 11:55:00 20.2 C 9.97 g/m*3 20.2 C 8.1 km/h
3021 25-05-2014 12:00:00 20.6 C 10.02 g/m*3 20.6 C 8.1 km/h
3022 25-05-2014 12:05:00 20.8 C 9.78 g/m*3 20.8 C 9.7 km/h
3023 25-05-2014 12:10:00 20.9 C 9.29 g/m*3 20.9 C 11.3 km/h
3024 25-05-2014 12:15:00 21.1 C 10.5 g/m*3 21.1 C 11.3 km/h
3025 25-05-2014 12:20:00 20.9 C 8.56 g/m*3 20.9 C 4.8 km/h
Sensor: Nr:Datum:Temp:Abs-Feuchte:Windchill:Wind:
Aussen-T/F 3026 25-05-2014 12:25:00 20.9 C 9.11 g/m*3 20.9 C 8.1 km/h
3027 25-05-2014 12:30:00 21.1 C 9.03 g/m*3 21.1 C 6.4 km/h
3028 25-05-2014 12:35:00 21.3 C 9.69 g/m*3 21.3 C 8.1 km/h
3029 25-05-2014 12:40:00 21.3 C 8.57 g/m*3 21.3 C 6.4 km/h
3030 25-05-2014 12:45:00 21.3 C 8.76 g/m*3 21.3 C 8.1 km/h
3031 25-05-2014 12:50:00 21.5 C 8.86 g/m*3 21.5 C 4.8 km/h
3032 25-05-2014 12:55:00 21.7 C 9.73 g/m*3 21.7 C 6.4 km/h
3033 25-05-2014 13:00:00 22.1 C 8.78 g/m*3 22.1 C 6.4 km/h
3034 25-05-2014 13:05:00 22 C 8.93 g/m*3 22 C 9.7 km/h
3035 25-05-2014 13:10:00 21.9 C 8.49 g/m*3 21.9 C 8.1 km/h
3036 25-05-2014 13:15:00 21.9 C 8.3 g/m*3 21.9 C 8.1 km/h
3037 25-05-2014 13:20:00 21.9 C 8.88 g/m*3 21.9 C 9.7 km/h
3038 25-05-2014 13:25:00 22.1 C 8.39 g/m*3 22.1 C 9.7 km/h
3039 25-05-2014 13:30:00 22.4 C 8.14 g/m*3 22.4 C 11.3 km/h
3040 25-05-2014 13:35:00 22.3 C 8.49 g/m*3 22.3 C 3.2 km/h
3041 25-05-2014 13:40:00 22.4 C 8.94 g/m*3 22.4 C 8.1 km/h
3042 25-05-2014 13:45:00 22.6 C 9.44 g/m*3 22.6 C 6.4 km/h
3043 25-05-2014 13:50:00 22.4 C 9.33 g/m*3 22.4 C 4.8 km/h
3044 25-05-2014 13:55:00 22.7 C 9.29 g/m*3 22.7 C 9.7 km/h
3045 25-05-2014 14:00:00 23.1 C 9.1 g/m*3 23.1 C 8.1 km/h
3046 25-05-2014 14:05:00 22.9 C 10.01 g/m*3 22.9 C 4.8 km/h
3047 25-05-2014 14:10:00 22.9 C 10.42 g/m*3 22.9 C 6.4 km/h
3048 25-05-2014 14:15:00 23.1 C 9.51 g/m*3 23.1 C 4.8 km/h
3049 25-05-2014 14:20:00 23.1 C 9.72 g/m*3 23.1 C 8.1 km/h
3050 25-05-2014 14:25:00 23.2 C 9.36 g/m*3 23.2 C 8.1 km/h
Sensor: Nr:Datum:Temp:Abs-Feuchte:Windchill:Wind:
Aussen-T/F 3051 25-05-2014 14:30:00 23.1 C 9.1 g/m*3 23.1 C 9.7 km/h
3052 25-05-2014 14:35:00 22.9 C 8.79 g/m*3 22.9 C 9.7 km/h
3053 25-05-2014 14:40:00 23.1 C 9.1 g/m*3 23.1 C 6.4 km/h
3054 25-05-2014 14:45:00 23.2 C 9.36 g/m*3 23.2 C 8.1 km/h
3055 25-05-2014 14:50:00 23.3 C 9.83 g/m*3 23.3 C 9.7 km/h
3056 25-05-2014 14:55:00 23.5 C 9.52 g/m*3 23.5 C 11.3 km/h
3057 25-05-2014 15:00:00 23.4 C 9.67 g/m*3 23.4 C 9.7 km/h
3058 25-05-2014 15:05:00 23.4 C 9.46 g/m*3 23.4 C 14.5 km/h
3059 25-05-2014 15:10:00 23.8 C 9.68 g/m*3 23.8 C 16.1 km/h
3060 25-05-2014 15:15:00 23.7 C 8.98 g/m*3 23.7 C 9.7 km/h
3061 25-05-2014 15:20:00 23.3 C 9.2 g/m*3 23.3 C 6.4 km/h
3062 25-05-2014 15:25:00 23.3 C 8.99 g/m*3 23.3 C 16.1 km/h
3063 25-05-2014 15:30:00 23.6 C 8.93 g/m*3 23.6 C 8.1 km/h
3064 25-05-2014 15:35:00 23.6 C 9.36 g/m*3 23.6 C 8.1 km/h
3065 25-05-2014 15:40:00 23.5 C 9.31 g/m*3 23.5 C 8.1 km/h
3066 25-05-2014 15:45:00 23.6 C 9.15 g/m*3 23.6 C 8.1 km/h
3067 25-05-2014 15:50:00 23.4 C 9.67 g/m*3 23.4 C 6.4 km/h
3068 25-05-2014 15:55:00 23.2 C 8.32 g/m*3 23.2 C 4.8 km/h
3069 25-05-2014 16:00:00 22.9 C 10.42 g/m*3 22.9 C 6.4 km/h
3070 25-05-2014 16:05:00 22.7 C 9.09 g/m*3 22.7 C 4.8 km/h
3071 25-05-2014 16:10:00 22.7 C 9.29 g/m*3 22.7 C 9.7 km/h
3072 25-05-2014 16:15:00 23.1 C 9.3 g/m*3 23.1 C 8.1 km/h
3073 25-05-2014 16:20:00 23.7 C 10.69 g/m*3 23.7 C 3.2 km/h
3074 25-05-2014 16:25:00 23.6 C 9.36 g/m*3 23.6 C 4.8 km/h
3075 25-05-2014 16:30:00 23.8 C 9.25 g/m*3 23.8 C 6.4 km/h
Sensor: Nr:Datum:Temp:Abs-Feuchte:Windchill:Wind:
Aussen-T/F 3076 25-05-2014 16:35:00 23.8 C 9.46 g/m*3 23.8 C 4.8 km/h
3077 25-05-2014 16:40:00 24.1 C 9.41 g/m*3 24.1 C 9.7 km/h
3078 25-05-2014 16:45:00 24.6 C 9.45 g/m*3 24.6 C 9.7 km/h
3079 25-05-2014 16:50:00 24.7 C 8.83 g/m*3 24.7 C 4.8 km/h
3080 25-05-2014 16:55:00 24.8 C 9.56 g/m*3 24.8 C 4.8 km/h
3081 25-05-2014 17:00:00 24.8 C 8.88 g/m*3 24.8 C 4.8 km/h
3082 25-05-2014 17:05:00 24.6 C 8.78 g/m*3 24.6 C 1.6 km/h
3083 25-05-2014 17:10:00 24.5 C 9.4 g/m*3 24.5 C 8.1 km/h
3084 25-05-2014 17:15:00 24.4 C 8.9 g/m*3 24.4 C 3.2 km/h
3085 25-05-2014 17:20:00 24.4 C 8.9 g/m*3 24.4 C 0 km/h
3086 25-05-2014 17:55:00 24.6 C 9.23 g/m*3 24.6 C 3.2 km/h
3087 25-05-2014 18:00:00 24.6 C 9.23 g/m*3 24.6 C 4.8 km/h
3088 25-05-2014 18:05:00 24.3 C 9.52 g/m*3 24.3 C 4.8 km/h
3089 25-05-2014 18:10:00 23.8 C 9.25 g/m*3 23.8 C 3.2 km/h
3090 25-05-2014 18:15:00 23.8 C 9.25 g/m*3 23.8 C 4.8 km/h
3091 25-05-2014 18:20:00 23.8 C 9.25 g/m*3 23.8 C 4.8 km/h
3092 25-05-2014 18:25:00 23.3 C 8.99 g/m*3 23.3 C 3.2 km/h
3093 25-05-2014 18:30:00 23.3 C 8.99 g/m*3 23.3 C 6.4 km/h
3094 25-05-2014 18:35:00 23.3 C 9.62 g/m*3 23.3 C 6.4 km/h
3095 25-05-2014 18:40:00 23.9 C 9.3 g/m*3 23.9 C 6.4 km/h
3096 25-05-2014 18:45:00 24.2 C 8.8 g/m*3 24.2 C 8.1 km/h
3097 25-05-2014 18:50:00 24 C 10.23 g/m*3 24 C 1.6 km/h
3098 25-05-2014 18:55:00 23.4 C 11.78 g/m*3 23.4 C 3.2 km/h
3099 25-05-2014 19:00:00 22.8 C 10.36 g/m*3 22.8 C 3.2 km/h
3100 25-05-2014 19:05:00 22.3 C 12.24 g/m*3 22.3 C 0 km/h
Sensor: Nr:Datum:Temp:Abs-Feuchte:Windchill:Wind:
Aussen-T/F 3101 25-05-2014 19:10:00 21.5 C 12.45 g/m*3 21.5 C 0 km/h
3102 25-05-2014 19:15:00 20.7 C 12.06 g/m*3 20.7 C 0 km/h
3103 25-05-2014 19:20:00 20.1 C 11.82 g/m*3 20.1 C 0 km/h
3104 25-05-2014 19:25:00 19.7 C 11.89 g/m*3 19.7 C 0 km/h
3105 25-05-2014 19:30:00 19.3 C 11.78 g/m*3 19.3 C 1.6 km/h
3106 25-05-2014 19:35:00 19.1 C 11.8 g/m*3 19.1 C 0 km/h
3107 25-05-2014 19:40:00 18.8 C 11.92 g/m*3 18.8 C 1.6 km/h
3108 25-05-2014 19:45:00 18.7 C 11.85 g/m*3 18.7 C 0 km/h
3109 25-05-2014 19:50:00 18.5 C 11.87 g/m*3 18.5 C 0 km/h
3110 25-05-2014 19:55:00 18.4 C 11.95 g/m*3 18.4 C 0 km/h
3111 25-05-2014 20:00:00 18.2 C 11.81 g/m*3 18.2 C 0 km/h
3112 25-05-2014 20:05:00 18.1 C 11.74 g/m*3 18.1 C 0 km/h
3113 25-05-2014 20:10:00 17.9 C 11.6 g/m*3 17.9 C 0 km/h
3114 25-05-2014 20:15:00 17.8 C 11.54 g/m*3 17.8 C 1.6 km/h
3115 25-05-2014 20:20:00 17.7 C 11.62 g/m*3 17.7 C 0 km/h
3116 25-05-2014 20:25:00 17.6 C 11.4 g/m*3 17.6 C 1.6 km/h
3117 25-05-2014 20:30:00 17.5 C 11.48 g/m*3 17.5 C 0 km/h
3118 25-05-2014 20:35:00 17.4 C 11.41 g/m*3 17.4 C 1.6 km/h
3119 25-05-2014 20:40:00 17.3 C 11.34 g/m*3 17.3 C 1.6 km/h
3120 25-05-2014 20:45:00 17.2 C 11.28 g/m*3 17.2 C 1.6 km/h
3121 25-05-2014 20:50:00 17.2 C 11.13 g/m*3 17.2 C 1.6 km/h
3122 25-05-2014 20:55:00 17.1 C 11.06 g/m*3 17.1 C 1.6 km/h
3123 25-05-2014 21:00:00 17 C 11 g/m*3 17 C 1.6 km/h
3124 25-05-2014 21:05:00 16.9 C 11.08 g/m*3 16.9 C 1.6 km/h
3125 25-05-2014 21:10:00 16.8 C 11.01 g/m*3 16.8 C 3.2 km/h
Sensor: Nr:Datum:Temp:Abs-Feuchte:Windchill:Wind:
Aussen-T/F 3126 25-05-2014 21:15:00 16.7 C 10.94 g/m*3 16.7 C 0 km/h
3127 25-05-2014 21:20:00 16.6 C 10.88 g/m*3 16.6 C 1.6 km/h
3128 25-05-2014 21:25:00 16.6 C 11.16 g/m*3 16.6 C 0 km/h
3129 25-05-2014 21:30:00 16.4 C 10.75 g/m*3 16.4 C 0 km/h
3130 25-05-2014 21:35:00 16.4 C 10.89 g/m*3 16.4 C 1.6 km/h
3131 25-05-2014 21:40:00 16.3 C 10.68 g/m*3 16.3 C 0 km/h
3132 25-05-2014 21:45:00 16.3 C 10.68 g/m*3 16.3 C 0 km/h
3133 25-05-2014 21:50:00 16.2 C 10.48 g/m*3 16.2 C 0 km/h
3134 25-05-2014 21:55:00 16.1 C 10.55 g/m*3 16.1 C 0 km/h
3135 25-05-2014 22:00:00 16.1 C 10.55 g/m*3 16.1 C 0 km/h
3136 25-05-2014 22:05:00 15.8 C 10.5 g/m*3 15.8 C 0 km/h
3137 25-05-2014 22:10:00 15.8 C 10.77 g/m*3 15.8 C 0 km/h
3138 25-05-2014 22:15:00 15.7 C 10.57 g/m*3 15.7 C 1.6 km/h
3139 25-05-2014 22:20:00 15.7 C 10.7 g/m*3 15.7 C 0 km/h
3140 25-05-2014 22:25:00 15.6 C 10.51 g/m*3 15.6 C 0 km/h
3141 25-05-2014 22:30:00 15.6 C 10.37 g/m*3 15.6 C 0 km/h
3142 25-05-2014 22:35:00 15.6 C 10.37 g/m*3 15.6 C 0 km/h
3143 25-05-2014 22:40:00 15.6 C 10.51 g/m*3 15.6 C 0 km/h
3144 25-05-2014 22:45:00 15.6 C 10.37 g/m*3 15.6 C 0 km/h
3145 25-05-2014 22:50:00 15.6 C 10.64 g/m*3 15.6 C 0 km/h
3146 25-05-2014 22:55:00 15.6 C 10.77 g/m*3 15.6 C 0 km/h
3147 25-05-2014 23:00:00 15.5 C 10.57 g/m*3 15.5 C 0 km/h
3148 25-05-2014 23:05:00 15.5 C 10.57 g/m*3 15.5 C 0 km/h
3149 25-05-2014 23:10:00 15.4 C 10.51 g/m*3 15.4 C 0 km/h
3150 25-05-2014 23:15:00 15.3 C 10.45 g/m*3 15.3 C 0 km/h
Sensor: Nr:Datum:Temp:Abs-Feuchte:Windchill:Wind:
Aussen-T/F 3151 25-05-2014 23:20:00 15.3 C 10.45 g/m*3 15.3 C 0 km/h
3152 25-05-2014 23:25:00 15.2 C 10.38 g/m*3 15.2 C 0 km/h
3153 25-05-2014 23:30:00 15.1 C 10.19 g/m*3 15.1 C 0 km/h
3154 25-05-2014 23:35:00 14.9 C 10.07 g/m*3 14.9 C 0 km/h
3155 25-05-2014 23:40:00 14.8 C 10.13 g/m*3 14.8 C 0 km/h
3156 25-05-2014 23:45:00 14.8 C 10.13 g/m*3 14.8 C 0 km/h
3157 25-05-2014 23:50:00 14.7 C 10.07 g/m*3 14.7 C 0 km/h
3158 25-05-2014 23:55:00 14.7 C 10.2 g/m*3 14.7 C 0 km/h
3159 26-05-2014 00:00:00 14.6 C 10.26 g/m*3 14.6 C 0 km/h
3160 26-05-2014 00:05:00 14.6 C 10.14 g/m*3 14.6 C 0 km/h
3161 26-05-2014 00:10:00 14.5 C 10.07 g/m*3 14.5 C 0 km/h
3162 26-05-2014 00:15:00 14.4 C 10.14 g/m*3 14.4 C 0 km/h
3163 26-05-2014 00:20:00 14.3 C 10.07 g/m*3 14.3 C 0 km/h
3164 26-05-2014 00:25:00 14.3 C 10.2 g/m*3 14.3 C 0 km/h
3165 26-05-2014 00:30:00 14.2 C 10.14 g/m*3 14.2 C 0 km/h
3166 26-05-2014 00:35:00 14.1 C 10.07 g/m*3 14.1 C 0 km/h
3167 26-05-2014 00:40:00 13.9 C 9.95 g/m*3 13.9 C 0 km/h
3168 26-05-2014 00:45:00 13.9 C 9.95 g/m*3 13.9 C 0 km/h
3169 26-05-2014 00:50:00 13.9 C 9.95 g/m*3 13.9 C 0 km/h
3170 26-05-2014 00:55:00 13.9 C 9.95 g/m*3 13.9 C 0 km/h
3171 26-05-2014 01:00:00 14 C 10.01 g/m*3 14 C 0 km/h
3172 26-05-2014 01:05:00 14 C 10.01 g/m*3 14 C 0 km/h
3173 26-05-2014 01:10:00 13.9 C 9.95 g/m*3 13.9 C 0 km/h
3174 26-05-2014 01:15:00 13.9 C 9.95 g/m*3 13.9 C 0 km/h
3175 26-05-2014 01:20:00 13.9 C 9.83 g/m*3 13.9 C 0 km/h
Sensor: Nr:Datum:Temp:Abs-Feuchte:Windchill:Wind:
Aussen-T/F 3176 26-05-2014 01:25:00 13.9 C 9.95 g/m*3 13.9 C 0 km/h
3177 26-05-2014 01:30:00 13.8 C 9.89 g/m*3 13.8 C 0 km/h
3178 26-05-2014 01:35:00 13.8 C 9.89 g/m*3 13.8 C 0 km/h
3179 26-05-2014 01:40:00 13.7 C 9.71 g/m*3 13.7 C 0 km/h
3180 26-05-2014 01:45:00 13.7 C 9.83 g/m*3 13.7 C 0 km/h
3181 26-05-2014 01:50:00 13.7 C 9.95 g/m*3 13.7 C 0 km/h
3182 26-05-2014 01:55:00 13.6 C 9.89 g/m*3 13.6 C 0 km/h
3183 26-05-2014 02:00:00 13.5 C 9.83 g/m*3 13.5 C 0 km/h
3184 26-05-2014 02:05:00 13.4 C 9.88 g/m*3 13.4 C 0 km/h
3185 26-05-2014 02:10:00 13.4 C 10 g/m*3 13.4 C 0 km/h
3186 26-05-2014 02:15:00 13.4 C 10 g/m*3 13.4 C 0 km/h
3187 26-05-2014 02:20:00 13.3 C 9.82 g/m*3 13.3 C 0 km/h
3188 26-05-2014 02:25:00 13.3 C 9.82 g/m*3 13.3 C 0 km/h
3189 26-05-2014 02:30:00 13.3 C 9.82 g/m*3 13.3 C 0 km/h
3190 26-05-2014 02:35:00 13.2 C 9.76 g/m*3 13.2 C 0 km/h
3191 26-05-2014 02:40:00 13.2 C 9.87 g/m*3 13.2 C 0 km/h
3192 26-05-2014 02:45:00 13.2 C 9.87 g/m*3 13.2 C 0 km/h
3193 26-05-2014 02:50:00 13.2 C 9.87 g/m*3 13.2 C 0 km/h
3194 26-05-2014 02:55:00 13.1 C 9.81 g/m*3 13.1 C 0 km/h
3195 26-05-2014 03:00:00 13.1 C 9.81 g/m*3 13.1 C 0 km/h
3196 26-05-2014 03:05:00 13.1 C 9.93 g/m*3 13.1 C 0 km/h
3197 26-05-2014 03:10:00 13.1 C 9.93 g/m*3 13.1 C 0 km/h
3198 26-05-2014 03:15:00 13 C 9.75 g/m*3 13 C 0 km/h
3199 26-05-2014 03:20:00 13 C 9.75 g/m*3 13 C 0 km/h
3200 26-05-2014 03:25:00 13 C 9.75 g/m*3 13 C 0 km/h
Sensor: Nr:Datum:Temp:Abs-Feuchte:Windchill:Wind:
Aussen-T/F 3201 26-05-2014 03:30:00 13 C 9.87 g/m*3 13 C 0 km/h
3202 26-05-2014 03:35:00 12.9 C 9.81 g/m*3 12.9 C 0 km/h
3203 26-05-2014 03:40:00 12.9 C 9.81 g/m*3 12.9 C 0 km/h
3204 26-05-2014 03:45:00 12.9 C 9.92 g/m*3 12.9 C 0 km/h
3205 26-05-2014 03:50:00 12.8 C 9.74 g/m*3 12.8 C 0 km/h
3206 26-05-2014 03:55:00 12.8 C 9.74 g/m*3 12.8 C 0 km/h
3207 26-05-2014 04:00:00 12.8 C 9.86 g/m*3 12.8 C 0 km/h
3208 26-05-2014 04:05:00 12.8 C 9.86 g/m*3 12.8 C 0 km/h
3209 26-05-2014 04:10:00 12.8 C 9.86 g/m*3 12.8 C 0 km/h
3210 26-05-2014 04:15:00 12.8 C 9.86 g/m*3 12.8 C 0 km/h
3211 26-05-2014 04:20:00 12.8 C 9.86 g/m*3 12.8 C 0 km/h
3212 26-05-2014 04:25:00 12.8 C 9.86 g/m*3 12.8 C 0 km/h
3213 26-05-2014 04:30:00 12.8 C 9.86 g/m*3 12.8 C 0 km/h
3214 26-05-2014 04:35:00 12.7 C 9.8 g/m*3 12.7 C 0 km/h
3215 26-05-2014 04:40:00 12.8 C 9.86 g/m*3 12.8 C 0 km/h
3216 26-05-2014 04:45:00 12.7 C 9.8 g/m*3 12.7 C 0 km/h
3217 26-05-2014 04:50:00 12.8 C 9.97 g/m*3 12.8 C 0 km/h